<?xml version="1.0" encoding="UTF-8" standalone="no" ?>
<gpx xmlns="http://www.topografix.com/GPX/1/1" xmlns:xsi="http://www.w3.org/2001/XMLSchema-instance" xsi:schemaLocation="http://www.topografix.com/GPX/1/1 http://www.topografix.com/GPX/1/1/gpx.xsd" version="1.1" creator="VisuGPX - https://www.visugpx.com">
  <metadata>
    <name>Randonnée à Cassagnoles</name>
    <desc><![CDATA[Une bonne balade au grand air... nous avons mis la petite laine sur les hauteurs pour admirer les magnifiques points de vue.]]></desc>
  </metadata>
  <trk>
    <name><![CDATA[13-JUIL-15 12:13:48]]></name>
    <trkseg>
      <trkpt lat="43.38381" lon="2.619">
        <ele>322.66</ele>
        <time>2015-07-13T06:34:22Z</time>
      </trkpt>
      <trkpt lat="43.38384" lon="2.61888">
        <ele>323.14</ele>
        <time>2015-07-13T06:34:25Z</time>
      </trkpt>
      <trkpt lat="43.38396" lon="2.61825">
        <ele>322.66</ele>
        <time>2015-07-13T06:34:42Z</time>
      </trkpt>
      <trkpt lat="43.38404" lon="2.61821">
        <ele>323.62</ele>
        <time>2015-07-13T06:35:02Z</time>
      </trkpt>
      <trkpt lat="43.38407" lon="2.61835">
        <ele>323.62</ele>
        <time>2015-07-13T06:35:03Z</time>
      </trkpt>
      <trkpt lat="43.38414" lon="2.6185">
        <ele>328.43</ele>
        <time>2015-07-13T06:35:07Z</time>
      </trkpt>
      <trkpt lat="43.38415" lon="2.61849">
        <ele>332.75</ele>
        <time>2015-07-13T06:35:08Z</time>
      </trkpt>
      <trkpt lat="43.38415" lon="2.61848">
        <ele>337.56</ele>
        <time>2015-07-13T06:35:09Z</time>
      </trkpt>
      <trkpt lat="43.38416" lon="2.61847">
        <ele>341.89</ele>
        <time>2015-07-13T06:35:10Z</time>
      </trkpt>
      <trkpt lat="43.38408" lon="2.61852">
        <ele>346.21</ele>
        <time>2015-07-13T06:35:11Z</time>
      </trkpt>
      <trkpt lat="43.38396" lon="2.61857">
        <ele>354.38</ele>
        <time>2015-07-13T06:35:13Z</time>
      </trkpt>
      <trkpt lat="43.38392" lon="2.61859">
        <ele>357.27</ele>
        <time>2015-07-13T06:35:14Z</time>
      </trkpt>
      <trkpt lat="43.38386" lon="2.61862">
        <ele>361.11</ele>
        <time>2015-07-13T06:35:15Z</time>
      </trkpt>
      <trkpt lat="43.38381" lon="2.61864">
        <ele>364.48</ele>
        <time>2015-07-13T06:35:16Z</time>
      </trkpt>
      <trkpt lat="43.38378" lon="2.61866">
        <ele>367.36</ele>
        <time>2015-07-13T06:35:17Z</time>
      </trkpt>
      <trkpt lat="43.38371" lon="2.61868">
        <ele>372.65</ele>
        <time>2015-07-13T06:35:19Z</time>
      </trkpt>
      <trkpt lat="43.38365" lon="2.61869">
        <ele>377.45</ele>
        <time>2015-07-13T06:35:21Z</time>
      </trkpt>
      <trkpt lat="43.38356" lon="2.61869">
        <ele>381.78</ele>
        <time>2015-07-13T06:35:23Z</time>
      </trkpt>
      <trkpt lat="43.38352" lon="2.6187">
        <ele>384.66</ele>
        <time>2015-07-13T06:35:25Z</time>
      </trkpt>
      <trkpt lat="43.38348" lon="2.61871">
        <ele>388.51</ele>
        <time>2015-07-13T06:35:27Z</time>
      </trkpt>
      <trkpt lat="43.38345" lon="2.61872">
        <ele>392.36</ele>
        <time>2015-07-13T06:35:30Z</time>
      </trkpt>
      <trkpt lat="43.38342" lon="2.61871">
        <ele>396.2</ele>
        <time>2015-07-13T06:35:33Z</time>
      </trkpt>
      <trkpt lat="43.3834" lon="2.61871">
        <ele>396.68</ele>
        <time>2015-07-13T06:35:34Z</time>
      </trkpt>
      <trkpt lat="43.38333" lon="2.61874">
        <ele>401.97</ele>
        <time>2015-07-13T06:35:39Z</time>
      </trkpt>
      <trkpt lat="43.38331" lon="2.61872">
        <ele>406.29</ele>
        <time>2015-07-13T06:35:43Z</time>
      </trkpt>
      <trkpt lat="43.38328" lon="2.61869">
        <ele>409.66</ele>
        <time>2015-07-13T06:35:47Z</time>
      </trkpt>
      <trkpt lat="43.38327" lon="2.61868">
        <ele>410.14</ele>
        <time>2015-07-13T06:35:48Z</time>
      </trkpt>
      <trkpt lat="43.38325" lon="2.61866">
        <ele>410.62</ele>
        <time>2015-07-13T06:35:50Z</time>
      </trkpt>
      <trkpt lat="43.38319" lon="2.61863">
        <ele>414.95</ele>
        <time>2015-07-13T06:35:55Z</time>
      </trkpt>
      <trkpt lat="43.38315" lon="2.6186">
        <ele>416.87</ele>
        <time>2015-07-13T06:36:01Z</time>
      </trkpt>
      <trkpt lat="43.38305" lon="2.61855">
        <ele>419.27</ele>
        <time>2015-07-13T06:36:07Z</time>
      </trkpt>
      <trkpt lat="43.38297" lon="2.61856">
        <ele>421.68</ele>
        <time>2015-07-13T06:36:14Z</time>
      </trkpt>
      <trkpt lat="43.38283" lon="2.61858">
        <ele>423.6</ele>
        <time>2015-07-13T06:36:25Z</time>
      </trkpt>
      <trkpt lat="43.38281" lon="2.61857">
        <ele>424.08</ele>
        <time>2015-07-13T06:36:26Z</time>
      </trkpt>
      <trkpt lat="43.38276" lon="2.61856">
        <ele>424.56</ele>
        <time>2015-07-13T06:36:30Z</time>
      </trkpt>
      <trkpt lat="43.38262" lon="2.61855">
        <ele>425.52</ele>
        <time>2015-07-13T06:36:42Z</time>
      </trkpt>
      <trkpt lat="43.3826" lon="2.61856">
        <ele>425.52</ele>
        <time>2015-07-13T06:36:44Z</time>
      </trkpt>
      <trkpt lat="43.38254" lon="2.61858">
        <ele>425.52</ele>
        <time>2015-07-13T06:36:49Z</time>
      </trkpt>
      <trkpt lat="43.38247" lon="2.61859">
        <ele>426</ele>
        <time>2015-07-13T06:36:55Z</time>
      </trkpt>
      <trkpt lat="43.38235" lon="2.61861">
        <ele>427.44</ele>
        <time>2015-07-13T06:37:07Z</time>
      </trkpt>
      <trkpt lat="43.38221" lon="2.61862">
        <ele>428.89</ele>
        <time>2015-07-13T06:37:20Z</time>
      </trkpt>
      <trkpt lat="43.38209" lon="2.61866">
        <ele>429.37</ele>
        <time>2015-07-13T06:37:32Z</time>
      </trkpt>
      <trkpt lat="43.38199" lon="2.6187">
        <ele>430.33</ele>
        <time>2015-07-13T06:37:42Z</time>
      </trkpt>
      <trkpt lat="43.38193" lon="2.61874">
        <ele>430.81</ele>
        <time>2015-07-13T06:37:49Z</time>
      </trkpt>
      <trkpt lat="43.3819" lon="2.61875">
        <ele>431.29</ele>
        <time>2015-07-13T06:37:51Z</time>
      </trkpt>
      <trkpt lat="43.38187" lon="2.61877">
        <ele>431.29</ele>
        <time>2015-07-13T06:38:03Z</time>
      </trkpt>
      <trkpt lat="43.38183" lon="2.61882">
        <ele>431.77</ele>
        <time>2015-07-13T06:38:09Z</time>
      </trkpt>
      <trkpt lat="43.38174" lon="2.61881">
        <ele>434.17</ele>
        <time>2015-07-13T06:38:22Z</time>
      </trkpt>
      <trkpt lat="43.38172" lon="2.61875">
        <ele>435.13</ele>
        <time>2015-07-13T06:38:32Z</time>
      </trkpt>
      <trkpt lat="43.38172" lon="2.61866">
        <ele>435.61</ele>
        <time>2015-07-13T06:38:38Z</time>
      </trkpt>
      <trkpt lat="43.38174" lon="2.61863">
        <ele>435.61</ele>
        <time>2015-07-13T06:38:40Z</time>
      </trkpt>
      <trkpt lat="43.38181" lon="2.61849">
        <ele>437.06</ele>
        <time>2015-07-13T06:38:54Z</time>
      </trkpt>
      <trkpt lat="43.3818" lon="2.61841">
        <ele>438.02</ele>
        <time>2015-07-13T06:39:05Z</time>
      </trkpt>
      <trkpt lat="43.38173" lon="2.6184">
        <ele>438.5</ele>
        <time>2015-07-13T06:39:18Z</time>
      </trkpt>
      <trkpt lat="43.38172" lon="2.61841">
        <ele>438.98</ele>
        <time>2015-07-13T06:39:19Z</time>
      </trkpt>
      <trkpt lat="43.38169" lon="2.61842">
        <ele>439.46</ele>
        <time>2015-07-13T06:39:23Z</time>
      </trkpt>
      <trkpt lat="43.38168" lon="2.61843">
        <ele>438.98</ele>
        <time>2015-07-13T06:39:25Z</time>
      </trkpt>
      <trkpt lat="43.38165" lon="2.61847">
        <ele>438.98</ele>
        <time>2015-07-13T06:39:29Z</time>
      </trkpt>
      <trkpt lat="43.38156" lon="2.61861">
        <ele>440.42</ele>
        <time>2015-07-13T06:39:42Z</time>
      </trkpt>
      <trkpt lat="43.38155" lon="2.61863">
        <ele>439.94</ele>
        <time>2015-07-13T06:39:44Z</time>
      </trkpt>
      <trkpt lat="43.38145" lon="2.61879">
        <ele>441.86</ele>
        <time>2015-07-13T06:39:57Z</time>
      </trkpt>
      <trkpt lat="43.3814" lon="2.61885">
        <ele>442.34</ele>
        <time>2015-07-13T06:40:03Z</time>
      </trkpt>
      <trkpt lat="43.38137" lon="2.61885">
        <ele>442.34</ele>
        <time>2015-07-13T06:40:05Z</time>
      </trkpt>
      <trkpt lat="43.38129" lon="2.61886">
        <ele>444.27</ele>
        <time>2015-07-13T06:40:17Z</time>
      </trkpt>
      <trkpt lat="43.38126" lon="2.61886">
        <ele>444.27</ele>
        <time>2015-07-13T06:40:21Z</time>
      </trkpt>
      <trkpt lat="43.38119" lon="2.61889">
        <ele>445.23</ele>
        <time>2015-07-13T06:40:28Z</time>
      </trkpt>
      <trkpt lat="43.38108" lon="2.61891">
        <ele>445.71</ele>
        <time>2015-07-13T06:40:39Z</time>
      </trkpt>
      <trkpt lat="43.38098" lon="2.61894">
        <ele>447.63</ele>
        <time>2015-07-13T06:40:50Z</time>
      </trkpt>
      <trkpt lat="43.38096" lon="2.61894">
        <ele>447.15</ele>
        <time>2015-07-13T06:40:51Z</time>
      </trkpt>
      <trkpt lat="43.38089" lon="2.61895">
        <ele>447.63</ele>
        <time>2015-07-13T06:40:57Z</time>
      </trkpt>
      <trkpt lat="43.3808" lon="2.61898">
        <ele>448.11</ele>
        <time>2015-07-13T06:41:05Z</time>
      </trkpt>
      <trkpt lat="43.38078" lon="2.61899">
        <ele>447.63</ele>
        <time>2015-07-13T06:41:07Z</time>
      </trkpt>
      <trkpt lat="43.38075" lon="2.619">
        <ele>448.59</ele>
        <time>2015-07-13T06:41:10Z</time>
      </trkpt>
      <trkpt lat="43.38063" lon="2.61915">
        <ele>450.03</ele>
        <time>2015-07-13T06:41:24Z</time>
      </trkpt>
      <trkpt lat="43.38053" lon="2.61923">
        <ele>451.96</ele>
        <time>2015-07-13T06:41:35Z</time>
      </trkpt>
      <trkpt lat="43.3805" lon="2.61925">
        <ele>451.96</ele>
        <time>2015-07-13T06:41:37Z</time>
      </trkpt>
      <trkpt lat="43.38033" lon="2.61926">
        <ele>453.88</ele>
        <time>2015-07-13T06:41:48Z</time>
      </trkpt>
      <trkpt lat="43.38026" lon="2.61926">
        <ele>454.36</ele>
        <time>2015-07-13T06:41:59Z</time>
      </trkpt>
      <trkpt lat="43.38023" lon="2.61923">
        <ele>454.84</ele>
        <time>2015-07-13T06:42:05Z</time>
      </trkpt>
      <trkpt lat="43.38025" lon="2.61919">
        <ele>454.84</ele>
        <time>2015-07-13T06:42:11Z</time>
      </trkpt>
      <trkpt lat="43.38036" lon="2.61907">
        <ele>455.32</ele>
        <time>2015-07-13T06:42:27Z</time>
      </trkpt>
      <trkpt lat="43.38042" lon="2.61898">
        <ele>456.28</ele>
        <time>2015-07-13T06:42:39Z</time>
      </trkpt>
      <trkpt lat="43.38048" lon="2.61887">
        <ele>457.24</ele>
        <time>2015-07-13T06:42:52Z</time>
      </trkpt>
      <trkpt lat="43.38053" lon="2.61877">
        <ele>457.72</ele>
        <time>2015-07-13T06:43:05Z</time>
      </trkpt>
      <trkpt lat="43.38054" lon="2.61875">
        <ele>459.65</ele>
        <time>2015-07-13T06:43:08Z</time>
      </trkpt>
      <trkpt lat="43.38056" lon="2.61871">
        <ele>459.17</ele>
        <time>2015-07-13T06:43:11Z</time>
      </trkpt>
      <trkpt lat="43.38063" lon="2.61862">
        <ele>459.65</ele>
        <time>2015-07-13T06:43:25Z</time>
      </trkpt>
      <trkpt lat="43.38072" lon="2.61845">
        <ele>461.09</ele>
        <time>2015-07-13T06:43:41Z</time>
      </trkpt>
      <trkpt lat="43.38075" lon="2.61839">
        <ele>461.57</ele>
        <time>2015-07-13T06:43:46Z</time>
      </trkpt>
      <trkpt lat="43.38078" lon="2.61835">
        <ele>462.53</ele>
        <time>2015-07-13T06:43:50Z</time>
      </trkpt>
      <trkpt lat="43.38082" lon="2.61822">
        <ele>462.53</ele>
        <time>2015-07-13T06:44:02Z</time>
      </trkpt>
      <trkpt lat="43.38083" lon="2.6182">
        <ele>463.01</ele>
        <time>2015-07-13T06:44:04Z</time>
      </trkpt>
      <trkpt lat="43.38084" lon="2.61813">
        <ele>463.49</ele>
        <time>2015-07-13T06:44:09Z</time>
      </trkpt>
      <trkpt lat="43.38086" lon="2.61801">
        <ele>463.97</ele>
        <time>2015-07-13T06:44:19Z</time>
      </trkpt>
      <trkpt lat="43.38089" lon="2.61788">
        <ele>465.9</ele>
        <time>2015-07-13T06:44:31Z</time>
      </trkpt>
      <trkpt lat="43.38093" lon="2.61775">
        <ele>467.82</ele>
        <time>2015-07-13T06:44:43Z</time>
      </trkpt>
      <trkpt lat="43.38098" lon="2.61767">
        <ele>468.3</ele>
        <time>2015-07-13T06:44:52Z</time>
      </trkpt>
      <trkpt lat="43.38104" lon="2.61758">
        <ele>469.74</ele>
        <time>2015-07-13T06:45:00Z</time>
      </trkpt>
      <trkpt lat="43.38113" lon="2.61744">
        <ele>471.18</ele>
        <time>2015-07-13T06:45:14Z</time>
      </trkpt>
      <trkpt lat="43.38124" lon="2.61727">
        <ele>470.7</ele>
        <time>2015-07-13T06:45:28Z</time>
      </trkpt>
      <trkpt lat="43.38135" lon="2.61712">
        <ele>472.14</ele>
        <time>2015-07-13T06:45:41Z</time>
      </trkpt>
      <trkpt lat="43.38144" lon="2.61696">
        <ele>472.63</ele>
        <time>2015-07-13T06:45:55Z</time>
      </trkpt>
      <trkpt lat="43.38149" lon="2.61688">
        <ele>473.11</ele>
        <time>2015-07-13T06:46:03Z</time>
      </trkpt>
      <trkpt lat="43.38151" lon="2.61687">
        <ele>473.11</ele>
        <time>2015-07-13T06:46:05Z</time>
      </trkpt>
      <trkpt lat="43.38154" lon="2.61681">
        <ele>472.63</ele>
        <time>2015-07-13T06:46:10Z</time>
      </trkpt>
      <trkpt lat="43.38164" lon="2.6167">
        <ele>473.59</ele>
        <time>2015-07-13T06:46:24Z</time>
      </trkpt>
      <trkpt lat="43.38166" lon="2.61667">
        <ele>473.11</ele>
        <time>2015-07-13T06:46:27Z</time>
      </trkpt>
      <trkpt lat="43.38176" lon="2.61656">
        <ele>473.59</ele>
        <time>2015-07-13T06:46:40Z</time>
      </trkpt>
      <trkpt lat="43.38181" lon="2.6165">
        <ele>473.59</ele>
        <time>2015-07-13T06:46:47Z</time>
      </trkpt>
      <trkpt lat="43.38183" lon="2.61648">
        <ele>474.07</ele>
        <time>2015-07-13T06:46:50Z</time>
      </trkpt>
      <trkpt lat="43.38192" lon="2.61635">
        <ele>474.55</ele>
        <time>2015-07-13T06:47:04Z</time>
      </trkpt>
      <trkpt lat="43.38198" lon="2.61629">
        <ele>474.55</ele>
        <time>2015-07-13T06:47:12Z</time>
      </trkpt>
      <trkpt lat="43.38207" lon="2.61625">
        <ele>475.99</ele>
        <time>2015-07-13T06:47:26Z</time>
      </trkpt>
      <trkpt lat="43.38217" lon="2.61624">
        <ele>476.95</ele>
        <time>2015-07-13T06:47:38Z</time>
      </trkpt>
      <trkpt lat="43.38228" lon="2.61619">
        <ele>478.87</ele>
        <time>2015-07-13T06:47:51Z</time>
      </trkpt>
      <trkpt lat="43.38237" lon="2.61614">
        <ele>479.35</ele>
        <time>2015-07-13T06:48:02Z</time>
      </trkpt>
      <trkpt lat="43.3825" lon="2.61608">
        <ele>480.8</ele>
        <time>2015-07-13T06:48:14Z</time>
      </trkpt>
      <trkpt lat="43.38255" lon="2.61603">
        <ele>481.76</ele>
        <time>2015-07-13T06:48:21Z</time>
      </trkpt>
      <trkpt lat="43.38264" lon="2.61594">
        <ele>482.72</ele>
        <time>2015-07-13T06:48:36Z</time>
      </trkpt>
      <trkpt lat="43.38267" lon="2.6159">
        <ele>482.72</ele>
        <time>2015-07-13T06:48:40Z</time>
      </trkpt>
      <trkpt lat="43.38271" lon="2.61587">
        <ele>483.2</ele>
        <time>2015-07-13T06:48:44Z</time>
      </trkpt>
      <trkpt lat="43.38281" lon="2.61578">
        <ele>484.16</ele>
        <time>2015-07-13T06:48:57Z</time>
      </trkpt>
      <trkpt lat="43.38282" lon="2.61577">
        <ele>484.16</ele>
        <time>2015-07-13T06:48:59Z</time>
      </trkpt>
      <trkpt lat="43.38288" lon="2.61574">
        <ele>484.64</ele>
        <time>2015-07-13T06:49:04Z</time>
      </trkpt>
      <trkpt lat="43.38299" lon="2.61569">
        <ele>485.12</ele>
        <time>2015-07-13T06:49:17Z</time>
      </trkpt>
      <trkpt lat="43.38306" lon="2.61565">
        <ele>486.56</ele>
        <time>2015-07-13T06:49:24Z</time>
      </trkpt>
      <trkpt lat="43.38319" lon="2.61558">
        <ele>488.01</ele>
        <time>2015-07-13T06:49:37Z</time>
      </trkpt>
      <trkpt lat="43.38327" lon="2.61552">
        <ele>489.45</ele>
        <time>2015-07-13T06:49:49Z</time>
      </trkpt>
      <trkpt lat="43.3833" lon="2.61548">
        <ele>489.45</ele>
        <time>2015-07-13T06:49:53Z</time>
      </trkpt>
      <trkpt lat="43.38335" lon="2.61545">
        <ele>489.93</ele>
        <time>2015-07-13T06:49:59Z</time>
      </trkpt>
      <trkpt lat="43.38338" lon="2.61542">
        <ele>490.41</ele>
        <time>2015-07-13T06:50:03Z</time>
      </trkpt>
      <trkpt lat="43.38344" lon="2.61537">
        <ele>491.85</ele>
        <time>2015-07-13T06:50:12Z</time>
      </trkpt>
      <trkpt lat="43.38353" lon="2.61531">
        <ele>491.85</ele>
        <time>2015-07-13T06:50:23Z</time>
      </trkpt>
      <trkpt lat="43.38361" lon="2.61526">
        <ele>493.29</ele>
        <time>2015-07-13T06:50:34Z</time>
      </trkpt>
      <trkpt lat="43.38366" lon="2.6152">
        <ele>493.29</ele>
        <time>2015-07-13T06:50:40Z</time>
      </trkpt>
      <trkpt lat="43.38367" lon="2.61518">
        <ele>493.29</ele>
        <time>2015-07-13T06:50:42Z</time>
      </trkpt>
      <trkpt lat="43.38372" lon="2.61514">
        <ele>493.77</ele>
        <time>2015-07-13T06:50:53Z</time>
      </trkpt>
      <trkpt lat="43.38375" lon="2.6151">
        <ele>494.74</ele>
        <time>2015-07-13T06:51:05Z</time>
      </trkpt>
      <trkpt lat="43.38384" lon="2.61514">
        <ele>495.7</ele>
        <time>2015-07-13T06:51:17Z</time>
      </trkpt>
      <trkpt lat="43.38392" lon="2.61521">
        <ele>496.66</ele>
        <time>2015-07-13T06:51:29Z</time>
      </trkpt>
      <trkpt lat="43.38402" lon="2.61529">
        <ele>498.1</ele>
        <time>2015-07-13T06:51:43Z</time>
      </trkpt>
      <trkpt lat="43.38407" lon="2.61531">
        <ele>498.1</ele>
        <time>2015-07-13T06:51:47Z</time>
      </trkpt>
      <trkpt lat="43.38418" lon="2.61538">
        <ele>499.06</ele>
        <time>2015-07-13T06:51:58Z</time>
      </trkpt>
      <trkpt lat="43.38428" lon="2.61546">
        <ele>500.98</ele>
        <time>2015-07-13T06:52:07Z</time>
      </trkpt>
      <trkpt lat="43.38443" lon="2.61551">
        <ele>503.39</ele>
        <time>2015-07-13T06:52:17Z</time>
      </trkpt>
      <trkpt lat="43.38445" lon="2.61552">
        <ele>503.87</ele>
        <time>2015-07-13T06:52:21Z</time>
      </trkpt>
      <trkpt lat="43.38447" lon="2.61551">
        <ele>504.35</ele>
        <time>2015-07-13T06:52:23Z</time>
      </trkpt>
      <trkpt lat="43.38452" lon="2.61553">
        <ele>504.83</ele>
        <time>2015-07-13T06:52:27Z</time>
      </trkpt>
      <trkpt lat="43.38455" lon="2.61554">
        <ele>505.31</ele>
        <time>2015-07-13T06:52:42Z</time>
      </trkpt>
      <trkpt lat="43.38464" lon="2.61556">
        <ele>506.75</ele>
        <time>2015-07-13T06:52:55Z</time>
      </trkpt>
      <trkpt lat="43.38474" lon="2.61557">
        <ele>508.67</ele>
        <time>2015-07-13T06:53:09Z</time>
      </trkpt>
      <trkpt lat="43.38486" lon="2.61555">
        <ele>509.64</ele>
        <time>2015-07-13T06:53:23Z</time>
      </trkpt>
      <trkpt lat="43.38496" lon="2.61552">
        <ele>511.08</ele>
        <time>2015-07-13T06:53:36Z</time>
      </trkpt>
      <trkpt lat="43.38502" lon="2.61548">
        <ele>513</ele>
        <time>2015-07-13T06:53:47Z</time>
      </trkpt>
      <trkpt lat="43.38509" lon="2.61544">
        <ele>513.48</ele>
        <time>2015-07-13T06:53:57Z</time>
      </trkpt>
      <trkpt lat="43.38516" lon="2.61538">
        <ele>514.44</ele>
        <time>2015-07-13T06:54:07Z</time>
      </trkpt>
      <trkpt lat="43.38519" lon="2.61537">
        <ele>514.44</ele>
        <time>2015-07-13T06:54:11Z</time>
      </trkpt>
      <trkpt lat="43.38526" lon="2.61529">
        <ele>516.85</ele>
        <time>2015-07-13T06:54:22Z</time>
      </trkpt>
      <trkpt lat="43.38532" lon="2.61522">
        <ele>517.81</ele>
        <time>2015-07-13T06:54:33Z</time>
      </trkpt>
      <trkpt lat="43.38539" lon="2.61514">
        <ele>520.21</ele>
        <time>2015-07-13T06:54:45Z</time>
      </trkpt>
      <trkpt lat="43.38547" lon="2.61505">
        <ele>520.69</ele>
        <time>2015-07-13T06:54:57Z</time>
      </trkpt>
      <trkpt lat="43.38554" lon="2.61495">
        <ele>522.13</ele>
        <time>2015-07-13T06:55:08Z</time>
      </trkpt>
      <trkpt lat="43.38563" lon="2.6149">
        <ele>523.58</ele>
        <time>2015-07-13T06:55:18Z</time>
      </trkpt>
      <trkpt lat="43.38564" lon="2.61488">
        <ele>523.58</ele>
        <time>2015-07-13T06:55:21Z</time>
      </trkpt>
      <trkpt lat="43.38567" lon="2.61485">
        <ele>524.54</ele>
        <time>2015-07-13T06:55:25Z</time>
      </trkpt>
      <trkpt lat="43.38578" lon="2.61478">
        <ele>526.46</ele>
        <time>2015-07-13T06:55:37Z</time>
      </trkpt>
      <trkpt lat="43.38581" lon="2.61477">
        <ele>525.98</ele>
        <time>2015-07-13T06:55:40Z</time>
      </trkpt>
      <trkpt lat="43.38589" lon="2.61466">
        <ele>527.9</ele>
        <time>2015-07-13T06:55:52Z</time>
      </trkpt>
      <trkpt lat="43.38592" lon="2.61462">
        <ele>527.9</ele>
        <time>2015-07-13T06:55:56Z</time>
      </trkpt>
      <trkpt lat="43.38595" lon="2.61458">
        <ele>527.9</ele>
        <time>2015-07-13T06:56:01Z</time>
      </trkpt>
      <trkpt lat="43.38603" lon="2.61443">
        <ele>528.86</ele>
        <time>2015-07-13T06:56:16Z</time>
      </trkpt>
      <trkpt lat="43.38605" lon="2.61435">
        <ele>529.34</ele>
        <time>2015-07-13T06:56:28Z</time>
      </trkpt>
      <trkpt lat="43.38605" lon="2.61434">
        <ele>528.86</ele>
        <time>2015-07-13T06:56:42Z</time>
      </trkpt>
      <trkpt lat="43.38604" lon="2.61434">
        <ele>529.34</ele>
        <time>2015-07-13T06:57:01Z</time>
      </trkpt>
      <trkpt lat="43.38604" lon="2.61432">
        <ele>529.82</ele>
        <time>2015-07-13T06:57:07Z</time>
      </trkpt>
      <trkpt lat="43.38604" lon="2.61432">
        <ele>529.34</ele>
        <time>2015-07-13T06:57:17Z</time>
      </trkpt>
      <trkpt lat="43.38606" lon="2.61433">
        <ele>528.38</ele>
        <time>2015-07-13T06:57:31Z</time>
      </trkpt>
      <trkpt lat="43.38606" lon="2.61433">
        <ele>527.9</ele>
        <time>2015-07-13T06:57:45Z</time>
      </trkpt>
      <trkpt lat="43.38605" lon="2.61433">
        <ele>528.38</ele>
        <time>2015-07-13T06:58:04Z</time>
      </trkpt>
      <trkpt lat="43.38605" lon="2.61433">
        <ele>529.82</ele>
        <time>2015-07-13T06:58:20Z</time>
      </trkpt>
      <trkpt lat="43.38605" lon="2.61433">
        <ele>529.82</ele>
        <time>2015-07-13T06:58:35Z</time>
      </trkpt>
      <trkpt lat="43.38605" lon="2.61433">
        <ele>528.38</ele>
        <time>2015-07-13T06:58:49Z</time>
      </trkpt>
      <trkpt lat="43.38605" lon="2.61433">
        <ele>529.34</ele>
        <time>2015-07-13T06:59:01Z</time>
      </trkpt>
      <trkpt lat="43.38605" lon="2.61432">
        <ele>527.9</ele>
        <time>2015-07-13T06:59:23Z</time>
      </trkpt>
      <trkpt lat="43.38604" lon="2.61432">
        <ele>528.86</ele>
        <time>2015-07-13T06:59:48Z</time>
      </trkpt>
      <trkpt lat="43.38605" lon="2.61432">
        <ele>530.3</ele>
        <time>2015-07-13T07:00:11Z</time>
      </trkpt>
      <trkpt lat="43.38605" lon="2.61432">
        <ele>529.34</ele>
        <time>2015-07-13T07:00:29Z</time>
      </trkpt>
      <trkpt lat="43.38605" lon="2.61433">
        <ele>530.3</ele>
        <time>2015-07-13T07:00:55Z</time>
      </trkpt>
      <trkpt lat="43.38605" lon="2.61433">
        <ele>530.79</ele>
        <time>2015-07-13T07:00:56Z</time>
      </trkpt>
      <trkpt lat="43.38605" lon="2.61433">
        <ele>529.82</ele>
        <time>2015-07-13T07:01:15Z</time>
      </trkpt>
      <trkpt lat="43.38605" lon="2.61433">
        <ele>528.86</ele>
        <time>2015-07-13T07:01:17Z</time>
      </trkpt>
      <trkpt lat="43.38605" lon="2.61433">
        <ele>529.82</ele>
        <time>2015-07-13T07:01:31Z</time>
      </trkpt>
      <trkpt lat="43.38604" lon="2.61428">
        <ele>529.82</ele>
        <time>2015-07-13T07:01:41Z</time>
      </trkpt>
      <trkpt lat="43.38602" lon="2.61428">
        <ele>531.27</ele>
        <time>2015-07-13T07:01:44Z</time>
      </trkpt>
      <trkpt lat="43.38596" lon="2.61429">
        <ele>532.71</ele>
        <time>2015-07-13T07:01:51Z</time>
      </trkpt>
      <trkpt lat="43.38585" lon="2.61435">
        <ele>532.71</ele>
        <time>2015-07-13T07:02:06Z</time>
      </trkpt>
      <trkpt lat="43.38572" lon="2.61438">
        <ele>534.63</ele>
        <time>2015-07-13T07:02:20Z</time>
      </trkpt>
      <trkpt lat="43.38559" lon="2.61442">
        <ele>536.07</ele>
        <time>2015-07-13T07:02:36Z</time>
      </trkpt>
      <trkpt lat="43.38554" lon="2.61441">
        <ele>537.03</ele>
        <time>2015-07-13T07:02:41Z</time>
      </trkpt>
      <trkpt lat="43.38542" lon="2.61442">
        <ele>537.99</ele>
        <time>2015-07-13T07:02:56Z</time>
      </trkpt>
      <trkpt lat="43.38533" lon="2.61444">
        <ele>538.96</ele>
        <time>2015-07-13T07:03:10Z</time>
      </trkpt>
      <trkpt lat="43.38522" lon="2.61445">
        <ele>540.4</ele>
        <time>2015-07-13T07:03:25Z</time>
      </trkpt>
      <trkpt lat="43.38509" lon="2.61447">
        <ele>543.28</ele>
        <time>2015-07-13T07:03:40Z</time>
      </trkpt>
      <trkpt lat="43.38499" lon="2.6144">
        <ele>543.76</ele>
        <time>2015-07-13T07:03:53Z</time>
      </trkpt>
      <trkpt lat="43.38488" lon="2.61433">
        <ele>542.32</ele>
        <time>2015-07-13T07:04:08Z</time>
      </trkpt>
      <trkpt lat="43.38488" lon="2.61431">
        <ele>543.76</ele>
        <time>2015-07-13T07:04:11Z</time>
      </trkpt>
      <trkpt lat="43.38485" lon="2.61426">
        <ele>544.72</ele>
        <time>2015-07-13T07:04:23Z</time>
      </trkpt>
      <trkpt lat="43.38485" lon="2.61426">
        <ele>545.2</ele>
        <time>2015-07-13T07:04:25Z</time>
      </trkpt>
      <trkpt lat="43.38479" lon="2.61425">
        <ele>544.72</ele>
        <time>2015-07-13T07:04:30Z</time>
      </trkpt>
      <trkpt lat="43.38478" lon="2.61424">
        <ele>545.2</ele>
        <time>2015-07-13T07:04:32Z</time>
      </trkpt>
      <trkpt lat="43.38469" lon="2.61411">
        <ele>545.69</ele>
        <time>2015-07-13T07:04:45Z</time>
      </trkpt>
      <trkpt lat="43.38465" lon="2.61407">
        <ele>546.65</ele>
        <time>2015-07-13T07:04:54Z</time>
      </trkpt>
      <trkpt lat="43.38465" lon="2.61404">
        <ele>546.65</ele>
        <time>2015-07-13T07:04:56Z</time>
      </trkpt>
      <trkpt lat="43.38463" lon="2.61401">
        <ele>547.61</ele>
        <time>2015-07-13T07:04:59Z</time>
      </trkpt>
      <trkpt lat="43.38458" lon="2.61381">
        <ele>551.93</ele>
        <time>2015-07-13T07:05:12Z</time>
      </trkpt>
      <trkpt lat="43.38455" lon="2.61372">
        <ele>551.45</ele>
        <time>2015-07-13T07:05:17Z</time>
      </trkpt>
      <trkpt lat="43.38452" lon="2.61364">
        <ele>552.9</ele>
        <time>2015-07-13T07:05:25Z</time>
      </trkpt>
      <trkpt lat="43.38449" lon="2.61359">
        <ele>553.38</ele>
        <time>2015-07-13T07:05:32Z</time>
      </trkpt>
      <trkpt lat="43.38447" lon="2.61356">
        <ele>554.34</ele>
        <time>2015-07-13T07:05:35Z</time>
      </trkpt>
      <trkpt lat="43.38439" lon="2.61342">
        <ele>557.22</ele>
        <time>2015-07-13T07:05:48Z</time>
      </trkpt>
      <trkpt lat="43.38434" lon="2.61335">
        <ele>557.7</ele>
        <time>2015-07-13T07:05:56Z</time>
      </trkpt>
      <trkpt lat="43.38426" lon="2.61322">
        <ele>559.62</ele>
        <time>2015-07-13T07:06:09Z</time>
      </trkpt>
      <trkpt lat="43.38419" lon="2.61313">
        <ele>562.03</ele>
        <time>2015-07-13T07:06:22Z</time>
      </trkpt>
      <trkpt lat="43.38413" lon="2.61308">
        <ele>564.43</ele>
        <time>2015-07-13T07:06:36Z</time>
      </trkpt>
      <trkpt lat="43.38405" lon="2.61303">
        <ele>564.91</ele>
        <time>2015-07-13T07:06:49Z</time>
      </trkpt>
      <trkpt lat="43.38404" lon="2.61302">
        <ele>564.43</ele>
        <time>2015-07-13T07:06:50Z</time>
      </trkpt>
      <trkpt lat="43.38403" lon="2.613">
        <ele>564.91</ele>
        <time>2015-07-13T07:06:52Z</time>
      </trkpt>
      <trkpt lat="43.38395" lon="2.61295">
        <ele>565.87</ele>
        <time>2015-07-13T07:07:00Z</time>
      </trkpt>
      <trkpt lat="43.38394" lon="2.61294">
        <ele>566.35</ele>
        <time>2015-07-13T07:07:02Z</time>
      </trkpt>
      <trkpt lat="43.38392" lon="2.61293">
        <ele>564.43</ele>
        <time>2015-07-13T07:07:07Z</time>
      </trkpt>
      <trkpt lat="43.3839" lon="2.61293">
        <ele>567.8</ele>
        <time>2015-07-13T07:07:16Z</time>
      </trkpt>
      <trkpt lat="43.3839" lon="2.61293">
        <ele>567.8</ele>
        <time>2015-07-13T07:07:26Z</time>
      </trkpt>
      <trkpt lat="43.38386" lon="2.6129">
        <ele>569.24</ele>
        <time>2015-07-13T07:07:31Z</time>
      </trkpt>
      <trkpt lat="43.38377" lon="2.61286">
        <ele>572.12</ele>
        <time>2015-07-13T07:07:44Z</time>
      </trkpt>
      <trkpt lat="43.38373" lon="2.61287">
        <ele>571.64</ele>
        <time>2015-07-13T07:07:56Z</time>
      </trkpt>
      <trkpt lat="43.38371" lon="2.61279">
        <ele>572.6</ele>
        <time>2015-07-13T07:08:06Z</time>
      </trkpt>
      <trkpt lat="43.3837" lon="2.61278">
        <ele>573.08</ele>
        <time>2015-07-13T07:08:10Z</time>
      </trkpt>
      <trkpt lat="43.38362" lon="2.61274">
        <ele>574.53</ele>
        <time>2015-07-13T07:08:23Z</time>
      </trkpt>
      <trkpt lat="43.38354" lon="2.6127">
        <ele>576.93</ele>
        <time>2015-07-13T07:08:37Z</time>
      </trkpt>
      <trkpt lat="43.38347" lon="2.61263">
        <ele>579.33</ele>
        <time>2015-07-13T07:08:52Z</time>
      </trkpt>
      <trkpt lat="43.38336" lon="2.61254">
        <ele>582.22</ele>
        <time>2015-07-13T07:09:08Z</time>
      </trkpt>
      <trkpt lat="43.38327" lon="2.61247">
        <ele>583.18</ele>
        <time>2015-07-13T07:09:21Z</time>
      </trkpt>
      <trkpt lat="43.38318" lon="2.61239">
        <ele>585.1</ele>
        <time>2015-07-13T07:09:33Z</time>
      </trkpt>
      <trkpt lat="43.38309" lon="2.61235">
        <ele>587.02</ele>
        <time>2015-07-13T07:09:46Z</time>
      </trkpt>
      <trkpt lat="43.38302" lon="2.61232">
        <ele>590.39</ele>
        <time>2015-07-13T07:09:57Z</time>
      </trkpt>
      <trkpt lat="43.38295" lon="2.6123">
        <ele>590.87</ele>
        <time>2015-07-13T07:10:03Z</time>
      </trkpt>
      <trkpt lat="43.38292" lon="2.61228">
        <ele>591.83</ele>
        <time>2015-07-13T07:10:07Z</time>
      </trkpt>
      <trkpt lat="43.38287" lon="2.61227">
        <ele>592.31</ele>
        <time>2015-07-13T07:10:12Z</time>
      </trkpt>
      <trkpt lat="43.38276" lon="2.61222">
        <ele>593.75</ele>
        <time>2015-07-13T07:10:25Z</time>
      </trkpt>
      <trkpt lat="43.38272" lon="2.6122">
        <ele>595.67</ele>
        <time>2015-07-13T07:10:40Z</time>
      </trkpt>
      <trkpt lat="43.38265" lon="2.61217">
        <ele>596.64</ele>
        <time>2015-07-13T07:10:47Z</time>
      </trkpt>
      <trkpt lat="43.38257" lon="2.61212">
        <ele>598.56</ele>
        <time>2015-07-13T07:11:00Z</time>
      </trkpt>
      <trkpt lat="43.38251" lon="2.61207">
        <ele>601.92</ele>
        <time>2015-07-13T07:11:11Z</time>
      </trkpt>
      <trkpt lat="43.38248" lon="2.61206">
        <ele>601.92</ele>
        <time>2015-07-13T07:11:14Z</time>
      </trkpt>
      <trkpt lat="43.38242" lon="2.61203">
        <ele>602.88</ele>
        <time>2015-07-13T07:11:21Z</time>
      </trkpt>
      <trkpt lat="43.38229" lon="2.61196">
        <ele>606.25</ele>
        <time>2015-07-13T07:11:34Z</time>
      </trkpt>
      <trkpt lat="43.38228" lon="2.61196">
        <ele>605.77</ele>
        <time>2015-07-13T07:11:35Z</time>
      </trkpt>
      <trkpt lat="43.38219" lon="2.61193">
        <ele>607.21</ele>
        <time>2015-07-13T07:11:43Z</time>
      </trkpt>
      <trkpt lat="43.38214" lon="2.61189">
        <ele>608.65</ele>
        <time>2015-07-13T07:11:47Z</time>
      </trkpt>
      <trkpt lat="43.38201" lon="2.61178">
        <ele>606.73</ele>
        <time>2015-07-13T07:12:00Z</time>
      </trkpt>
      <trkpt lat="43.38196" lon="2.61172">
        <ele>609.13</ele>
        <time>2015-07-13T07:12:07Z</time>
      </trkpt>
      <trkpt lat="43.38193" lon="2.61161">
        <ele>610.57</ele>
        <time>2015-07-13T07:12:16Z</time>
      </trkpt>
      <trkpt lat="43.38194" lon="2.61156">
        <ele>609.13</ele>
        <time>2015-07-13T07:12:29Z</time>
      </trkpt>
      <trkpt lat="43.38199" lon="2.61149">
        <ele>610.57</ele>
        <time>2015-07-13T07:12:41Z</time>
      </trkpt>
      <trkpt lat="43.38203" lon="2.6114">
        <ele>612.02</ele>
        <time>2015-07-13T07:12:55Z</time>
      </trkpt>
      <trkpt lat="43.38204" lon="2.61137">
        <ele>611.54</ele>
        <time>2015-07-13T07:12:59Z</time>
      </trkpt>
      <trkpt lat="43.38204" lon="2.61134">
        <ele>612.98</ele>
        <time>2015-07-13T07:13:01Z</time>
      </trkpt>
      <trkpt lat="43.38205" lon="2.61131">
        <ele>614.42</ele>
        <time>2015-07-13T07:13:03Z</time>
      </trkpt>
      <trkpt lat="43.38206" lon="2.6113">
        <ele>615.86</ele>
        <time>2015-07-13T07:13:05Z</time>
      </trkpt>
      <trkpt lat="43.3821" lon="2.61111">
        <ele>615.86</ele>
        <time>2015-07-13T07:13:17Z</time>
      </trkpt>
      <trkpt lat="43.38211" lon="2.61107">
        <ele>618.26</ele>
        <time>2015-07-13T07:13:20Z</time>
      </trkpt>
      <trkpt lat="43.38212" lon="2.61104">
        <ele>618.75</ele>
        <time>2015-07-13T07:13:35Z</time>
      </trkpt>
      <trkpt lat="43.38212" lon="2.61098">
        <ele>618.26</ele>
        <time>2015-07-13T07:13:39Z</time>
      </trkpt>
      <trkpt lat="43.38211" lon="2.61095">
        <ele>620.67</ele>
        <time>2015-07-13T07:13:41Z</time>
      </trkpt>
      <trkpt lat="43.38208" lon="2.61077">
        <ele>620.19</ele>
        <time>2015-07-13T07:13:53Z</time>
      </trkpt>
      <trkpt lat="43.38209" lon="2.61061">
        <ele>621.15</ele>
        <time>2015-07-13T07:14:06Z</time>
      </trkpt>
      <trkpt lat="43.3821" lon="2.61052">
        <ele>623.07</ele>
        <time>2015-07-13T07:14:13Z</time>
      </trkpt>
      <trkpt lat="43.38213" lon="2.6104">
        <ele>623.55</ele>
        <time>2015-07-13T07:14:22Z</time>
      </trkpt>
      <trkpt lat="43.38213" lon="2.61035">
        <ele>626.44</ele>
        <time>2015-07-13T07:14:26Z</time>
      </trkpt>
      <trkpt lat="43.38214" lon="2.61029">
        <ele>626.44</ele>
        <time>2015-07-13T07:14:31Z</time>
      </trkpt>
      <trkpt lat="43.38214" lon="2.61026">
        <ele>625.96</ele>
        <time>2015-07-13T07:14:33Z</time>
      </trkpt>
      <trkpt lat="43.38216" lon="2.61013">
        <ele>627.88</ele>
        <time>2015-07-13T07:14:46Z</time>
      </trkpt>
      <trkpt lat="43.38218" lon="2.61">
        <ele>628.36</ele>
        <time>2015-07-13T07:14:58Z</time>
      </trkpt>
      <trkpt lat="43.3822" lon="2.60995">
        <ele>631.72</ele>
        <time>2015-07-13T07:15:04Z</time>
      </trkpt>
      <trkpt lat="43.38222" lon="2.6099">
        <ele>634.13</ele>
        <time>2015-07-13T07:15:18Z</time>
      </trkpt>
      <trkpt lat="43.38222" lon="2.6099">
        <ele>634.61</ele>
        <time>2015-07-13T07:15:19Z</time>
      </trkpt>
      <trkpt lat="43.38224" lon="2.60988">
        <ele>632.68</ele>
        <time>2015-07-13T07:15:24Z</time>
      </trkpt>
      <trkpt lat="43.38224" lon="2.60986">
        <ele>629.32</ele>
        <time>2015-07-13T07:15:34Z</time>
      </trkpt>
      <trkpt lat="43.38225" lon="2.60986">
        <ele>632.68</ele>
        <time>2015-07-13T07:15:38Z</time>
      </trkpt>
      <trkpt lat="43.38225" lon="2.60985">
        <ele>629.8</ele>
        <time>2015-07-13T07:15:52Z</time>
      </trkpt>
      <trkpt lat="43.38226" lon="2.60985">
        <ele>632.68</ele>
        <time>2015-07-13T07:16:05Z</time>
      </trkpt>
      <trkpt lat="43.38226" lon="2.60985">
        <ele>633.65</ele>
        <time>2015-07-13T07:16:26Z</time>
      </trkpt>
      <trkpt lat="43.38229" lon="2.60983">
        <ele>633.65</ele>
        <time>2015-07-13T07:16:47Z</time>
      </trkpt>
      <trkpt lat="43.38228" lon="2.60983">
        <ele>632.68</ele>
        <time>2015-07-13T07:17:03Z</time>
      </trkpt>
      <trkpt lat="43.38226" lon="2.60983">
        <ele>632.2</ele>
        <time>2015-07-13T07:17:23Z</time>
      </trkpt>
      <trkpt lat="43.38226" lon="2.60982">
        <ele>632.2</ele>
        <time>2015-07-13T07:18:00Z</time>
      </trkpt>
      <trkpt lat="43.38226" lon="2.60982">
        <ele>633.17</ele>
        <time>2015-07-13T07:18:38Z</time>
      </trkpt>
      <trkpt lat="43.38226" lon="2.6098">
        <ele>631.72</ele>
        <time>2015-07-13T07:19:10Z</time>
      </trkpt>
      <trkpt lat="43.38227" lon="2.60981">
        <ele>633.65</ele>
        <time>2015-07-13T07:19:36Z</time>
      </trkpt>
      <trkpt lat="43.3823" lon="2.60976">
        <ele>635.57</ele>
        <time>2015-07-13T07:19:47Z</time>
      </trkpt>
      <trkpt lat="43.38228" lon="2.60963">
        <ele>638.93</ele>
        <time>2015-07-13T07:19:59Z</time>
      </trkpt>
      <trkpt lat="43.38228" lon="2.60962">
        <ele>638.45</ele>
        <time>2015-07-13T07:20:00Z</time>
      </trkpt>
      <trkpt lat="43.38228" lon="2.60958">
        <ele>638.93</ele>
        <time>2015-07-13T07:20:14Z</time>
      </trkpt>
      <trkpt lat="43.38229" lon="2.60949">
        <ele>641.34</ele>
        <time>2015-07-13T07:20:29Z</time>
      </trkpt>
      <trkpt lat="43.3823" lon="2.60947">
        <ele>641.34</ele>
        <time>2015-07-13T07:20:31Z</time>
      </trkpt>
      <trkpt lat="43.3823" lon="2.60934">
        <ele>641.34</ele>
        <time>2015-07-13T07:20:43Z</time>
      </trkpt>
      <trkpt lat="43.38231" lon="2.60927">
        <ele>643.74</ele>
        <time>2015-07-13T07:20:56Z</time>
      </trkpt>
      <trkpt lat="43.38232" lon="2.60922">
        <ele>644.7</ele>
        <time>2015-07-13T07:21:00Z</time>
      </trkpt>
      <trkpt lat="43.38233" lon="2.60915">
        <ele>645.18</ele>
        <time>2015-07-13T07:21:12Z</time>
      </trkpt>
      <trkpt lat="43.38235" lon="2.60914">
        <ele>647.1</ele>
        <time>2015-07-13T07:21:14Z</time>
      </trkpt>
      <trkpt lat="43.38236" lon="2.60911">
        <ele>646.14</ele>
        <time>2015-07-13T07:21:17Z</time>
      </trkpt>
      <trkpt lat="43.38239" lon="2.60896">
        <ele>649.99</ele>
        <time>2015-07-13T07:21:31Z</time>
      </trkpt>
      <trkpt lat="43.38239" lon="2.60895">
        <ele>649.51</ele>
        <time>2015-07-13T07:21:32Z</time>
      </trkpt>
      <trkpt lat="43.38241" lon="2.60888">
        <ele>650.95</ele>
        <time>2015-07-13T07:21:38Z</time>
      </trkpt>
      <trkpt lat="43.38243" lon="2.60877">
        <ele>652.39</ele>
        <time>2015-07-13T07:21:51Z</time>
      </trkpt>
      <trkpt lat="43.38244" lon="2.60872">
        <ele>655.76</ele>
        <time>2015-07-13T07:21:57Z</time>
      </trkpt>
      <trkpt lat="43.38244" lon="2.6087">
        <ele>655.28</ele>
        <time>2015-07-13T07:21:58Z</time>
      </trkpt>
      <trkpt lat="43.38244" lon="2.60867">
        <ele>657.2</ele>
        <time>2015-07-13T07:22:00Z</time>
      </trkpt>
      <trkpt lat="43.38243" lon="2.60852">
        <ele>657.2</ele>
        <time>2015-07-13T07:22:15Z</time>
      </trkpt>
      <trkpt lat="43.38244" lon="2.60848">
        <ele>658.16</ele>
        <time>2015-07-13T07:22:24Z</time>
      </trkpt>
      <trkpt lat="43.38244" lon="2.60842">
        <ele>658.16</ele>
        <time>2015-07-13T07:22:30Z</time>
      </trkpt>
      <trkpt lat="43.38249" lon="2.60827">
        <ele>661.04</ele>
        <time>2015-07-13T07:22:46Z</time>
      </trkpt>
      <trkpt lat="43.38251" lon="2.60822">
        <ele>662.97</ele>
        <time>2015-07-13T07:22:54Z</time>
      </trkpt>
      <trkpt lat="43.38257" lon="2.60813">
        <ele>663.45</ele>
        <time>2015-07-13T07:23:04Z</time>
      </trkpt>
      <trkpt lat="43.38263" lon="2.60807">
        <ele>664.89</ele>
        <time>2015-07-13T07:23:13Z</time>
      </trkpt>
      <trkpt lat="43.38271" lon="2.60797">
        <ele>667.77</ele>
        <time>2015-07-13T07:23:23Z</time>
      </trkpt>
      <trkpt lat="43.38275" lon="2.6079">
        <ele>665.85</ele>
        <time>2015-07-13T07:23:34Z</time>
      </trkpt>
      <trkpt lat="43.38275" lon="2.6079">
        <ele>666.81</ele>
        <time>2015-07-13T07:23:36Z</time>
      </trkpt>
      <trkpt lat="43.38276" lon="2.60785">
        <ele>668.73</ele>
        <time>2015-07-13T07:23:40Z</time>
      </trkpt>
      <trkpt lat="43.38277" lon="2.60781">
        <ele>668.73</ele>
        <time>2015-07-13T07:23:43Z</time>
      </trkpt>
      <trkpt lat="43.38281" lon="2.60767">
        <ele>668.73</ele>
        <time>2015-07-13T07:23:54Z</time>
      </trkpt>
      <trkpt lat="43.38282" lon="2.60762">
        <ele>668.73</ele>
        <time>2015-07-13T07:23:58Z</time>
      </trkpt>
      <trkpt lat="43.38283" lon="2.60758">
        <ele>665.85</ele>
        <time>2015-07-13T07:24:04Z</time>
      </trkpt>
      <trkpt lat="43.38286" lon="2.60752">
        <ele>665.85</ele>
        <time>2015-07-13T07:24:17Z</time>
      </trkpt>
      <trkpt lat="43.38286" lon="2.60752">
        <ele>667.29</ele>
        <time>2015-07-13T07:24:21Z</time>
      </trkpt>
      <trkpt lat="43.38286" lon="2.60752">
        <ele>665.85</ele>
        <time>2015-07-13T07:24:33Z</time>
      </trkpt>
      <trkpt lat="43.38287" lon="2.60752">
        <ele>663.93</ele>
        <time>2015-07-13T07:24:55Z</time>
      </trkpt>
      <trkpt lat="43.38289" lon="2.6075">
        <ele>665.37</ele>
        <time>2015-07-13T07:25:01Z</time>
      </trkpt>
      <trkpt lat="43.38304" lon="2.60744">
        <ele>664.89</ele>
        <time>2015-07-13T07:25:16Z</time>
      </trkpt>
      <trkpt lat="43.38318" lon="2.6074">
        <ele>665.85</ele>
        <time>2015-07-13T07:25:31Z</time>
      </trkpt>
      <trkpt lat="43.38332" lon="2.60735">
        <ele>664.89</ele>
        <time>2015-07-13T07:25:45Z</time>
      </trkpt>
      <trkpt lat="43.38341" lon="2.60732">
        <ele>663.93</ele>
        <time>2015-07-13T07:25:54Z</time>
      </trkpt>
      <trkpt lat="43.38345" lon="2.60731">
        <ele>663.93</ele>
        <time>2015-07-13T07:25:58Z</time>
      </trkpt>
      <trkpt lat="43.38348" lon="2.60732">
        <ele>664.41</ele>
        <time>2015-07-13T07:26:02Z</time>
      </trkpt>
      <trkpt lat="43.38352" lon="2.60733">
        <ele>665.37</ele>
        <time>2015-07-13T07:26:06Z</time>
      </trkpt>
      <trkpt lat="43.38354" lon="2.60734">
        <ele>664.89</ele>
        <time>2015-07-13T07:26:08Z</time>
      </trkpt>
      <trkpt lat="43.38365" lon="2.60737">
        <ele>666.81</ele>
        <time>2015-07-13T07:26:22Z</time>
      </trkpt>
      <trkpt lat="43.38367" lon="2.60738">
        <ele>667.29</ele>
        <time>2015-07-13T07:26:35Z</time>
      </trkpt>
      <trkpt lat="43.3837" lon="2.60739">
        <ele>667.77</ele>
        <time>2015-07-13T07:26:38Z</time>
      </trkpt>
      <trkpt lat="43.38373" lon="2.60741">
        <ele>670.66</ele>
        <time>2015-07-13T07:26:41Z</time>
      </trkpt>
      <trkpt lat="43.38375" lon="2.60742">
        <ele>670.66</ele>
        <time>2015-07-13T07:26:43Z</time>
      </trkpt>
      <trkpt lat="43.38377" lon="2.60742">
        <ele>671.14</ele>
        <time>2015-07-13T07:26:45Z</time>
      </trkpt>
      <trkpt lat="43.38391" lon="2.60747">
        <ele>670.18</ele>
        <time>2015-07-13T07:26:58Z</time>
      </trkpt>
      <trkpt lat="43.38403" lon="2.60753">
        <ele>670.66</ele>
        <time>2015-07-13T07:27:12Z</time>
      </trkpt>
      <trkpt lat="43.38408" lon="2.60755">
        <ele>670.66</ele>
        <time>2015-07-13T07:27:17Z</time>
      </trkpt>
      <trkpt lat="43.3841" lon="2.60755">
        <ele>671.62</ele>
        <time>2015-07-13T07:27:19Z</time>
      </trkpt>
      <trkpt lat="43.38416" lon="2.60758">
        <ele>672.1</ele>
        <time>2015-07-13T07:27:26Z</time>
      </trkpt>
      <trkpt lat="43.38423" lon="2.60758">
        <ele>673.54</ele>
        <time>2015-07-13T07:27:34Z</time>
      </trkpt>
      <trkpt lat="43.38434" lon="2.60758">
        <ele>676.42</ele>
        <time>2015-07-13T07:27:46Z</time>
      </trkpt>
      <trkpt lat="43.38439" lon="2.60758">
        <ele>674.98</ele>
        <time>2015-07-13T07:27:51Z</time>
      </trkpt>
      <trkpt lat="43.3845" lon="2.60757">
        <ele>674.98</ele>
        <time>2015-07-13T07:28:04Z</time>
      </trkpt>
      <trkpt lat="43.38463" lon="2.60757">
        <ele>676.42</ele>
        <time>2015-07-13T07:28:19Z</time>
      </trkpt>
      <trkpt lat="43.38477" lon="2.60756">
        <ele>677.39</ele>
        <time>2015-07-13T07:28:34Z</time>
      </trkpt>
      <trkpt lat="43.38487" lon="2.60753">
        <ele>678.35</ele>
        <time>2015-07-13T07:28:46Z</time>
      </trkpt>
      <trkpt lat="43.38501" lon="2.60749">
        <ele>679.31</ele>
        <time>2015-07-13T07:29:01Z</time>
      </trkpt>
      <trkpt lat="43.38504" lon="2.60747">
        <ele>678.35</ele>
        <time>2015-07-13T07:29:04Z</time>
      </trkpt>
      <trkpt lat="43.38513" lon="2.60738">
        <ele>679.79</ele>
        <time>2015-07-13T07:29:16Z</time>
      </trkpt>
      <trkpt lat="43.38515" lon="2.60737">
        <ele>678.35</ele>
        <time>2015-07-13T07:29:18Z</time>
      </trkpt>
      <trkpt lat="43.38517" lon="2.60737">
        <ele>682.67</ele>
        <time>2015-07-13T07:29:20Z</time>
      </trkpt>
      <trkpt lat="43.38518" lon="2.60736">
        <ele>679.31</ele>
        <time>2015-07-13T07:29:21Z</time>
      </trkpt>
      <trkpt lat="43.38527" lon="2.60731">
        <ele>680.75</ele>
        <time>2015-07-13T07:29:31Z</time>
      </trkpt>
      <trkpt lat="43.38528" lon="2.6073">
        <ele>680.75</ele>
        <time>2015-07-13T07:29:33Z</time>
      </trkpt>
      <trkpt lat="43.38531" lon="2.60729">
        <ele>679.79</ele>
        <time>2015-07-13T07:29:37Z</time>
      </trkpt>
      <trkpt lat="43.38534" lon="2.60728">
        <ele>679.79</ele>
        <time>2015-07-13T07:29:40Z</time>
      </trkpt>
      <trkpt lat="43.38537" lon="2.60727">
        <ele>680.75</ele>
        <time>2015-07-13T07:29:43Z</time>
      </trkpt>
      <trkpt lat="43.38545" lon="2.6072">
        <ele>681.23</ele>
        <time>2015-07-13T07:29:56Z</time>
      </trkpt>
      <trkpt lat="43.38549" lon="2.60712">
        <ele>681.23</ele>
        <time>2015-07-13T07:30:07Z</time>
      </trkpt>
      <trkpt lat="43.38548" lon="2.60697">
        <ele>678.83</ele>
        <time>2015-07-13T07:30:19Z</time>
      </trkpt>
      <trkpt lat="43.38549" lon="2.60677">
        <ele>678.35</ele>
        <time>2015-07-13T07:30:34Z</time>
      </trkpt>
      <trkpt lat="43.38552" lon="2.60664">
        <ele>678.35</ele>
        <time>2015-07-13T07:30:46Z</time>
      </trkpt>
      <trkpt lat="43.38554" lon="2.60658">
        <ele>679.79</ele>
        <time>2015-07-13T07:30:58Z</time>
      </trkpt>
      <trkpt lat="43.38554" lon="2.60656">
        <ele>679.79</ele>
        <time>2015-07-13T07:31:01Z</time>
      </trkpt>
      <trkpt lat="43.38558" lon="2.60647">
        <ele>679.79</ele>
        <time>2015-07-13T07:31:09Z</time>
      </trkpt>
      <trkpt lat="43.38561" lon="2.6064">
        <ele>680.75</ele>
        <time>2015-07-13T07:31:15Z</time>
      </trkpt>
      <trkpt lat="43.38562" lon="2.60638">
        <ele>680.27</ele>
        <time>2015-07-13T07:31:17Z</time>
      </trkpt>
      <trkpt lat="43.38569" lon="2.60624">
        <ele>677.87</ele>
        <time>2015-07-13T07:31:31Z</time>
      </trkpt>
      <trkpt lat="43.3857" lon="2.60623">
        <ele>678.83</ele>
        <time>2015-07-13T07:31:33Z</time>
      </trkpt>
      <trkpt lat="43.38571" lon="2.60622">
        <ele>680.27</ele>
        <time>2015-07-13T07:31:35Z</time>
      </trkpt>
      <trkpt lat="43.38572" lon="2.6062">
        <ele>678.35</ele>
        <time>2015-07-13T07:31:37Z</time>
      </trkpt>
      <trkpt lat="43.38573" lon="2.6062">
        <ele>677.87</ele>
        <time>2015-07-13T07:31:38Z</time>
      </trkpt>
      <trkpt lat="43.38574" lon="2.60618">
        <ele>677.39</ele>
        <time>2015-07-13T07:31:40Z</time>
      </trkpt>
      <trkpt lat="43.38576" lon="2.60613">
        <ele>676.91</ele>
        <time>2015-07-13T07:31:45Z</time>
      </trkpt>
      <trkpt lat="43.3858" lon="2.60602">
        <ele>675.94</ele>
        <time>2015-07-13T07:31:57Z</time>
      </trkpt>
      <trkpt lat="43.38583" lon="2.60591">
        <ele>672.1</ele>
        <time>2015-07-13T07:32:10Z</time>
      </trkpt>
      <trkpt lat="43.38583" lon="2.6059">
        <ele>673.54</ele>
        <time>2015-07-13T07:32:20Z</time>
      </trkpt>
      <trkpt lat="43.38583" lon="2.6059">
        <ele>673.54</ele>
        <time>2015-07-13T07:32:23Z</time>
      </trkpt>
      <trkpt lat="43.38582" lon="2.60592">
        <ele>674.5</ele>
        <time>2015-07-13T07:32:33Z</time>
      </trkpt>
      <trkpt lat="43.38588" lon="2.6058">
        <ele>672.1</ele>
        <time>2015-07-13T07:32:45Z</time>
      </trkpt>
      <trkpt lat="43.3859" lon="2.60574">
        <ele>671.14</ele>
        <time>2015-07-13T07:32:52Z</time>
      </trkpt>
      <trkpt lat="43.3859" lon="2.60574">
        <ele>670.66</ele>
        <time>2015-07-13T07:32:54Z</time>
      </trkpt>
      <trkpt lat="43.38592" lon="2.60569">
        <ele>672.1</ele>
        <time>2015-07-13T07:32:57Z</time>
      </trkpt>
      <trkpt lat="43.38593" lon="2.60565">
        <ele>670.66</ele>
        <time>2015-07-13T07:32:59Z</time>
      </trkpt>
      <trkpt lat="43.38595" lon="2.60558">
        <ele>674.02</ele>
        <time>2015-07-13T07:33:03Z</time>
      </trkpt>
      <trkpt lat="43.38599" lon="2.60546">
        <ele>669.22</ele>
        <time>2015-07-13T07:33:11Z</time>
      </trkpt>
      <trkpt lat="43.38603" lon="2.6053">
        <ele>668.25</ele>
        <time>2015-07-13T07:33:21Z</time>
      </trkpt>
      <trkpt lat="43.38604" lon="2.60526">
        <ele>667.77</ele>
        <time>2015-07-13T07:33:24Z</time>
      </trkpt>
      <trkpt lat="43.38608" lon="2.60509">
        <ele>670.66</ele>
        <time>2015-07-13T07:33:36Z</time>
      </trkpt>
      <trkpt lat="43.38615" lon="2.60492">
        <ele>669.7</ele>
        <time>2015-07-13T07:33:48Z</time>
      </trkpt>
      <trkpt lat="43.38618" lon="2.60484">
        <ele>671.62</ele>
        <time>2015-07-13T07:33:54Z</time>
      </trkpt>
      <trkpt lat="43.38618" lon="2.60482">
        <ele>672.58</ele>
        <time>2015-07-13T07:33:56Z</time>
      </trkpt>
      <trkpt lat="43.38621" lon="2.60471">
        <ele>671.62</ele>
        <time>2015-07-13T07:34:03Z</time>
      </trkpt>
      <trkpt lat="43.38623" lon="2.60462">
        <ele>672.58</ele>
        <time>2015-07-13T07:34:10Z</time>
      </trkpt>
      <trkpt lat="43.38627" lon="2.60442">
        <ele>672.1</ele>
        <time>2015-07-13T07:34:24Z</time>
      </trkpt>
      <trkpt lat="43.3863" lon="2.60429">
        <ele>670.66</ele>
        <time>2015-07-13T07:34:33Z</time>
      </trkpt>
      <trkpt lat="43.38627" lon="2.60423">
        <ele>672.58</ele>
        <time>2015-07-13T07:34:43Z</time>
      </trkpt>
      <trkpt lat="43.38626" lon="2.60428">
        <ele>670.66</ele>
        <time>2015-07-13T07:34:51Z</time>
      </trkpt>
      <trkpt lat="43.38627" lon="2.60426">
        <ele>670.66</ele>
        <time>2015-07-13T07:34:54Z</time>
      </trkpt>
      <trkpt lat="43.38631" lon="2.60425">
        <ele>671.14</ele>
        <time>2015-07-13T07:34:59Z</time>
      </trkpt>
      <trkpt lat="43.38633" lon="2.60424">
        <ele>672.1</ele>
        <time>2015-07-13T07:35:01Z</time>
      </trkpt>
      <trkpt lat="43.38633" lon="2.60417">
        <ele>670.18</ele>
        <time>2015-07-13T07:35:12Z</time>
      </trkpt>
      <trkpt lat="43.38635" lon="2.60417">
        <ele>670.66</ele>
        <time>2015-07-13T07:35:18Z</time>
      </trkpt>
      <trkpt lat="43.38638" lon="2.60411">
        <ele>670.18</ele>
        <time>2015-07-13T07:35:23Z</time>
      </trkpt>
      <trkpt lat="43.38638" lon="2.60396">
        <ele>669.7</ele>
        <time>2015-07-13T07:35:33Z</time>
      </trkpt>
      <trkpt lat="43.38638" lon="2.60397">
        <ele>666.81</ele>
        <time>2015-07-13T07:35:37Z</time>
      </trkpt>
      <trkpt lat="43.38638" lon="2.60397">
        <ele>669.22</ele>
        <time>2015-07-13T07:35:40Z</time>
      </trkpt>
      <trkpt lat="43.38638" lon="2.60395">
        <ele>667.77</ele>
        <time>2015-07-13T07:35:52Z</time>
      </trkpt>
      <trkpt lat="43.38637" lon="2.60395">
        <ele>667.29</ele>
        <time>2015-07-13T07:35:58Z</time>
      </trkpt>
      <trkpt lat="43.38636" lon="2.60394">
        <ele>667.77</ele>
        <time>2015-07-13T07:36:19Z</time>
      </trkpt>
      <trkpt lat="43.38634" lon="2.60392">
        <ele>667.77</ele>
        <time>2015-07-13T07:36:35Z</time>
      </trkpt>
      <trkpt lat="43.38635" lon="2.60392">
        <ele>665.85</ele>
        <time>2015-07-13T07:36:54Z</time>
      </trkpt>
      <trkpt lat="43.38634" lon="2.60391">
        <ele>668.25</ele>
        <time>2015-07-13T07:36:59Z</time>
      </trkpt>
      <trkpt lat="43.38635" lon="2.60391">
        <ele>667.77</ele>
        <time>2015-07-13T07:37:12Z</time>
      </trkpt>
      <trkpt lat="43.38635" lon="2.60392">
        <ele>667.29</ele>
        <time>2015-07-13T07:37:29Z</time>
      </trkpt>
      <trkpt lat="43.38635" lon="2.60388">
        <ele>663.93</ele>
        <time>2015-07-13T07:37:42Z</time>
      </trkpt>
      <trkpt lat="43.38637" lon="2.60378">
        <ele>662.01</ele>
        <time>2015-07-13T07:37:54Z</time>
      </trkpt>
      <trkpt lat="43.38636" lon="2.60374">
        <ele>660.08</ele>
        <time>2015-07-13T07:37:59Z</time>
      </trkpt>
      <trkpt lat="43.38637" lon="2.60372">
        <ele>660.08</ele>
        <time>2015-07-13T07:38:10Z</time>
      </trkpt>
      <trkpt lat="43.38639" lon="2.60365">
        <ele>658.64</ele>
        <time>2015-07-13T07:38:24Z</time>
      </trkpt>
      <trkpt lat="43.3864" lon="2.6036">
        <ele>655.76</ele>
        <time>2015-07-13T07:38:35Z</time>
      </trkpt>
      <trkpt lat="43.3864" lon="2.6036">
        <ele>657.2</ele>
        <time>2015-07-13T07:38:38Z</time>
      </trkpt>
      <trkpt lat="43.38644" lon="2.60357">
        <ele>656.24</ele>
        <time>2015-07-13T07:38:50Z</time>
      </trkpt>
      <trkpt lat="43.38645" lon="2.60356">
        <ele>654.8</ele>
        <time>2015-07-13T07:39:07Z</time>
      </trkpt>
      <trkpt lat="43.38645" lon="2.60356">
        <ele>653.83</ele>
        <time>2015-07-13T07:39:09Z</time>
      </trkpt>
      <trkpt lat="43.38646" lon="2.60353">
        <ele>653.35</ele>
        <time>2015-07-13T07:39:13Z</time>
      </trkpt>
      <trkpt lat="43.38647" lon="2.60347">
        <ele>653.35</ele>
        <time>2015-07-13T07:39:20Z</time>
      </trkpt>
      <trkpt lat="43.38651" lon="2.60342">
        <ele>652.39</ele>
        <time>2015-07-13T07:39:27Z</time>
      </trkpt>
      <trkpt lat="43.3866" lon="2.60337">
        <ele>651.43</ele>
        <time>2015-07-13T07:39:39Z</time>
      </trkpt>
      <trkpt lat="43.38662" lon="2.60336">
        <ele>652.39</ele>
        <time>2015-07-13T07:39:41Z</time>
      </trkpt>
      <trkpt lat="43.38669" lon="2.6033">
        <ele>652.39</ele>
        <time>2015-07-13T07:39:48Z</time>
      </trkpt>
      <trkpt lat="43.38672" lon="2.60326">
        <ele>651.91</ele>
        <time>2015-07-13T07:39:52Z</time>
      </trkpt>
      <trkpt lat="43.38676" lon="2.60311">
        <ele>648.55</ele>
        <time>2015-07-13T07:40:02Z</time>
      </trkpt>
      <trkpt lat="43.38677" lon="2.60307">
        <ele>651.43</ele>
        <time>2015-07-13T07:40:06Z</time>
      </trkpt>
      <trkpt lat="43.38678" lon="2.60305">
        <ele>651.91</ele>
        <time>2015-07-13T07:40:07Z</time>
      </trkpt>
      <trkpt lat="43.38681" lon="2.60288">
        <ele>650.95</ele>
        <time>2015-07-13T07:40:21Z</time>
      </trkpt>
      <trkpt lat="43.38679" lon="2.60272">
        <ele>651.91</ele>
        <time>2015-07-13T07:40:33Z</time>
      </trkpt>
      <trkpt lat="43.3868" lon="2.60266">
        <ele>652.39</ele>
        <time>2015-07-13T07:40:36Z</time>
      </trkpt>
      <trkpt lat="43.38679" lon="2.6026">
        <ele>652.39</ele>
        <time>2015-07-13T07:40:40Z</time>
      </trkpt>
      <trkpt lat="43.38678" lon="2.60253">
        <ele>652.87</ele>
        <time>2015-07-13T07:40:47Z</time>
      </trkpt>
      <trkpt lat="43.38678" lon="2.60235">
        <ele>652.87</ele>
        <time>2015-07-13T07:41:02Z</time>
      </trkpt>
      <trkpt lat="43.38678" lon="2.60232">
        <ele>653.35</ele>
        <time>2015-07-13T07:41:05Z</time>
      </trkpt>
      <trkpt lat="43.38679" lon="2.60225">
        <ele>652.87</ele>
        <time>2015-07-13T07:41:11Z</time>
      </trkpt>
      <trkpt lat="43.38679" lon="2.60209">
        <ele>652.39</ele>
        <time>2015-07-13T07:41:24Z</time>
      </trkpt>
      <trkpt lat="43.38679" lon="2.60196">
        <ele>650.95</ele>
        <time>2015-07-13T07:41:34Z</time>
      </trkpt>
      <trkpt lat="43.3868" lon="2.60181">
        <ele>650.95</ele>
        <time>2015-07-13T07:41:46Z</time>
      </trkpt>
      <trkpt lat="43.38681" lon="2.60168">
        <ele>650.95</ele>
        <time>2015-07-13T07:41:55Z</time>
      </trkpt>
      <trkpt lat="43.38683" lon="2.60157">
        <ele>650.47</ele>
        <time>2015-07-13T07:42:02Z</time>
      </trkpt>
      <trkpt lat="43.38686" lon="2.60154">
        <ele>651.43</ele>
        <time>2015-07-13T07:42:07Z</time>
      </trkpt>
      <trkpt lat="43.38687" lon="2.6015">
        <ele>651.43</ele>
        <time>2015-07-13T07:42:09Z</time>
      </trkpt>
      <trkpt lat="43.38692" lon="2.60137">
        <ele>651.43</ele>
        <time>2015-07-13T07:42:16Z</time>
      </trkpt>
      <trkpt lat="43.38693" lon="2.6013">
        <ele>652.87</ele>
        <time>2015-07-13T07:42:20Z</time>
      </trkpt>
      <trkpt lat="43.38696" lon="2.6012">
        <ele>655.28</ele>
        <time>2015-07-13T07:42:27Z</time>
      </trkpt>
      <trkpt lat="43.38696" lon="2.60119">
        <ele>655.28</ele>
        <time>2015-07-13T07:42:28Z</time>
      </trkpt>
      <trkpt lat="43.38698" lon="2.60113">
        <ele>652.87</ele>
        <time>2015-07-13T07:42:32Z</time>
      </trkpt>
      <trkpt lat="43.387" lon="2.60106">
        <ele>654.8</ele>
        <time>2015-07-13T07:42:40Z</time>
      </trkpt>
      <trkpt lat="43.38702" lon="2.60099">
        <ele>650.47</ele>
        <time>2015-07-13T07:42:46Z</time>
      </trkpt>
      <trkpt lat="43.38703" lon="2.60095">
        <ele>650.47</ele>
        <time>2015-07-13T07:42:49Z</time>
      </trkpt>
      <trkpt lat="43.38708" lon="2.6008">
        <ele>649.99</ele>
        <time>2015-07-13T07:43:01Z</time>
      </trkpt>
      <trkpt lat="43.38711" lon="2.60072">
        <ele>649.51</ele>
        <time>2015-07-13T07:43:10Z</time>
      </trkpt>
      <trkpt lat="43.38711" lon="2.60067">
        <ele>647.59</ele>
        <time>2015-07-13T07:43:14Z</time>
      </trkpt>
      <trkpt lat="43.3871" lon="2.60064">
        <ele>649.03</ele>
        <time>2015-07-13T07:43:17Z</time>
      </trkpt>
      <trkpt lat="43.38709" lon="2.60062">
        <ele>647.59</ele>
        <time>2015-07-13T07:43:20Z</time>
      </trkpt>
      <trkpt lat="43.38708" lon="2.60062">
        <ele>647.59</ele>
        <time>2015-07-13T07:43:26Z</time>
      </trkpt>
      <trkpt lat="43.38709" lon="2.60062">
        <ele>647.1</ele>
        <time>2015-07-13T07:43:31Z</time>
      </trkpt>
      <trkpt lat="43.38708" lon="2.60062">
        <ele>647.59</ele>
        <time>2015-07-13T07:43:39Z</time>
      </trkpt>
      <trkpt lat="43.3871" lon="2.60053">
        <ele>648.07</ele>
        <time>2015-07-13T07:43:53Z</time>
      </trkpt>
      <trkpt lat="43.38709" lon="2.60052">
        <ele>648.55</ele>
        <time>2015-07-13T07:44:06Z</time>
      </trkpt>
      <trkpt lat="43.3871" lon="2.60048">
        <ele>648.55</ele>
        <time>2015-07-13T07:44:22Z</time>
      </trkpt>
      <trkpt lat="43.38711" lon="2.60048">
        <ele>648.55</ele>
        <time>2015-07-13T07:44:37Z</time>
      </trkpt>
      <trkpt lat="43.38711" lon="2.60044">
        <ele>649.51</ele>
        <time>2015-07-13T07:44:44Z</time>
      </trkpt>
      <trkpt lat="43.38711" lon="2.60039">
        <ele>649.51</ele>
        <time>2015-07-13T07:44:48Z</time>
      </trkpt>
      <trkpt lat="43.38711" lon="2.60031">
        <ele>650.95</ele>
        <time>2015-07-13T07:44:55Z</time>
      </trkpt>
      <trkpt lat="43.38713" lon="2.60021">
        <ele>647.59</ele>
        <time>2015-07-13T07:45:01Z</time>
      </trkpt>
      <trkpt lat="43.38716" lon="2.60018">
        <ele>648.55</ele>
        <time>2015-07-13T07:45:15Z</time>
      </trkpt>
      <trkpt lat="43.38716" lon="2.60018">
        <ele>647.1</ele>
        <time>2015-07-13T07:45:32Z</time>
      </trkpt>
      <trkpt lat="43.38716" lon="2.60018">
        <ele>649.51</ele>
        <time>2015-07-13T07:45:35Z</time>
      </trkpt>
      <trkpt lat="43.38716" lon="2.60018">
        <ele>648.55</ele>
        <time>2015-07-13T07:45:40Z</time>
      </trkpt>
      <trkpt lat="43.38716" lon="2.60017">
        <ele>650.47</ele>
        <time>2015-07-13T07:45:50Z</time>
      </trkpt>
      <trkpt lat="43.38717" lon="2.60009">
        <ele>649.99</ele>
        <time>2015-07-13T07:45:55Z</time>
      </trkpt>
      <trkpt lat="43.38717" lon="2.60004">
        <ele>651.91</ele>
        <time>2015-07-13T07:45:58Z</time>
      </trkpt>
      <trkpt lat="43.38718" lon="2.59999">
        <ele>652.39</ele>
        <time>2015-07-13T07:46:01Z</time>
      </trkpt>
      <trkpt lat="43.38719" lon="2.59988">
        <ele>651.91</ele>
        <time>2015-07-13T07:46:06Z</time>
      </trkpt>
      <trkpt lat="43.3872" lon="2.59958">
        <ele>654.31</ele>
        <time>2015-07-13T07:46:16Z</time>
      </trkpt>
      <trkpt lat="43.38715" lon="2.59933">
        <ele>654.31</ele>
        <time>2015-07-13T07:46:26Z</time>
      </trkpt>
      <trkpt lat="43.38705" lon="2.59914">
        <ele>652.87</ele>
        <time>2015-07-13T07:46:39Z</time>
      </trkpt>
      <trkpt lat="43.38701" lon="2.59909">
        <ele>657.2</ele>
        <time>2015-07-13T07:46:43Z</time>
      </trkpt>
      <trkpt lat="43.38697" lon="2.599">
        <ele>653.83</ele>
        <time>2015-07-13T07:46:49Z</time>
      </trkpt>
      <trkpt lat="43.38695" lon="2.59896">
        <ele>659.12</ele>
        <time>2015-07-13T07:46:52Z</time>
      </trkpt>
      <trkpt lat="43.38695" lon="2.59893">
        <ele>657.2</ele>
        <time>2015-07-13T07:46:54Z</time>
      </trkpt>
      <trkpt lat="43.38692" lon="2.59888">
        <ele>658.64</ele>
        <time>2015-07-13T07:46:58Z</time>
      </trkpt>
      <trkpt lat="43.38691" lon="2.59885">
        <ele>660.08</ele>
        <time>2015-07-13T07:47:00Z</time>
      </trkpt>
      <trkpt lat="43.38688" lon="2.59882">
        <ele>657.2</ele>
        <time>2015-07-13T07:47:03Z</time>
      </trkpt>
      <trkpt lat="43.38688" lon="2.5988">
        <ele>658.16</ele>
        <time>2015-07-13T07:47:06Z</time>
      </trkpt>
      <trkpt lat="43.38686" lon="2.59876">
        <ele>659.6</ele>
        <time>2015-07-13T07:47:10Z</time>
      </trkpt>
      <trkpt lat="43.38685" lon="2.59874">
        <ele>658.16</ele>
        <time>2015-07-13T07:47:12Z</time>
      </trkpt>
      <trkpt lat="43.38685" lon="2.59871">
        <ele>660.08</ele>
        <time>2015-07-13T07:47:14Z</time>
      </trkpt>
      <trkpt lat="43.38687" lon="2.59864">
        <ele>659.6</ele>
        <time>2015-07-13T07:47:19Z</time>
      </trkpt>
      <trkpt lat="43.3869" lon="2.59861">
        <ele>662.97</ele>
        <time>2015-07-13T07:47:23Z</time>
      </trkpt>
      <trkpt lat="43.38691" lon="2.59859">
        <ele>665.37</ele>
        <time>2015-07-13T07:47:25Z</time>
      </trkpt>
      <trkpt lat="43.38692" lon="2.59858">
        <ele>662.97</ele>
        <time>2015-07-13T07:47:27Z</time>
      </trkpt>
      <trkpt lat="43.38692" lon="2.59858">
        <ele>662.01</ele>
        <time>2015-07-13T07:47:28Z</time>
      </trkpt>
      <trkpt lat="43.38691" lon="2.59861">
        <ele>661.52</ele>
        <time>2015-07-13T07:47:32Z</time>
      </trkpt>
      <trkpt lat="43.38703" lon="2.59859">
        <ele>662.01</ele>
        <time>2015-07-13T07:47:43Z</time>
      </trkpt>
      <trkpt lat="43.38709" lon="2.59863">
        <ele>662.97</ele>
        <time>2015-07-13T07:47:50Z</time>
      </trkpt>
      <trkpt lat="43.38712" lon="2.59864">
        <ele>663.93</ele>
        <time>2015-07-13T07:47:52Z</time>
      </trkpt>
      <trkpt lat="43.3873" lon="2.59869">
        <ele>663.93</ele>
        <time>2015-07-13T07:48:07Z</time>
      </trkpt>
      <trkpt lat="43.38745" lon="2.59863">
        <ele>666.33</ele>
        <time>2015-07-13T07:48:20Z</time>
      </trkpt>
      <trkpt lat="43.38752" lon="2.59856">
        <ele>666.81</ele>
        <time>2015-07-13T07:48:28Z</time>
      </trkpt>
      <trkpt lat="43.38754" lon="2.59854">
        <ele>667.77</ele>
        <time>2015-07-13T07:48:30Z</time>
      </trkpt>
      <trkpt lat="43.3876" lon="2.59844">
        <ele>668.73</ele>
        <time>2015-07-13T07:48:41Z</time>
      </trkpt>
      <trkpt lat="43.3876" lon="2.59842">
        <ele>668.25</ele>
        <time>2015-07-13T07:48:43Z</time>
      </trkpt>
      <trkpt lat="43.38763" lon="2.59839">
        <ele>668.73</ele>
        <time>2015-07-13T07:48:46Z</time>
      </trkpt>
      <trkpt lat="43.38768" lon="2.59828">
        <ele>670.66</ele>
        <time>2015-07-13T07:48:58Z</time>
      </trkpt>
      <trkpt lat="43.38769" lon="2.59828">
        <ele>670.66</ele>
        <time>2015-07-13T07:48:59Z</time>
      </trkpt>
      <trkpt lat="43.38775" lon="2.59821">
        <ele>671.14</ele>
        <time>2015-07-13T07:49:06Z</time>
      </trkpt>
      <trkpt lat="43.38777" lon="2.59818">
        <ele>671.62</ele>
        <time>2015-07-13T07:49:09Z</time>
      </trkpt>
      <trkpt lat="43.38779" lon="2.59813">
        <ele>672.58</ele>
        <time>2015-07-13T07:49:14Z</time>
      </trkpt>
      <trkpt lat="43.38781" lon="2.5981">
        <ele>672.58</ele>
        <time>2015-07-13T07:49:18Z</time>
      </trkpt>
      <trkpt lat="43.38785" lon="2.59799">
        <ele>672.58</ele>
        <time>2015-07-13T07:49:30Z</time>
      </trkpt>
      <trkpt lat="43.38788" lon="2.59784">
        <ele>673.06</ele>
        <time>2015-07-13T07:49:40Z</time>
      </trkpt>
      <trkpt lat="43.38789" lon="2.59781">
        <ele>673.54</ele>
        <time>2015-07-13T07:49:42Z</time>
      </trkpt>
      <trkpt lat="43.38795" lon="2.59769">
        <ele>674.02</ele>
        <time>2015-07-13T07:49:53Z</time>
      </trkpt>
      <trkpt lat="43.38795" lon="2.59766">
        <ele>673.54</ele>
        <time>2015-07-13T07:49:55Z</time>
      </trkpt>
      <trkpt lat="43.38797" lon="2.59759">
        <ele>673.54</ele>
        <time>2015-07-13T07:50:01Z</time>
      </trkpt>
      <trkpt lat="43.38797" lon="2.59758">
        <ele>674.02</ele>
        <time>2015-07-13T07:50:02Z</time>
      </trkpt>
      <trkpt lat="43.38801" lon="2.59749">
        <ele>672.1</ele>
        <time>2015-07-13T07:50:08Z</time>
      </trkpt>
      <trkpt lat="43.38804" lon="2.59743">
        <ele>673.06</ele>
        <time>2015-07-13T07:50:13Z</time>
      </trkpt>
      <trkpt lat="43.38806" lon="2.59741">
        <ele>673.06</ele>
        <time>2015-07-13T07:50:15Z</time>
      </trkpt>
      <trkpt lat="43.38809" lon="2.59738">
        <ele>673.54</ele>
        <time>2015-07-13T07:50:18Z</time>
      </trkpt>
      <trkpt lat="43.38813" lon="2.5973">
        <ele>674.5</ele>
        <time>2015-07-13T07:50:23Z</time>
      </trkpt>
      <trkpt lat="43.38817" lon="2.59722">
        <ele>676.91</ele>
        <time>2015-07-13T07:50:28Z</time>
      </trkpt>
      <trkpt lat="43.38818" lon="2.59713">
        <ele>677.39</ele>
        <time>2015-07-13T07:50:34Z</time>
      </trkpt>
      <trkpt lat="43.38819" lon="2.59696">
        <ele>677.87</ele>
        <time>2015-07-13T07:50:45Z</time>
      </trkpt>
      <trkpt lat="43.38818" lon="2.59691">
        <ele>679.79</ele>
        <time>2015-07-13T07:50:48Z</time>
      </trkpt>
      <trkpt lat="43.38818" lon="2.59686">
        <ele>679.31</ele>
        <time>2015-07-13T07:50:51Z</time>
      </trkpt>
      <trkpt lat="43.38818" lon="2.59682">
        <ele>676.42</ele>
        <time>2015-07-13T07:50:54Z</time>
      </trkpt>
      <trkpt lat="43.38817" lon="2.59672">
        <ele>679.79</ele>
        <time>2015-07-13T07:51:02Z</time>
      </trkpt>
      <trkpt lat="43.38818" lon="2.59666">
        <ele>680.27</ele>
        <time>2015-07-13T07:51:08Z</time>
      </trkpt>
      <trkpt lat="43.38816" lon="2.59662">
        <ele>682.19</ele>
        <time>2015-07-13T07:51:13Z</time>
      </trkpt>
      <trkpt lat="43.38816" lon="2.59665">
        <ele>680.75</ele>
        <time>2015-07-13T07:51:24Z</time>
      </trkpt>
      <trkpt lat="43.38815" lon="2.59669">
        <ele>684.12</ele>
        <time>2015-07-13T07:51:36Z</time>
      </trkpt>
      <trkpt lat="43.38816" lon="2.59664">
        <ele>682.67</ele>
        <time>2015-07-13T07:51:48Z</time>
      </trkpt>
      <trkpt lat="43.38816" lon="2.59663">
        <ele>682.67</ele>
        <time>2015-07-13T07:51:51Z</time>
      </trkpt>
      <trkpt lat="43.38818" lon="2.5966">
        <ele>681.23</ele>
        <time>2015-07-13T07:51:53Z</time>
      </trkpt>
      <trkpt lat="43.3882" lon="2.59657">
        <ele>681.23</ele>
        <time>2015-07-13T07:51:55Z</time>
      </trkpt>
      <trkpt lat="43.3882" lon="2.59654">
        <ele>681.71</ele>
        <time>2015-07-13T07:51:57Z</time>
      </trkpt>
      <trkpt lat="43.3882" lon="2.59643">
        <ele>683.15</ele>
        <time>2015-07-13T07:52:05Z</time>
      </trkpt>
      <trkpt lat="43.38819" lon="2.59633">
        <ele>684.12</ele>
        <time>2015-07-13T07:52:13Z</time>
      </trkpt>
      <trkpt lat="43.38821" lon="2.59629">
        <ele>683.15</ele>
        <time>2015-07-13T07:52:16Z</time>
      </trkpt>
      <trkpt lat="43.38822" lon="2.59623">
        <ele>683.63</ele>
        <time>2015-07-13T07:52:20Z</time>
      </trkpt>
      <trkpt lat="43.38822" lon="2.5962">
        <ele>685.56</ele>
        <time>2015-07-13T07:52:23Z</time>
      </trkpt>
      <trkpt lat="43.38822" lon="2.59608">
        <ele>687</ele>
        <time>2015-07-13T07:52:32Z</time>
      </trkpt>
      <trkpt lat="43.38822" lon="2.59597">
        <ele>687.96</ele>
        <time>2015-07-13T07:52:43Z</time>
      </trkpt>
      <trkpt lat="43.38822" lon="2.59584">
        <ele>689.4</ele>
        <time>2015-07-13T07:52:56Z</time>
      </trkpt>
      <trkpt lat="43.38821" lon="2.59569">
        <ele>688.92</ele>
        <time>2015-07-13T07:53:09Z</time>
      </trkpt>
      <trkpt lat="43.38821" lon="2.59555">
        <ele>688.44</ele>
        <time>2015-07-13T07:53:20Z</time>
      </trkpt>
      <trkpt lat="43.38826" lon="2.59544">
        <ele>689.88</ele>
        <time>2015-07-13T07:53:26Z</time>
      </trkpt>
      <trkpt lat="43.38832" lon="2.59529">
        <ele>690.84</ele>
        <time>2015-07-13T07:53:39Z</time>
      </trkpt>
      <trkpt lat="43.38835" lon="2.5952">
        <ele>692.29</ele>
        <time>2015-07-13T07:53:51Z</time>
      </trkpt>
      <trkpt lat="43.38835" lon="2.59514">
        <ele>692.29</ele>
        <time>2015-07-13T07:53:57Z</time>
      </trkpt>
      <trkpt lat="43.38831" lon="2.59508">
        <ele>693.25</ele>
        <time>2015-07-13T07:54:06Z</time>
      </trkpt>
      <trkpt lat="43.38823" lon="2.59505">
        <ele>695.17</ele>
        <time>2015-07-13T07:54:15Z</time>
      </trkpt>
      <trkpt lat="43.38822" lon="2.59506">
        <ele>692.29</ele>
        <time>2015-07-13T07:54:17Z</time>
      </trkpt>
      <trkpt lat="43.3882" lon="2.59505">
        <ele>695.65</ele>
        <time>2015-07-13T07:54:20Z</time>
      </trkpt>
      <trkpt lat="43.38817" lon="2.59506">
        <ele>693.25</ele>
        <time>2015-07-13T07:54:23Z</time>
      </trkpt>
      <trkpt lat="43.3881" lon="2.59504">
        <ele>693.25</ele>
        <time>2015-07-13T07:54:32Z</time>
      </trkpt>
      <trkpt lat="43.38807" lon="2.59501">
        <ele>694.21</ele>
        <time>2015-07-13T07:54:35Z</time>
      </trkpt>
      <trkpt lat="43.38797" lon="2.59497">
        <ele>695.65</ele>
        <time>2015-07-13T07:54:47Z</time>
      </trkpt>
      <trkpt lat="43.38789" lon="2.5949">
        <ele>698.05</ele>
        <time>2015-07-13T07:54:57Z</time>
      </trkpt>
      <trkpt lat="43.3879" lon="2.59488">
        <ele>698.05</ele>
        <time>2015-07-13T07:54:59Z</time>
      </trkpt>
      <trkpt lat="43.38789" lon="2.59483">
        <ele>696.61</ele>
        <time>2015-07-13T07:55:04Z</time>
      </trkpt>
      <trkpt lat="43.3879" lon="2.59478">
        <ele>699.98</ele>
        <time>2015-07-13T07:55:09Z</time>
      </trkpt>
      <trkpt lat="43.38795" lon="2.59466">
        <ele>697.09</ele>
        <time>2015-07-13T07:55:21Z</time>
      </trkpt>
      <trkpt lat="43.38801" lon="2.59456">
        <ele>699.98</ele>
        <time>2015-07-13T07:55:30Z</time>
      </trkpt>
      <trkpt lat="43.38804" lon="2.59454">
        <ele>701.42</ele>
        <time>2015-07-13T07:55:35Z</time>
      </trkpt>
      <trkpt lat="43.38813" lon="2.59442">
        <ele>702.86</ele>
        <time>2015-07-13T07:55:49Z</time>
      </trkpt>
      <trkpt lat="43.38818" lon="2.59439">
        <ele>703.82</ele>
        <time>2015-07-13T07:55:54Z</time>
      </trkpt>
      <trkpt lat="43.38823" lon="2.59433">
        <ele>704.3</ele>
        <time>2015-07-13T07:56:01Z</time>
      </trkpt>
      <trkpt lat="43.38827" lon="2.5943">
        <ele>704.3</ele>
        <time>2015-07-13T07:56:05Z</time>
      </trkpt>
      <trkpt lat="43.38828" lon="2.59427">
        <ele>703.34</ele>
        <time>2015-07-13T07:56:07Z</time>
      </trkpt>
      <trkpt lat="43.38834" lon="2.59419">
        <ele>704.3</ele>
        <time>2015-07-13T07:56:15Z</time>
      </trkpt>
      <trkpt lat="43.38834" lon="2.59416">
        <ele>704.3</ele>
        <time>2015-07-13T07:56:17Z</time>
      </trkpt>
      <trkpt lat="43.3884" lon="2.59406">
        <ele>706.23</ele>
        <time>2015-07-13T07:56:30Z</time>
      </trkpt>
      <trkpt lat="43.38844" lon="2.59398">
        <ele>708.63</ele>
        <time>2015-07-13T07:56:38Z</time>
      </trkpt>
      <trkpt lat="43.38848" lon="2.59389">
        <ele>705.26</ele>
        <time>2015-07-13T07:56:45Z</time>
      </trkpt>
      <trkpt lat="43.38851" lon="2.59385">
        <ele>708.63</ele>
        <time>2015-07-13T07:56:49Z</time>
      </trkpt>
      <trkpt lat="43.38852" lon="2.59384">
        <ele>708.63</ele>
        <time>2015-07-13T07:56:50Z</time>
      </trkpt>
      <trkpt lat="43.38856" lon="2.59369">
        <ele>711.03</ele>
        <time>2015-07-13T07:57:02Z</time>
      </trkpt>
      <trkpt lat="43.38857" lon="2.59366">
        <ele>710.07</ele>
        <time>2015-07-13T07:57:04Z</time>
      </trkpt>
      <trkpt lat="43.38858" lon="2.5934">
        <ele>710.55</ele>
        <time>2015-07-13T07:57:20Z</time>
      </trkpt>
      <trkpt lat="43.38858" lon="2.59339">
        <ele>711.03</ele>
        <time>2015-07-13T07:57:21Z</time>
      </trkpt>
      <trkpt lat="43.38858" lon="2.59338">
        <ele>711.03</ele>
        <time>2015-07-13T07:57:22Z</time>
      </trkpt>
      <trkpt lat="43.38857" lon="2.59325">
        <ele>710.07</ele>
        <time>2015-07-13T07:57:30Z</time>
      </trkpt>
      <trkpt lat="43.38856" lon="2.59322">
        <ele>711.03</ele>
        <time>2015-07-13T07:57:33Z</time>
      </trkpt>
      <trkpt lat="43.38855" lon="2.59304">
        <ele>710.55</ele>
        <time>2015-07-13T07:57:46Z</time>
      </trkpt>
      <trkpt lat="43.38852" lon="2.59297">
        <ele>709.59</ele>
        <time>2015-07-13T07:57:57Z</time>
      </trkpt>
      <trkpt lat="43.38852" lon="2.59296">
        <ele>711.03</ele>
        <time>2015-07-13T07:57:59Z</time>
      </trkpt>
      <trkpt lat="43.38853" lon="2.59296">
        <ele>709.59</ele>
        <time>2015-07-13T07:58:02Z</time>
      </trkpt>
      <trkpt lat="43.38857" lon="2.59291">
        <ele>709.11</ele>
        <time>2015-07-13T07:58:15Z</time>
      </trkpt>
      <trkpt lat="43.38857" lon="2.59286">
        <ele>710.07</ele>
        <time>2015-07-13T07:58:21Z</time>
      </trkpt>
      <trkpt lat="43.38859" lon="2.59274">
        <ele>710.55</ele>
        <time>2015-07-13T07:58:33Z</time>
      </trkpt>
      <trkpt lat="43.38861" lon="2.5927">
        <ele>709.11</ele>
        <time>2015-07-13T07:58:37Z</time>
      </trkpt>
      <trkpt lat="43.38865" lon="2.59259">
        <ele>707.67</ele>
        <time>2015-07-13T07:58:45Z</time>
      </trkpt>
      <trkpt lat="43.38867" lon="2.59245">
        <ele>708.63</ele>
        <time>2015-07-13T07:58:58Z</time>
      </trkpt>
      <trkpt lat="43.38868" lon="2.59238">
        <ele>705.75</ele>
        <time>2015-07-13T07:59:04Z</time>
      </trkpt>
      <trkpt lat="43.38868" lon="2.59237">
        <ele>705.75</ele>
        <time>2015-07-13T07:59:05Z</time>
      </trkpt>
      <trkpt lat="43.38871" lon="2.59225">
        <ele>702.38</ele>
        <time>2015-07-13T07:59:18Z</time>
      </trkpt>
      <trkpt lat="43.38875" lon="2.5921">
        <ele>702.86</ele>
        <time>2015-07-13T07:59:31Z</time>
      </trkpt>
      <trkpt lat="43.38875" lon="2.59206">
        <ele>700.94</ele>
        <time>2015-07-13T07:59:37Z</time>
      </trkpt>
      <trkpt lat="43.38876" lon="2.59199">
        <ele>699.5</ele>
        <time>2015-07-13T07:59:48Z</time>
      </trkpt>
      <trkpt lat="43.38879" lon="2.59187">
        <ele>698.53</ele>
        <time>2015-07-13T07:59:56Z</time>
      </trkpt>
      <trkpt lat="43.38879" lon="2.59176">
        <ele>699.5</ele>
        <time>2015-07-13T08:00:08Z</time>
      </trkpt>
      <trkpt lat="43.38879" lon="2.5917">
        <ele>702.38</ele>
        <time>2015-07-13T08:00:14Z</time>
      </trkpt>
      <trkpt lat="43.3888" lon="2.59168">
        <ele>702.86</ele>
        <time>2015-07-13T08:00:16Z</time>
      </trkpt>
      <trkpt lat="43.38881" lon="2.59164">
        <ele>703.34</ele>
        <time>2015-07-13T08:00:20Z</time>
      </trkpt>
      <trkpt lat="43.38883" lon="2.59163">
        <ele>702.38</ele>
        <time>2015-07-13T08:00:22Z</time>
      </trkpt>
      <trkpt lat="43.38885" lon="2.59149">
        <ele>699.98</ele>
        <time>2015-07-13T08:00:35Z</time>
      </trkpt>
      <trkpt lat="43.38893" lon="2.59132">
        <ele>700.46</ele>
        <time>2015-07-13T08:00:48Z</time>
      </trkpt>
      <trkpt lat="43.38894" lon="2.59128">
        <ele>700.46</ele>
        <time>2015-07-13T08:00:50Z</time>
      </trkpt>
      <trkpt lat="43.38899" lon="2.59114">
        <ele>700.94</ele>
        <time>2015-07-13T08:01:03Z</time>
      </trkpt>
      <trkpt lat="43.38902" lon="2.59108">
        <ele>699.98</ele>
        <time>2015-07-13T08:01:08Z</time>
      </trkpt>
      <trkpt lat="43.38905" lon="2.59096">
        <ele>703.34</ele>
        <time>2015-07-13T08:01:20Z</time>
      </trkpt>
      <trkpt lat="43.38913" lon="2.59088">
        <ele>706.71</ele>
        <time>2015-07-13T08:01:30Z</time>
      </trkpt>
      <trkpt lat="43.38913" lon="2.59087">
        <ele>706.23</ele>
        <time>2015-07-13T08:01:31Z</time>
      </trkpt>
      <trkpt lat="43.3892" lon="2.59072">
        <ele>704.78</ele>
        <time>2015-07-13T08:01:44Z</time>
      </trkpt>
      <trkpt lat="43.38929" lon="2.59065">
        <ele>705.26</ele>
        <time>2015-07-13T08:01:59Z</time>
      </trkpt>
      <trkpt lat="43.38935" lon="2.59059">
        <ele>705.75</ele>
        <time>2015-07-13T08:02:10Z</time>
      </trkpt>
      <trkpt lat="43.38944" lon="2.59049">
        <ele>706.23</ele>
        <time>2015-07-13T08:02:22Z</time>
      </trkpt>
      <trkpt lat="43.38957" lon="2.59037">
        <ele>709.59</ele>
        <time>2015-07-13T08:02:35Z</time>
      </trkpt>
      <trkpt lat="43.38973" lon="2.59021">
        <ele>709.11</ele>
        <time>2015-07-13T08:02:50Z</time>
      </trkpt>
      <trkpt lat="43.38978" lon="2.59013">
        <ele>709.59</ele>
        <time>2015-07-13T08:02:57Z</time>
      </trkpt>
      <trkpt lat="43.38986" lon="2.58997">
        <ele>708.63</ele>
        <time>2015-07-13T08:03:10Z</time>
      </trkpt>
      <trkpt lat="43.38992" lon="2.58989">
        <ele>711.99</ele>
        <time>2015-07-13T08:03:22Z</time>
      </trkpt>
      <trkpt lat="43.38992" lon="2.58989">
        <ele>711.99</ele>
        <time>2015-07-13T08:03:23Z</time>
      </trkpt>
      <trkpt lat="43.39001" lon="2.58974">
        <ele>709.59</ele>
        <time>2015-07-13T08:03:36Z</time>
      </trkpt>
      <trkpt lat="43.3901" lon="2.58961">
        <ele>709.11</ele>
        <time>2015-07-13T08:03:48Z</time>
      </trkpt>
      <trkpt lat="43.3902" lon="2.58949">
        <ele>709.11</ele>
        <time>2015-07-13T08:04:01Z</time>
      </trkpt>
      <trkpt lat="43.39022" lon="2.58947">
        <ele>711.03</ele>
        <time>2015-07-13T08:04:04Z</time>
      </trkpt>
      <trkpt lat="43.39026" lon="2.58944">
        <ele>711.51</ele>
        <time>2015-07-13T08:04:09Z</time>
      </trkpt>
      <trkpt lat="43.39035" lon="2.58921">
        <ele>711.99</ele>
        <time>2015-07-13T08:04:23Z</time>
      </trkpt>
      <trkpt lat="43.39041" lon="2.58904">
        <ele>711.99</ele>
        <time>2015-07-13T08:04:36Z</time>
      </trkpt>
      <trkpt lat="43.39046" lon="2.58891">
        <ele>711.99</ele>
        <time>2015-07-13T08:04:48Z</time>
      </trkpt>
      <trkpt lat="43.39049" lon="2.58885">
        <ele>713.44</ele>
        <time>2015-07-13T08:04:53Z</time>
      </trkpt>
      <trkpt lat="43.39057" lon="2.5887">
        <ele>713.92</ele>
        <time>2015-07-13T08:05:06Z</time>
      </trkpt>
      <trkpt lat="43.39066" lon="2.58852">
        <ele>712.47</ele>
        <time>2015-07-13T08:05:19Z</time>
      </trkpt>
      <trkpt lat="43.39068" lon="2.58849">
        <ele>713.44</ele>
        <time>2015-07-13T08:05:21Z</time>
      </trkpt>
      <trkpt lat="43.39075" lon="2.58841">
        <ele>714.4</ele>
        <time>2015-07-13T08:05:29Z</time>
      </trkpt>
      <trkpt lat="43.39085" lon="2.5883">
        <ele>715.36</ele>
        <time>2015-07-13T08:05:41Z</time>
      </trkpt>
      <trkpt lat="43.39095" lon="2.58819">
        <ele>717.76</ele>
        <time>2015-07-13T08:05:56Z</time>
      </trkpt>
      <trkpt lat="43.39096" lon="2.58818">
        <ele>718.72</ele>
        <time>2015-07-13T08:05:58Z</time>
      </trkpt>
      <trkpt lat="43.39096" lon="2.58817">
        <ele>717.28</ele>
        <time>2015-07-13T08:06:00Z</time>
      </trkpt>
      <trkpt lat="43.39095" lon="2.58808">
        <ele>720.16</ele>
        <time>2015-07-13T08:06:11Z</time>
      </trkpt>
      <trkpt lat="43.39093" lon="2.588">
        <ele>721.13</ele>
        <time>2015-07-13T08:06:18Z</time>
      </trkpt>
      <trkpt lat="43.3909" lon="2.58793">
        <ele>719.2</ele>
        <time>2015-07-13T08:06:24Z</time>
      </trkpt>
      <trkpt lat="43.39087" lon="2.58782">
        <ele>720.65</ele>
        <time>2015-07-13T08:06:37Z</time>
      </trkpt>
      <trkpt lat="43.39085" lon="2.58776">
        <ele>722.09</ele>
        <time>2015-07-13T08:06:44Z</time>
      </trkpt>
      <trkpt lat="43.39084" lon="2.58774">
        <ele>721.61</ele>
        <time>2015-07-13T08:06:46Z</time>
      </trkpt>
      <trkpt lat="43.39083" lon="2.58772">
        <ele>722.09</ele>
        <time>2015-07-13T08:06:48Z</time>
      </trkpt>
      <trkpt lat="43.39082" lon="2.58762">
        <ele>723.53</ele>
        <time>2015-07-13T08:06:56Z</time>
      </trkpt>
      <trkpt lat="43.39081" lon="2.58753">
        <ele>725.93</ele>
        <time>2015-07-13T08:07:08Z</time>
      </trkpt>
      <trkpt lat="43.3908" lon="2.58749">
        <ele>724.49</ele>
        <time>2015-07-13T08:07:17Z</time>
      </trkpt>
      <trkpt lat="43.3908" lon="2.58746">
        <ele>724.49</ele>
        <time>2015-07-13T08:07:19Z</time>
      </trkpt>
      <trkpt lat="43.39079" lon="2.58744">
        <ele>724.97</ele>
        <time>2015-07-13T08:07:21Z</time>
      </trkpt>
      <trkpt lat="43.39079" lon="2.58738">
        <ele>724.49</ele>
        <time>2015-07-13T08:07:32Z</time>
      </trkpt>
      <trkpt lat="43.39076" lon="2.58723">
        <ele>725.93</ele>
        <time>2015-07-13T08:07:46Z</time>
      </trkpt>
      <trkpt lat="43.39078" lon="2.58715">
        <ele>725.93</ele>
        <time>2015-07-13T08:07:57Z</time>
      </trkpt>
      <trkpt lat="43.39079" lon="2.58714">
        <ele>726.89</ele>
        <time>2015-07-13T08:08:08Z</time>
      </trkpt>
      <trkpt lat="43.39078" lon="2.58714">
        <ele>726.89</ele>
        <time>2015-07-13T08:08:21Z</time>
      </trkpt>
      <trkpt lat="43.39078" lon="2.58713">
        <ele>724.97</ele>
        <time>2015-07-13T08:08:36Z</time>
      </trkpt>
      <trkpt lat="43.39078" lon="2.58713">
        <ele>725.93</ele>
        <time>2015-07-13T08:08:51Z</time>
      </trkpt>
      <trkpt lat="43.39079" lon="2.58712">
        <ele>726.89</ele>
        <time>2015-07-13T08:09:06Z</time>
      </trkpt>
      <trkpt lat="43.3908" lon="2.58711">
        <ele>727.86</ele>
        <time>2015-07-13T08:09:19Z</time>
      </trkpt>
      <trkpt lat="43.3908" lon="2.58711">
        <ele>724.49</ele>
        <time>2015-07-13T08:09:29Z</time>
      </trkpt>
      <trkpt lat="43.39079" lon="2.58712">
        <ele>725.45</ele>
        <time>2015-07-13T08:09:49Z</time>
      </trkpt>
      <trkpt lat="43.39079" lon="2.58711">
        <ele>724.01</ele>
        <time>2015-07-13T08:09:51Z</time>
      </trkpt>
      <trkpt lat="43.39078" lon="2.5871">
        <ele>728.34</ele>
        <time>2015-07-13T08:09:54Z</time>
      </trkpt>
      <trkpt lat="43.39078" lon="2.5871">
        <ele>724.01</ele>
        <time>2015-07-13T08:09:55Z</time>
      </trkpt>
      <trkpt lat="43.39078" lon="2.58709">
        <ele>723.05</ele>
        <time>2015-07-13T08:10:22Z</time>
      </trkpt>
      <trkpt lat="43.39078" lon="2.5871">
        <ele>726.41</ele>
        <time>2015-07-13T08:10:35Z</time>
      </trkpt>
      <trkpt lat="43.39078" lon="2.5871">
        <ele>726.41</ele>
        <time>2015-07-13T08:10:51Z</time>
      </trkpt>
      <trkpt lat="43.39078" lon="2.5871">
        <ele>724.97</ele>
        <time>2015-07-13T08:11:09Z</time>
      </trkpt>
      <trkpt lat="43.39078" lon="2.5871">
        <ele>724.97</ele>
        <time>2015-07-13T08:11:34Z</time>
      </trkpt>
      <trkpt lat="43.39078" lon="2.5871">
        <ele>726.41</ele>
        <time>2015-07-13T08:11:46Z</time>
      </trkpt>
      <trkpt lat="43.39078" lon="2.58709">
        <ele>726.41</ele>
        <time>2015-07-13T08:11:57Z</time>
      </trkpt>
      <trkpt lat="43.39079" lon="2.58711">
        <ele>727.37</ele>
        <time>2015-07-13T08:11:59Z</time>
      </trkpt>
      <trkpt lat="43.39079" lon="2.5871">
        <ele>725.45</ele>
        <time>2015-07-13T08:12:13Z</time>
      </trkpt>
      <trkpt lat="43.39079" lon="2.5871">
        <ele>724.01</ele>
        <time>2015-07-13T08:12:25Z</time>
      </trkpt>
      <trkpt lat="43.39079" lon="2.58711">
        <ele>724.49</ele>
        <time>2015-07-13T08:12:54Z</time>
      </trkpt>
      <trkpt lat="43.39079" lon="2.58709">
        <ele>723.53</ele>
        <time>2015-07-13T08:13:23Z</time>
      </trkpt>
      <trkpt lat="43.39079" lon="2.5871">
        <ele>723.53</ele>
        <time>2015-07-13T08:13:40Z</time>
      </trkpt>
      <trkpt lat="43.39079" lon="2.5871">
        <ele>724.97</ele>
        <time>2015-07-13T08:13:51Z</time>
      </trkpt>
      <trkpt lat="43.39078" lon="2.5871">
        <ele>724.01</ele>
        <time>2015-07-13T08:14:15Z</time>
      </trkpt>
      <trkpt lat="43.39078" lon="2.5871">
        <ele>724.01</ele>
        <time>2015-07-13T08:14:32Z</time>
      </trkpt>
      <trkpt lat="43.39079" lon="2.5871">
        <ele>725.45</ele>
        <time>2015-07-13T08:15:02Z</time>
      </trkpt>
      <trkpt lat="43.39079" lon="2.58711">
        <ele>724.97</ele>
        <time>2015-07-13T08:15:35Z</time>
      </trkpt>
      <trkpt lat="43.39078" lon="2.58711">
        <ele>724.49</ele>
        <time>2015-07-13T08:16:05Z</time>
      </trkpt>
      <trkpt lat="43.39078" lon="2.58711">
        <ele>724.97</ele>
        <time>2015-07-13T08:16:09Z</time>
      </trkpt>
      <trkpt lat="43.39078" lon="2.58711">
        <ele>724.01</ele>
        <time>2015-07-13T08:16:42Z</time>
      </trkpt>
      <trkpt lat="43.39079" lon="2.58711">
        <ele>724.97</ele>
        <time>2015-07-13T08:17:11Z</time>
      </trkpt>
      <trkpt lat="43.39079" lon="2.58711">
        <ele>724.49</ele>
        <time>2015-07-13T08:17:27Z</time>
      </trkpt>
      <trkpt lat="43.39083" lon="2.58711">
        <ele>724.01</ele>
        <time>2015-07-13T08:17:36Z</time>
      </trkpt>
      <trkpt lat="43.39092" lon="2.58712">
        <ele>722.57</ele>
        <time>2015-07-13T08:17:48Z</time>
      </trkpt>
      <trkpt lat="43.391" lon="2.58715">
        <ele>721.13</ele>
        <time>2015-07-13T08:18:01Z</time>
      </trkpt>
      <trkpt lat="43.39104" lon="2.58716">
        <ele>722.57</ele>
        <time>2015-07-13T08:18:12Z</time>
      </trkpt>
      <trkpt lat="43.39108" lon="2.58716">
        <ele>723.53</ele>
        <time>2015-07-13T08:18:16Z</time>
      </trkpt>
      <trkpt lat="43.39111" lon="2.58716">
        <ele>723.53</ele>
        <time>2015-07-13T08:18:19Z</time>
      </trkpt>
      <trkpt lat="43.39124" lon="2.58719">
        <ele>725.45</ele>
        <time>2015-07-13T08:18:31Z</time>
      </trkpt>
      <trkpt lat="43.39132" lon="2.5872">
        <ele>725.93</ele>
        <time>2015-07-13T08:18:42Z</time>
      </trkpt>
      <trkpt lat="43.39134" lon="2.58719">
        <ele>725.93</ele>
        <time>2015-07-13T08:18:44Z</time>
      </trkpt>
      <trkpt lat="43.39139" lon="2.58719">
        <ele>729.78</ele>
        <time>2015-07-13T08:18:51Z</time>
      </trkpt>
      <trkpt lat="43.39146" lon="2.58718">
        <ele>729.3</ele>
        <time>2015-07-13T08:19:01Z</time>
      </trkpt>
      <trkpt lat="43.39151" lon="2.58718">
        <ele>730.26</ele>
        <time>2015-07-13T08:19:13Z</time>
      </trkpt>
      <trkpt lat="43.39152" lon="2.58718">
        <ele>730.26</ele>
        <time>2015-07-13T08:19:15Z</time>
      </trkpt>
      <trkpt lat="43.39154" lon="2.58717">
        <ele>730.26</ele>
        <time>2015-07-13T08:19:17Z</time>
      </trkpt>
      <trkpt lat="43.39166" lon="2.5871">
        <ele>730.26</ele>
        <time>2015-07-13T08:19:28Z</time>
      </trkpt>
      <trkpt lat="43.39171" lon="2.5871">
        <ele>728.82</ele>
        <time>2015-07-13T08:19:32Z</time>
      </trkpt>
      <trkpt lat="43.39174" lon="2.58711">
        <ele>728.82</ele>
        <time>2015-07-13T08:19:35Z</time>
      </trkpt>
      <trkpt lat="43.39178" lon="2.58712">
        <ele>728.82</ele>
        <time>2015-07-13T08:19:38Z</time>
      </trkpt>
      <trkpt lat="43.39186" lon="2.5872">
        <ele>730.26</ele>
        <time>2015-07-13T08:19:50Z</time>
      </trkpt>
      <trkpt lat="43.39192" lon="2.5873">
        <ele>732.66</ele>
        <time>2015-07-13T08:20:03Z</time>
      </trkpt>
      <trkpt lat="43.39199" lon="2.58738">
        <ele>734.58</ele>
        <time>2015-07-13T08:20:16Z</time>
      </trkpt>
      <trkpt lat="43.39206" lon="2.58743">
        <ele>736.99</ele>
        <time>2015-07-13T08:20:29Z</time>
      </trkpt>
      <trkpt lat="43.39211" lon="2.58746">
        <ele>737.47</ele>
        <time>2015-07-13T08:20:34Z</time>
      </trkpt>
      <trkpt lat="43.39214" lon="2.58748">
        <ele>738.43</ele>
        <time>2015-07-13T08:20:37Z</time>
      </trkpt>
      <trkpt lat="43.39218" lon="2.58748">
        <ele>737.95</ele>
        <time>2015-07-13T08:20:41Z</time>
      </trkpt>
      <trkpt lat="43.39221" lon="2.58748">
        <ele>739.39</ele>
        <time>2015-07-13T08:20:48Z</time>
      </trkpt>
      <trkpt lat="43.39224" lon="2.58748">
        <ele>739.87</ele>
        <time>2015-07-13T08:20:51Z</time>
      </trkpt>
      <trkpt lat="43.39235" lon="2.58747">
        <ele>737.95</ele>
        <time>2015-07-13T08:21:01Z</time>
      </trkpt>
      <trkpt lat="43.39249" lon="2.58749">
        <ele>737.47</ele>
        <time>2015-07-13T08:21:14Z</time>
      </trkpt>
      <trkpt lat="43.3926" lon="2.5875">
        <ele>736.03</ele>
        <time>2015-07-13T08:21:25Z</time>
      </trkpt>
      <trkpt lat="43.39263" lon="2.58749">
        <ele>736.51</ele>
        <time>2015-07-13T08:21:29Z</time>
      </trkpt>
      <trkpt lat="43.39268" lon="2.58751">
        <ele>736.51</ele>
        <time>2015-07-13T08:21:35Z</time>
      </trkpt>
      <trkpt lat="43.39274" lon="2.58749">
        <ele>736.03</ele>
        <time>2015-07-13T08:21:41Z</time>
      </trkpt>
      <trkpt lat="43.39277" lon="2.58748">
        <ele>736.03</ele>
        <time>2015-07-13T08:21:44Z</time>
      </trkpt>
      <trkpt lat="43.39288" lon="2.58745">
        <ele>735.07</ele>
        <time>2015-07-13T08:21:57Z</time>
      </trkpt>
      <trkpt lat="43.39294" lon="2.58749">
        <ele>735.55</ele>
        <time>2015-07-13T08:22:08Z</time>
      </trkpt>
      <trkpt lat="43.39297" lon="2.58752">
        <ele>739.39</ele>
        <time>2015-07-13T08:22:15Z</time>
      </trkpt>
      <trkpt lat="43.39299" lon="2.58753">
        <ele>740.35</ele>
        <time>2015-07-13T08:22:17Z</time>
      </trkpt>
      <trkpt lat="43.39307" lon="2.58765">
        <ele>740.83</ele>
        <time>2015-07-13T08:22:31Z</time>
      </trkpt>
      <trkpt lat="43.39317" lon="2.58776">
        <ele>740.35</ele>
        <time>2015-07-13T08:22:43Z</time>
      </trkpt>
      <trkpt lat="43.39317" lon="2.58779">
        <ele>736.99</ele>
        <time>2015-07-13T08:22:47Z</time>
      </trkpt>
      <trkpt lat="43.39318" lon="2.5878">
        <ele>736.51</ele>
        <time>2015-07-13T08:22:48Z</time>
      </trkpt>
      <trkpt lat="43.3932" lon="2.58782">
        <ele>739.87</ele>
        <time>2015-07-13T08:22:52Z</time>
      </trkpt>
      <trkpt lat="43.39324" lon="2.58788">
        <ele>738.91</ele>
        <time>2015-07-13T08:23:01Z</time>
      </trkpt>
      <trkpt lat="43.39329" lon="2.58792">
        <ele>737.95</ele>
        <time>2015-07-13T08:23:08Z</time>
      </trkpt>
      <trkpt lat="43.39346" lon="2.58794">
        <ele>739.39</ele>
        <time>2015-07-13T08:23:23Z</time>
      </trkpt>
      <trkpt lat="43.39352" lon="2.58795">
        <ele>742.28</ele>
        <time>2015-07-13T08:23:35Z</time>
      </trkpt>
      <trkpt lat="43.39358" lon="2.58797">
        <ele>745.64</ele>
        <time>2015-07-13T08:23:47Z</time>
      </trkpt>
      <trkpt lat="43.3936" lon="2.58797">
        <ele>747.08</ele>
        <time>2015-07-13T08:23:49Z</time>
      </trkpt>
      <trkpt lat="43.39367" lon="2.58796">
        <ele>748.52</ele>
        <time>2015-07-13T08:23:58Z</time>
      </trkpt>
      <trkpt lat="43.39372" lon="2.58795">
        <ele>751.89</ele>
        <time>2015-07-13T08:24:05Z</time>
      </trkpt>
      <trkpt lat="43.39373" lon="2.58794">
        <ele>751.89</ele>
        <time>2015-07-13T08:24:06Z</time>
      </trkpt>
      <trkpt lat="43.39381" lon="2.5879">
        <ele>754.77</ele>
        <time>2015-07-13T08:24:18Z</time>
      </trkpt>
      <trkpt lat="43.39382" lon="2.58791">
        <ele>754.29</ele>
        <time>2015-07-13T08:24:23Z</time>
      </trkpt>
      <trkpt lat="43.39383" lon="2.58794">
        <ele>753.33</ele>
        <time>2015-07-13T08:24:26Z</time>
      </trkpt>
      <trkpt lat="43.39387" lon="2.58807">
        <ele>756.69</ele>
        <time>2015-07-13T08:24:38Z</time>
      </trkpt>
      <trkpt lat="43.39387" lon="2.58814">
        <ele>756.69</ele>
        <time>2015-07-13T08:24:47Z</time>
      </trkpt>
      <trkpt lat="43.39386" lon="2.58825">
        <ele>758.14</ele>
        <time>2015-07-13T08:24:58Z</time>
      </trkpt>
      <trkpt lat="43.39385" lon="2.58826">
        <ele>757.66</ele>
        <time>2015-07-13T08:24:59Z</time>
      </trkpt>
      <trkpt lat="43.39385" lon="2.58837">
        <ele>758.14</ele>
        <time>2015-07-13T08:25:06Z</time>
      </trkpt>
      <trkpt lat="43.39387" lon="2.58849">
        <ele>759.1</ele>
        <time>2015-07-13T08:25:15Z</time>
      </trkpt>
      <trkpt lat="43.39391" lon="2.58865">
        <ele>759.58</ele>
        <time>2015-07-13T08:25:27Z</time>
      </trkpt>
      <trkpt lat="43.39392" lon="2.58866">
        <ele>760.06</ele>
        <time>2015-07-13T08:25:28Z</time>
      </trkpt>
      <trkpt lat="43.39399" lon="2.58883">
        <ele>758.62</ele>
        <time>2015-07-13T08:25:40Z</time>
      </trkpt>
      <trkpt lat="43.39409" lon="2.58898">
        <ele>757.66</ele>
        <time>2015-07-13T08:25:55Z</time>
      </trkpt>
      <trkpt lat="43.39415" lon="2.58906">
        <ele>758.62</ele>
        <time>2015-07-13T08:26:04Z</time>
      </trkpt>
      <trkpt lat="43.39423" lon="2.58923">
        <ele>758.62</ele>
        <time>2015-07-13T08:26:21Z</time>
      </trkpt>
      <trkpt lat="43.39427" lon="2.58937">
        <ele>758.14</ele>
        <time>2015-07-13T08:26:33Z</time>
      </trkpt>
      <trkpt lat="43.39431" lon="2.58949">
        <ele>756.21</ele>
        <time>2015-07-13T08:26:45Z</time>
      </trkpt>
      <trkpt lat="43.39433" lon="2.58954">
        <ele>756.21</ele>
        <time>2015-07-13T08:26:49Z</time>
      </trkpt>
      <trkpt lat="43.39447" lon="2.58967">
        <ele>757.18</ele>
        <time>2015-07-13T08:27:03Z</time>
      </trkpt>
      <trkpt lat="43.39451" lon="2.5897">
        <ele>756.69</ele>
        <time>2015-07-13T08:27:07Z</time>
      </trkpt>
      <trkpt lat="43.39461" lon="2.58976">
        <ele>755.73</ele>
        <time>2015-07-13T08:27:15Z</time>
      </trkpt>
      <trkpt lat="43.39462" lon="2.58982">
        <ele>756.21</ele>
        <time>2015-07-13T08:27:26Z</time>
      </trkpt>
      <trkpt lat="43.39463" lon="2.58993">
        <ele>755.25</ele>
        <time>2015-07-13T08:27:37Z</time>
      </trkpt>
      <trkpt lat="43.39467" lon="2.59005">
        <ele>756.21</ele>
        <time>2015-07-13T08:27:47Z</time>
      </trkpt>
      <trkpt lat="43.39468" lon="2.59009">
        <ele>756.21</ele>
        <time>2015-07-13T08:27:50Z</time>
      </trkpt>
      <trkpt lat="43.39471" lon="2.59019">
        <ele>756.69</ele>
        <time>2015-07-13T08:28:00Z</time>
      </trkpt>
      <trkpt lat="43.39471" lon="2.59023">
        <ele>756.69</ele>
        <time>2015-07-13T08:28:17Z</time>
      </trkpt>
      <trkpt lat="43.39473" lon="2.59026">
        <ele>756.69</ele>
        <time>2015-07-13T08:28:32Z</time>
      </trkpt>
      <trkpt lat="43.39474" lon="2.5903">
        <ele>756.21</ele>
        <time>2015-07-13T08:28:35Z</time>
      </trkpt>
      <trkpt lat="43.39478" lon="2.59038">
        <ele>756.69</ele>
        <time>2015-07-13T08:28:47Z</time>
      </trkpt>
      <trkpt lat="43.39479" lon="2.59039">
        <ele>757.66</ele>
        <time>2015-07-13T08:29:20Z</time>
      </trkpt>
      <trkpt lat="43.3948" lon="2.59041">
        <ele>756.69</ele>
        <time>2015-07-13T08:29:36Z</time>
      </trkpt>
      <trkpt lat="43.39489" lon="2.59056">
        <ele>756.21</ele>
        <time>2015-07-13T08:29:49Z</time>
      </trkpt>
      <trkpt lat="43.3949" lon="2.59058">
        <ele>755.73</ele>
        <time>2015-07-13T08:29:51Z</time>
      </trkpt>
      <trkpt lat="43.39492" lon="2.59062">
        <ele>755.73</ele>
        <time>2015-07-13T08:29:53Z</time>
      </trkpt>
      <trkpt lat="43.395" lon="2.59075">
        <ele>757.66</ele>
        <time>2015-07-13T08:30:05Z</time>
      </trkpt>
      <trkpt lat="43.39503" lon="2.59084">
        <ele>757.66</ele>
        <time>2015-07-13T08:30:11Z</time>
      </trkpt>
      <trkpt lat="43.39506" lon="2.59095">
        <ele>758.14</ele>
        <time>2015-07-13T08:30:22Z</time>
      </trkpt>
      <trkpt lat="43.39507" lon="2.59096">
        <ele>758.62</ele>
        <time>2015-07-13T08:30:23Z</time>
      </trkpt>
      <trkpt lat="43.39515" lon="2.59115">
        <ele>759.1</ele>
        <time>2015-07-13T08:30:36Z</time>
      </trkpt>
      <trkpt lat="43.39525" lon="2.59124">
        <ele>759.58</ele>
        <time>2015-07-13T08:30:46Z</time>
      </trkpt>
      <trkpt lat="43.39531" lon="2.59129">
        <ele>760.06</ele>
        <time>2015-07-13T08:30:51Z</time>
      </trkpt>
      <trkpt lat="43.39537" lon="2.59135">
        <ele>761.02</ele>
        <time>2015-07-13T08:30:55Z</time>
      </trkpt>
      <trkpt lat="43.3954" lon="2.59138">
        <ele>761.98</ele>
        <time>2015-07-13T08:30:57Z</time>
      </trkpt>
      <trkpt lat="43.39559" lon="2.59149">
        <ele>763.9</ele>
        <time>2015-07-13T08:31:07Z</time>
      </trkpt>
      <trkpt lat="43.39573" lon="2.59159">
        <ele>764.39</ele>
        <time>2015-07-13T08:31:19Z</time>
      </trkpt>
      <trkpt lat="43.39578" lon="2.59162">
        <ele>764.39</ele>
        <time>2015-07-13T08:31:23Z</time>
      </trkpt>
      <trkpt lat="43.39584" lon="2.59171">
        <ele>762.46</ele>
        <time>2015-07-13T08:31:32Z</time>
      </trkpt>
      <trkpt lat="43.39587" lon="2.59178">
        <ele>764.39</ele>
        <time>2015-07-13T08:31:36Z</time>
      </trkpt>
      <trkpt lat="43.39595" lon="2.59192">
        <ele>763.9</ele>
        <time>2015-07-13T08:31:47Z</time>
      </trkpt>
      <trkpt lat="43.39605" lon="2.59206">
        <ele>763.9</ele>
        <time>2015-07-13T08:32:00Z</time>
      </trkpt>
      <trkpt lat="43.39607" lon="2.5921">
        <ele>763.9</ele>
        <time>2015-07-13T08:32:04Z</time>
      </trkpt>
      <trkpt lat="43.39617" lon="2.59223">
        <ele>764.39</ele>
        <time>2015-07-13T08:32:19Z</time>
      </trkpt>
      <trkpt lat="43.39618" lon="2.59225">
        <ele>764.87</ele>
        <time>2015-07-13T08:32:24Z</time>
      </trkpt>
      <trkpt lat="43.3962" lon="2.59228">
        <ele>763.9</ele>
        <time>2015-07-13T08:32:26Z</time>
      </trkpt>
      <trkpt lat="43.39628" lon="2.59238">
        <ele>765.35</ele>
        <time>2015-07-13T08:32:39Z</time>
      </trkpt>
      <trkpt lat="43.3963" lon="2.59238">
        <ele>762.94</ele>
        <time>2015-07-13T08:32:45Z</time>
      </trkpt>
      <trkpt lat="43.39633" lon="2.59242">
        <ele>763.42</ele>
        <time>2015-07-13T08:32:49Z</time>
      </trkpt>
      <trkpt lat="43.39638" lon="2.59243">
        <ele>762.94</ele>
        <time>2015-07-13T08:32:53Z</time>
      </trkpt>
      <trkpt lat="43.39645" lon="2.59245">
        <ele>762.94</ele>
        <time>2015-07-13T08:33:05Z</time>
      </trkpt>
      <trkpt lat="43.39646" lon="2.59247">
        <ele>763.42</ele>
        <time>2015-07-13T08:33:11Z</time>
      </trkpt>
      <trkpt lat="43.39648" lon="2.59249">
        <ele>761.5</ele>
        <time>2015-07-13T08:33:14Z</time>
      </trkpt>
      <trkpt lat="43.39662" lon="2.59262">
        <ele>760.06</ele>
        <time>2015-07-13T08:33:27Z</time>
      </trkpt>
      <trkpt lat="43.39668" lon="2.59271">
        <ele>760.54</ele>
        <time>2015-07-13T08:33:34Z</time>
      </trkpt>
      <trkpt lat="43.39675" lon="2.59276">
        <ele>759.1</ele>
        <time>2015-07-13T08:33:41Z</time>
      </trkpt>
      <trkpt lat="43.39679" lon="2.59277">
        <ele>760.06</ele>
        <time>2015-07-13T08:33:45Z</time>
      </trkpt>
      <trkpt lat="43.39693" lon="2.5928">
        <ele>760.54</ele>
        <time>2015-07-13T08:33:58Z</time>
      </trkpt>
      <trkpt lat="43.39697" lon="2.5928">
        <ele>760.06</ele>
        <time>2015-07-13T08:34:03Z</time>
      </trkpt>
      <trkpt lat="43.39702" lon="2.59281">
        <ele>759.1</ele>
        <time>2015-07-13T08:34:08Z</time>
      </trkpt>
      <trkpt lat="43.39713" lon="2.59284">
        <ele>759.1</ele>
        <time>2015-07-13T08:34:21Z</time>
      </trkpt>
      <trkpt lat="43.39718" lon="2.59285">
        <ele>759.1</ele>
        <time>2015-07-13T08:34:26Z</time>
      </trkpt>
      <trkpt lat="43.39724" lon="2.59286">
        <ele>758.62</ele>
        <time>2015-07-13T08:34:33Z</time>
      </trkpt>
      <trkpt lat="43.39738" lon="2.59289">
        <ele>758.14</ele>
        <time>2015-07-13T08:34:47Z</time>
      </trkpt>
      <trkpt lat="43.39749" lon="2.59292">
        <ele>758.62</ele>
        <time>2015-07-13T08:35:00Z</time>
      </trkpt>
      <trkpt lat="43.39764" lon="2.59292">
        <ele>759.58</ele>
        <time>2015-07-13T08:35:15Z</time>
      </trkpt>
      <trkpt lat="43.39776" lon="2.59293">
        <ele>759.58</ele>
        <time>2015-07-13T08:35:27Z</time>
      </trkpt>
      <trkpt lat="43.3979" lon="2.5929">
        <ele>759.1</ele>
        <time>2015-07-13T08:35:42Z</time>
      </trkpt>
      <trkpt lat="43.39795" lon="2.59288">
        <ele>760.06</ele>
        <time>2015-07-13T08:35:48Z</time>
      </trkpt>
      <trkpt lat="43.39804" lon="2.59286">
        <ele>759.58</ele>
        <time>2015-07-13T08:35:55Z</time>
      </trkpt>
      <trkpt lat="43.39812" lon="2.59287">
        <ele>757.18</ele>
        <time>2015-07-13T08:36:00Z</time>
      </trkpt>
      <trkpt lat="43.3982" lon="2.59288">
        <ele>755.25</ele>
        <time>2015-07-13T08:36:09Z</time>
      </trkpt>
      <trkpt lat="43.39834" lon="2.59283">
        <ele>754.29</ele>
        <time>2015-07-13T08:36:19Z</time>
      </trkpt>
      <trkpt lat="43.39841" lon="2.59284">
        <ele>754.77</ele>
        <time>2015-07-13T08:36:32Z</time>
      </trkpt>
      <trkpt lat="43.39849" lon="2.5929">
        <ele>754.29</ele>
        <time>2015-07-13T08:36:42Z</time>
      </trkpt>
      <trkpt lat="43.39849" lon="2.59298">
        <ele>754.29</ele>
        <time>2015-07-13T08:36:55Z</time>
      </trkpt>
      <trkpt lat="43.3985" lon="2.59302">
        <ele>755.73</ele>
        <time>2015-07-13T08:37:10Z</time>
      </trkpt>
      <trkpt lat="43.39861" lon="2.5932">
        <ele>755.73</ele>
        <time>2015-07-13T08:37:26Z</time>
      </trkpt>
      <trkpt lat="43.39856" lon="2.59336">
        <ele>756.21</ele>
        <time>2015-07-13T08:37:37Z</time>
      </trkpt>
      <trkpt lat="43.39852" lon="2.59355">
        <ele>756.21</ele>
        <time>2015-07-13T08:37:52Z</time>
      </trkpt>
      <trkpt lat="43.39851" lon="2.59371">
        <ele>756.21</ele>
        <time>2015-07-13T08:38:03Z</time>
      </trkpt>
      <trkpt lat="43.39851" lon="2.59392">
        <ele>756.21</ele>
        <time>2015-07-13T08:38:18Z</time>
      </trkpt>
      <trkpt lat="43.3985" lon="2.59395">
        <ele>756.69</ele>
        <time>2015-07-13T08:38:21Z</time>
      </trkpt>
      <trkpt lat="43.39849" lon="2.59402">
        <ele>758.62</ele>
        <time>2015-07-13T08:38:38Z</time>
      </trkpt>
      <trkpt lat="43.39849" lon="2.59407">
        <ele>757.18</ele>
        <time>2015-07-13T08:38:54Z</time>
      </trkpt>
      <trkpt lat="43.39849" lon="2.59411">
        <ele>758.62</ele>
        <time>2015-07-13T08:38:58Z</time>
      </trkpt>
      <trkpt lat="43.3985" lon="2.59424">
        <ele>758.14</ele>
        <time>2015-07-13T08:39:12Z</time>
      </trkpt>
      <trkpt lat="43.39851" lon="2.59437">
        <ele>756.69</ele>
        <time>2015-07-13T08:39:27Z</time>
      </trkpt>
      <trkpt lat="43.39849" lon="2.59446">
        <ele>756.69</ele>
        <time>2015-07-13T08:39:39Z</time>
      </trkpt>
      <trkpt lat="43.39846" lon="2.59452">
        <ele>756.69</ele>
        <time>2015-07-13T08:39:51Z</time>
      </trkpt>
      <trkpt lat="43.39845" lon="2.59452">
        <ele>757.18</ele>
        <time>2015-07-13T08:40:00Z</time>
      </trkpt>
      <trkpt lat="43.39844" lon="2.59454">
        <ele>756.21</ele>
        <time>2015-07-13T08:40:15Z</time>
      </trkpt>
      <trkpt lat="43.39839" lon="2.59467">
        <ele>753.81</ele>
        <time>2015-07-13T08:40:29Z</time>
      </trkpt>
      <trkpt lat="43.39838" lon="2.59468">
        <ele>753.81</ele>
        <time>2015-07-13T08:40:30Z</time>
      </trkpt>
      <trkpt lat="43.39835" lon="2.59475">
        <ele>752.85</ele>
        <time>2015-07-13T08:40:42Z</time>
      </trkpt>
      <trkpt lat="43.39834" lon="2.59475">
        <ele>751.41</ele>
        <time>2015-07-13T08:40:58Z</time>
      </trkpt>
      <trkpt lat="43.39827" lon="2.59484">
        <ele>749.49</ele>
        <time>2015-07-13T08:41:13Z</time>
      </trkpt>
      <trkpt lat="43.39817" lon="2.59488">
        <ele>746.6</ele>
        <time>2015-07-13T08:41:27Z</time>
      </trkpt>
      <trkpt lat="43.39811" lon="2.59491">
        <ele>743.72</ele>
        <time>2015-07-13T08:41:38Z</time>
      </trkpt>
      <trkpt lat="43.39786" lon="2.59497">
        <ele>741.79</ele>
        <time>2015-07-13T08:41:52Z</time>
      </trkpt>
      <trkpt lat="43.39769" lon="2.59501">
        <ele>738.43</ele>
        <time>2015-07-13T08:42:05Z</time>
      </trkpt>
      <trkpt lat="43.39759" lon="2.59509">
        <ele>736.03</ele>
        <time>2015-07-13T08:42:19Z</time>
      </trkpt>
      <trkpt lat="43.39757" lon="2.59511">
        <ele>735.55</ele>
        <time>2015-07-13T08:42:21Z</time>
      </trkpt>
      <trkpt lat="43.3975" lon="2.59518">
        <ele>734.1</ele>
        <time>2015-07-13T08:42:35Z</time>
      </trkpt>
      <trkpt lat="43.39746" lon="2.59522">
        <ele>731.22</ele>
        <time>2015-07-13T08:42:43Z</time>
      </trkpt>
      <trkpt lat="43.39743" lon="2.59525">
        <ele>730.26</ele>
        <time>2015-07-13T08:42:56Z</time>
      </trkpt>
      <trkpt lat="43.39741" lon="2.59528">
        <ele>728.82</ele>
        <time>2015-07-13T08:42:59Z</time>
      </trkpt>
      <trkpt lat="43.3973" lon="2.59539">
        <ele>728.34</ele>
        <time>2015-07-13T08:43:14Z</time>
      </trkpt>
      <trkpt lat="43.39728" lon="2.59541">
        <ele>729.3</ele>
        <time>2015-07-13T08:43:16Z</time>
      </trkpt>
      <trkpt lat="43.39722" lon="2.59548">
        <ele>726.41</ele>
        <time>2015-07-13T08:43:29Z</time>
      </trkpt>
      <trkpt lat="43.39714" lon="2.59554">
        <ele>725.45</ele>
        <time>2015-07-13T08:43:40Z</time>
      </trkpt>
      <trkpt lat="43.39711" lon="2.59558">
        <ele>724.01</ele>
        <time>2015-07-13T08:43:53Z</time>
      </trkpt>
      <trkpt lat="43.39709" lon="2.59559">
        <ele>720.65</ele>
        <time>2015-07-13T08:44:04Z</time>
      </trkpt>
      <trkpt lat="43.39709" lon="2.59559">
        <ele>718.72</ele>
        <time>2015-07-13T08:44:14Z</time>
      </trkpt>
      <trkpt lat="43.39708" lon="2.59559">
        <ele>716.8</ele>
        <time>2015-07-13T08:44:17Z</time>
      </trkpt>
      <trkpt lat="43.39703" lon="2.59563">
        <ele>715.84</ele>
        <time>2015-07-13T08:44:31Z</time>
      </trkpt>
      <trkpt lat="43.39694" lon="2.59569">
        <ele>712.47</ele>
        <time>2015-07-13T08:44:42Z</time>
      </trkpt>
      <trkpt lat="43.39694" lon="2.59569">
        <ele>712.95</ele>
        <time>2015-07-13T08:44:43Z</time>
      </trkpt>
      <trkpt lat="43.39693" lon="2.59573">
        <ele>711.51</ele>
        <time>2015-07-13T08:44:52Z</time>
      </trkpt>
      <trkpt lat="43.39689" lon="2.59579">
        <ele>709.59</ele>
        <time>2015-07-13T08:44:59Z</time>
      </trkpt>
      <trkpt lat="43.39679" lon="2.59588">
        <ele>707.67</ele>
        <time>2015-07-13T08:45:05Z</time>
      </trkpt>
      <trkpt lat="43.39675" lon="2.5959">
        <ele>709.11</ele>
        <time>2015-07-13T08:45:08Z</time>
      </trkpt>
      <trkpt lat="43.39674" lon="2.59591">
        <ele>709.11</ele>
        <time>2015-07-13T08:45:09Z</time>
      </trkpt>
      <trkpt lat="43.3967" lon="2.59594">
        <ele>707.67</ele>
        <time>2015-07-13T08:45:12Z</time>
      </trkpt>
      <trkpt lat="43.39656" lon="2.59609">
        <ele>704.3</ele>
        <time>2015-07-13T08:45:25Z</time>
      </trkpt>
      <trkpt lat="43.39652" lon="2.59612">
        <ele>702.38</ele>
        <time>2015-07-13T08:45:35Z</time>
      </trkpt>
      <trkpt lat="43.39649" lon="2.59615">
        <ele>700.46</ele>
        <time>2015-07-13T08:45:49Z</time>
      </trkpt>
      <trkpt lat="43.39647" lon="2.59614">
        <ele>698.05</ele>
        <time>2015-07-13T08:46:02Z</time>
      </trkpt>
      <trkpt lat="43.39644" lon="2.59619">
        <ele>695.17</ele>
        <time>2015-07-13T08:46:17Z</time>
      </trkpt>
      <trkpt lat="43.3964" lon="2.59623">
        <ele>691.81</ele>
        <time>2015-07-13T08:46:32Z</time>
      </trkpt>
      <trkpt lat="43.39635" lon="2.59625">
        <ele>688.92</ele>
        <time>2015-07-13T08:46:46Z</time>
      </trkpt>
      <trkpt lat="43.39621" lon="2.59634">
        <ele>687.48</ele>
        <time>2015-07-13T08:47:02Z</time>
      </trkpt>
      <trkpt lat="43.39613" lon="2.59638">
        <ele>685.56</ele>
        <time>2015-07-13T08:47:14Z</time>
      </trkpt>
      <trkpt lat="43.39602" lon="2.59643">
        <ele>682.67</ele>
        <time>2015-07-13T08:47:26Z</time>
      </trkpt>
      <trkpt lat="43.39587" lon="2.59655">
        <ele>680.75</ele>
        <time>2015-07-13T08:47:38Z</time>
      </trkpt>
      <trkpt lat="43.39557" lon="2.59678">
        <ele>679.79</ele>
        <time>2015-07-13T08:47:50Z</time>
      </trkpt>
      <trkpt lat="43.39549" lon="2.59691">
        <ele>677.87</ele>
        <time>2015-07-13T08:48:00Z</time>
      </trkpt>
      <trkpt lat="43.39548" lon="2.59695">
        <ele>678.83</ele>
        <time>2015-07-13T08:48:03Z</time>
      </trkpt>
      <trkpt lat="43.39548" lon="2.59714">
        <ele>676.42</ele>
        <time>2015-07-13T08:48:17Z</time>
      </trkpt>
      <trkpt lat="43.39551" lon="2.59719">
        <ele>675.46</ele>
        <time>2015-07-13T08:48:21Z</time>
      </trkpt>
      <trkpt lat="43.39558" lon="2.59731">
        <ele>674.98</ele>
        <time>2015-07-13T08:48:33Z</time>
      </trkpt>
      <trkpt lat="43.39566" lon="2.5974">
        <ele>674.98</ele>
        <time>2015-07-13T08:48:46Z</time>
      </trkpt>
      <trkpt lat="43.39572" lon="2.59749">
        <ele>674.02</ele>
        <time>2015-07-13T08:48:58Z</time>
      </trkpt>
      <trkpt lat="43.39576" lon="2.59755">
        <ele>673.06</ele>
        <time>2015-07-13T08:49:11Z</time>
      </trkpt>
      <trkpt lat="43.39579" lon="2.59758">
        <ele>675.46</ele>
        <time>2015-07-13T08:49:23Z</time>
      </trkpt>
      <trkpt lat="43.39584" lon="2.59769">
        <ele>673.54</ele>
        <time>2015-07-13T08:49:39Z</time>
      </trkpt>
      <trkpt lat="43.39592" lon="2.59784">
        <ele>674.98</ele>
        <time>2015-07-13T08:49:57Z</time>
      </trkpt>
      <trkpt lat="43.39596" lon="2.59802">
        <ele>672.58</ele>
        <time>2015-07-13T08:50:12Z</time>
      </trkpt>
      <trkpt lat="43.39599" lon="2.59809">
        <ele>671.62</ele>
        <time>2015-07-13T08:50:18Z</time>
      </trkpt>
      <trkpt lat="43.39601" lon="2.5982">
        <ele>670.66</ele>
        <time>2015-07-13T08:50:25Z</time>
      </trkpt>
      <trkpt lat="43.39605" lon="2.59846">
        <ele>668.73</ele>
        <time>2015-07-13T08:50:39Z</time>
      </trkpt>
      <trkpt lat="43.39611" lon="2.59869">
        <ele>667.29</ele>
        <time>2015-07-13T08:50:54Z</time>
      </trkpt>
      <trkpt lat="43.39617" lon="2.59887">
        <ele>666.33</ele>
        <time>2015-07-13T08:51:07Z</time>
      </trkpt>
      <trkpt lat="43.39622" lon="2.59904">
        <ele>667.29</ele>
        <time>2015-07-13T08:51:21Z</time>
      </trkpt>
      <trkpt lat="43.3963" lon="2.59924">
        <ele>667.29</ele>
        <time>2015-07-13T08:51:36Z</time>
      </trkpt>
      <trkpt lat="43.39634" lon="2.59931">
        <ele>667.77</ele>
        <time>2015-07-13T08:51:41Z</time>
      </trkpt>
      <trkpt lat="43.39649" lon="2.59953">
        <ele>669.22</ele>
        <time>2015-07-13T08:51:50Z</time>
      </trkpt>
      <trkpt lat="43.39649" lon="2.59974">
        <ele>670.66</ele>
        <time>2015-07-13T08:52:07Z</time>
      </trkpt>
      <trkpt lat="43.3965" lon="2.59977">
        <ele>671.14</ele>
        <time>2015-07-13T08:52:09Z</time>
      </trkpt>
      <trkpt lat="43.39653" lon="2.59986">
        <ele>670.18</ele>
        <time>2015-07-13T08:52:24Z</time>
      </trkpt>
      <trkpt lat="43.39656" lon="2.59993">
        <ele>669.22</ele>
        <time>2015-07-13T08:52:38Z</time>
      </trkpt>
      <trkpt lat="43.39654" lon="2.59995">
        <ele>668.25</ele>
        <time>2015-07-13T08:52:51Z</time>
      </trkpt>
      <trkpt lat="43.39649" lon="2.6">
        <ele>666.33</ele>
        <time>2015-07-13T08:53:08Z</time>
      </trkpt>
      <trkpt lat="43.3964" lon="2.59999">
        <ele>664.41</ele>
        <time>2015-07-13T08:53:23Z</time>
      </trkpt>
      <trkpt lat="43.39628" lon="2.59984">
        <ele>662.97</ele>
        <time>2015-07-13T08:53:35Z</time>
      </trkpt>
      <trkpt lat="43.39615" lon="2.59974">
        <ele>660.56</ele>
        <time>2015-07-13T08:53:51Z</time>
      </trkpt>
      <trkpt lat="43.3961" lon="2.5997">
        <ele>660.08</ele>
        <time>2015-07-13T08:53:54Z</time>
      </trkpt>
      <trkpt lat="43.39602" lon="2.59959">
        <ele>657.68</ele>
        <time>2015-07-13T08:54:08Z</time>
      </trkpt>
      <trkpt lat="43.39592" lon="2.59947">
        <ele>656.72</ele>
        <time>2015-07-13T08:54:22Z</time>
      </trkpt>
      <trkpt lat="43.39587" lon="2.59934">
        <ele>655.76</ele>
        <time>2015-07-13T08:54:36Z</time>
      </trkpt>
      <trkpt lat="43.39585" lon="2.59925">
        <ele>654.31</ele>
        <time>2015-07-13T08:54:51Z</time>
      </trkpt>
      <trkpt lat="43.39573" lon="2.59903">
        <ele>652.39</ele>
        <time>2015-07-13T08:55:03Z</time>
      </trkpt>
      <trkpt lat="43.39572" lon="2.59901">
        <ele>651.91</ele>
        <time>2015-07-13T08:55:05Z</time>
      </trkpt>
      <trkpt lat="43.39565" lon="2.5988">
        <ele>650.95</ele>
        <time>2015-07-13T08:55:21Z</time>
      </trkpt>
      <trkpt lat="43.3956" lon="2.59875">
        <ele>651.43</ele>
        <time>2015-07-13T08:55:32Z</time>
      </trkpt>
      <trkpt lat="43.39552" lon="2.5987">
        <ele>650.47</ele>
        <time>2015-07-13T08:55:44Z</time>
      </trkpt>
      <trkpt lat="43.39551" lon="2.59869">
        <ele>650.47</ele>
        <time>2015-07-13T08:55:47Z</time>
      </trkpt>
      <trkpt lat="43.39549" lon="2.59868">
        <ele>650.47</ele>
        <time>2015-07-13T08:55:49Z</time>
      </trkpt>
      <trkpt lat="43.39544" lon="2.59856">
        <ele>649.03</ele>
        <time>2015-07-13T08:55:59Z</time>
      </trkpt>
      <trkpt lat="43.39544" lon="2.59854">
        <ele>649.99</ele>
        <time>2015-07-13T08:56:03Z</time>
      </trkpt>
      <trkpt lat="43.39539" lon="2.59849">
        <ele>648.55</ele>
        <time>2015-07-13T08:56:09Z</time>
      </trkpt>
      <trkpt lat="43.39537" lon="2.59847">
        <ele>649.03</ele>
        <time>2015-07-13T08:56:12Z</time>
      </trkpt>
      <trkpt lat="43.39527" lon="2.59837">
        <ele>649.03</ele>
        <time>2015-07-13T08:56:27Z</time>
      </trkpt>
      <trkpt lat="43.39519" lon="2.59829">
        <ele>645.66</ele>
        <time>2015-07-13T08:56:35Z</time>
      </trkpt>
      <trkpt lat="43.39516" lon="2.59828">
        <ele>643.74</ele>
        <time>2015-07-13T08:56:38Z</time>
      </trkpt>
      <trkpt lat="43.39506" lon="2.59823">
        <ele>643.74</ele>
        <time>2015-07-13T08:56:49Z</time>
      </trkpt>
      <trkpt lat="43.39497" lon="2.59819">
        <ele>642.3</ele>
        <time>2015-07-13T08:57:02Z</time>
      </trkpt>
      <trkpt lat="43.39488" lon="2.59817">
        <ele>640.86</ele>
        <time>2015-07-13T08:57:15Z</time>
      </trkpt>
      <trkpt lat="43.39486" lon="2.59817">
        <ele>639.89</ele>
        <time>2015-07-13T08:57:19Z</time>
      </trkpt>
      <trkpt lat="43.39479" lon="2.59816">
        <ele>639.89</ele>
        <time>2015-07-13T08:57:33Z</time>
      </trkpt>
      <trkpt lat="43.39473" lon="2.59812">
        <ele>639.89</ele>
        <time>2015-07-13T08:57:47Z</time>
      </trkpt>
      <trkpt lat="43.39469" lon="2.59811">
        <ele>637.01</ele>
        <time>2015-07-13T08:57:54Z</time>
      </trkpt>
      <trkpt lat="43.3946" lon="2.59811">
        <ele>638.45</ele>
        <time>2015-07-13T08:58:07Z</time>
      </trkpt>
      <trkpt lat="43.39452" lon="2.59807">
        <ele>636.05</ele>
        <time>2015-07-13T08:58:23Z</time>
      </trkpt>
      <trkpt lat="43.39448" lon="2.59806">
        <ele>636.53</ele>
        <time>2015-07-13T08:58:32Z</time>
      </trkpt>
      <trkpt lat="43.39444" lon="2.59806">
        <ele>637.49</ele>
        <time>2015-07-13T08:58:47Z</time>
      </trkpt>
      <trkpt lat="43.39443" lon="2.59806">
        <ele>637.01</ele>
        <time>2015-07-13T08:58:51Z</time>
      </trkpt>
      <trkpt lat="43.3944" lon="2.5981">
        <ele>637.49</ele>
        <time>2015-07-13T08:58:56Z</time>
      </trkpt>
      <trkpt lat="43.39438" lon="2.59813">
        <ele>637.01</ele>
        <time>2015-07-13T08:59:09Z</time>
      </trkpt>
      <trkpt lat="43.39438" lon="2.59808">
        <ele>636.53</ele>
        <time>2015-07-13T08:59:23Z</time>
      </trkpt>
      <trkpt lat="43.39438" lon="2.59808">
        <ele>637.01</ele>
        <time>2015-07-13T08:59:39Z</time>
      </trkpt>
      <trkpt lat="43.39438" lon="2.59808">
        <ele>637.01</ele>
        <time>2015-07-13T09:00:13Z</time>
      </trkpt>
      <trkpt lat="43.39438" lon="2.59808">
        <ele>638.45</ele>
        <time>2015-07-13T09:00:46Z</time>
      </trkpt>
      <trkpt lat="43.39438" lon="2.59806">
        <ele>636.53</ele>
        <time>2015-07-13T09:01:17Z</time>
      </trkpt>
      <trkpt lat="43.39437" lon="2.59808">
        <ele>636.53</ele>
        <time>2015-07-13T09:01:41Z</time>
      </trkpt>
      <trkpt lat="43.39436" lon="2.59811">
        <ele>637.49</ele>
        <time>2015-07-13T09:01:43Z</time>
      </trkpt>
      <trkpt lat="43.39434" lon="2.59816">
        <ele>637.01</ele>
        <time>2015-07-13T09:01:47Z</time>
      </trkpt>
      <trkpt lat="43.39428" lon="2.59832">
        <ele>637.49</ele>
        <time>2015-07-13T09:01:57Z</time>
      </trkpt>
      <trkpt lat="43.39425" lon="2.59837">
        <ele>637.01</ele>
        <time>2015-07-13T09:02:01Z</time>
      </trkpt>
      <trkpt lat="43.39418" lon="2.59846">
        <ele>637.01</ele>
        <time>2015-07-13T09:02:10Z</time>
      </trkpt>
      <trkpt lat="43.39416" lon="2.59849">
        <ele>637.49</ele>
        <time>2015-07-13T09:02:13Z</time>
      </trkpt>
      <trkpt lat="43.39413" lon="2.59854">
        <ele>637.01</ele>
        <time>2015-07-13T09:02:21Z</time>
      </trkpt>
      <trkpt lat="43.39415" lon="2.59852">
        <ele>637.01</ele>
        <time>2015-07-13T09:02:26Z</time>
      </trkpt>
      <trkpt lat="43.39412" lon="2.59861">
        <ele>636.05</ele>
        <time>2015-07-13T09:02:32Z</time>
      </trkpt>
      <trkpt lat="43.39395" lon="2.59872">
        <ele>633.17</ele>
        <time>2015-07-13T09:02:47Z</time>
      </trkpt>
      <trkpt lat="43.39382" lon="2.59874">
        <ele>631.72</ele>
        <time>2015-07-13T09:02:55Z</time>
      </trkpt>
      <trkpt lat="43.39379" lon="2.59874">
        <ele>633.17</ele>
        <time>2015-07-13T09:02:58Z</time>
      </trkpt>
      <trkpt lat="43.39375" lon="2.59874">
        <ele>633.17</ele>
        <time>2015-07-13T09:03:02Z</time>
      </trkpt>
      <trkpt lat="43.39363" lon="2.5987">
        <ele>631.24</ele>
        <time>2015-07-13T09:03:17Z</time>
      </trkpt>
      <trkpt lat="43.39362" lon="2.5987">
        <ele>633.65</ele>
        <time>2015-07-13T09:03:27Z</time>
      </trkpt>
      <trkpt lat="43.39361" lon="2.59872">
        <ele>631.72</ele>
        <time>2015-07-13T09:03:33Z</time>
      </trkpt>
      <trkpt lat="43.39357" lon="2.59877">
        <ele>632.68</ele>
        <time>2015-07-13T09:03:39Z</time>
      </trkpt>
      <trkpt lat="43.39354" lon="2.59878">
        <ele>633.65</ele>
        <time>2015-07-13T09:03:44Z</time>
      </trkpt>
      <trkpt lat="43.39348" lon="2.59882">
        <ele>633.65</ele>
        <time>2015-07-13T09:03:50Z</time>
      </trkpt>
      <trkpt lat="43.39337" lon="2.59891">
        <ele>632.68</ele>
        <time>2015-07-13T09:04:01Z</time>
      </trkpt>
      <trkpt lat="43.39326" lon="2.59907">
        <ele>633.65</ele>
        <time>2015-07-13T09:04:13Z</time>
      </trkpt>
      <trkpt lat="43.39325" lon="2.59909">
        <ele>634.13</ele>
        <time>2015-07-13T09:04:14Z</time>
      </trkpt>
      <trkpt lat="43.39324" lon="2.59913">
        <ele>633.65</ele>
        <time>2015-07-13T09:04:18Z</time>
      </trkpt>
      <trkpt lat="43.39318" lon="2.5992">
        <ele>634.61</ele>
        <time>2015-07-13T09:04:25Z</time>
      </trkpt>
      <trkpt lat="43.39314" lon="2.59927">
        <ele>630.76</ele>
        <time>2015-07-13T09:04:31Z</time>
      </trkpt>
      <trkpt lat="43.39312" lon="2.5993">
        <ele>634.13</ele>
        <time>2015-07-13T09:04:33Z</time>
      </trkpt>
      <trkpt lat="43.39312" lon="2.59931">
        <ele>634.13</ele>
        <time>2015-07-13T09:04:34Z</time>
      </trkpt>
      <trkpt lat="43.39309" lon="2.59934">
        <ele>634.61</ele>
        <time>2015-07-13T09:04:37Z</time>
      </trkpt>
      <trkpt lat="43.3931" lon="2.59938">
        <ele>634.13</ele>
        <time>2015-07-13T09:04:50Z</time>
      </trkpt>
      <trkpt lat="43.39309" lon="2.59942">
        <ele>634.61</ele>
        <time>2015-07-13T09:04:53Z</time>
      </trkpt>
      <trkpt lat="43.39307" lon="2.5995">
        <ele>635.09</ele>
        <time>2015-07-13T09:04:58Z</time>
      </trkpt>
      <trkpt lat="43.39304" lon="2.59953">
        <ele>635.09</ele>
        <time>2015-07-13T09:05:02Z</time>
      </trkpt>
      <trkpt lat="43.39296" lon="2.59957">
        <ele>635.09</ele>
        <time>2015-07-13T09:05:12Z</time>
      </trkpt>
      <trkpt lat="43.39289" lon="2.59965">
        <ele>636.53</ele>
        <time>2015-07-13T09:05:21Z</time>
      </trkpt>
      <trkpt lat="43.39282" lon="2.59966">
        <ele>635.57</ele>
        <time>2015-07-13T09:05:28Z</time>
      </trkpt>
      <trkpt lat="43.3927" lon="2.59977">
        <ele>636.53</ele>
        <time>2015-07-13T09:05:42Z</time>
      </trkpt>
      <trkpt lat="43.39258" lon="2.59987">
        <ele>635.57</ele>
        <time>2015-07-13T09:05:54Z</time>
      </trkpt>
      <trkpt lat="43.39255" lon="2.59989">
        <ele>637.01</ele>
        <time>2015-07-13T09:05:57Z</time>
      </trkpt>
      <trkpt lat="43.39242" lon="2.59998">
        <ele>637.49</ele>
        <time>2015-07-13T09:06:09Z</time>
      </trkpt>
      <trkpt lat="43.39231" lon="2.60008">
        <ele>637.49</ele>
        <time>2015-07-13T09:06:21Z</time>
      </trkpt>
      <trkpt lat="43.39219" lon="2.60018">
        <ele>637.01</ele>
        <time>2015-07-13T09:06:34Z</time>
      </trkpt>
      <trkpt lat="43.39203" lon="2.6003">
        <ele>637.49</ele>
        <time>2015-07-13T09:06:49Z</time>
      </trkpt>
      <trkpt lat="43.39199" lon="2.60036">
        <ele>637.97</ele>
        <time>2015-07-13T09:06:56Z</time>
      </trkpt>
      <trkpt lat="43.39197" lon="2.60044">
        <ele>637.97</ele>
        <time>2015-07-13T09:07:00Z</time>
      </trkpt>
      <trkpt lat="43.39195" lon="2.60051">
        <ele>638.45</ele>
        <time>2015-07-13T09:07:04Z</time>
      </trkpt>
      <trkpt lat="43.39192" lon="2.60053">
        <ele>639.41</ele>
        <time>2015-07-13T09:07:06Z</time>
      </trkpt>
      <trkpt lat="43.3919" lon="2.60057">
        <ele>637.97</ele>
        <time>2015-07-13T09:07:09Z</time>
      </trkpt>
      <trkpt lat="43.39181" lon="2.60074">
        <ele>638.93</ele>
        <time>2015-07-13T09:07:22Z</time>
      </trkpt>
      <trkpt lat="43.39173" lon="2.60081">
        <ele>641.82</ele>
        <time>2015-07-13T09:07:35Z</time>
      </trkpt>
      <trkpt lat="43.39165" lon="2.60089">
        <ele>640.86</ele>
        <time>2015-07-13T09:07:50Z</time>
      </trkpt>
      <trkpt lat="43.39161" lon="2.60094">
        <ele>642.3</ele>
        <time>2015-07-13T09:07:55Z</time>
      </trkpt>
      <trkpt lat="43.39152" lon="2.60101">
        <ele>643.26</ele>
        <time>2015-07-13T09:08:05Z</time>
      </trkpt>
      <trkpt lat="43.39139" lon="2.60112">
        <ele>644.7</ele>
        <time>2015-07-13T09:08:20Z</time>
      </trkpt>
      <trkpt lat="43.39124" lon="2.60122">
        <ele>644.7</ele>
        <time>2015-07-13T09:08:35Z</time>
      </trkpt>
      <trkpt lat="43.39113" lon="2.60134">
        <ele>645.66</ele>
        <time>2015-07-13T09:08:45Z</time>
      </trkpt>
      <trkpt lat="43.39109" lon="2.60138">
        <ele>645.66</ele>
        <time>2015-07-13T09:08:49Z</time>
      </trkpt>
      <trkpt lat="43.391" lon="2.60158">
        <ele>644.7</ele>
        <time>2015-07-13T09:09:03Z</time>
      </trkpt>
      <trkpt lat="43.39092" lon="2.60174">
        <ele>645.18</ele>
        <time>2015-07-13T09:09:17Z</time>
      </trkpt>
      <trkpt lat="43.39089" lon="2.60181">
        <ele>645.18</ele>
        <time>2015-07-13T09:09:23Z</time>
      </trkpt>
      <trkpt lat="43.39087" lon="2.6019">
        <ele>645.18</ele>
        <time>2015-07-13T09:09:29Z</time>
      </trkpt>
      <trkpt lat="43.39084" lon="2.60207">
        <ele>646.14</ele>
        <time>2015-07-13T09:09:42Z</time>
      </trkpt>
      <trkpt lat="43.39078" lon="2.60228">
        <ele>646.14</ele>
        <time>2015-07-13T09:09:56Z</time>
      </trkpt>
      <trkpt lat="43.39078" lon="2.6023">
        <ele>646.62</ele>
        <time>2015-07-13T09:09:58Z</time>
      </trkpt>
      <trkpt lat="43.39077" lon="2.60235">
        <ele>646.14</ele>
        <time>2015-07-13T09:10:01Z</time>
      </trkpt>
      <trkpt lat="43.39075" lon="2.60244">
        <ele>646.62</ele>
        <time>2015-07-13T09:10:09Z</time>
      </trkpt>
      <trkpt lat="43.39072" lon="2.60263">
        <ele>645.18</ele>
        <time>2015-07-13T09:10:23Z</time>
      </trkpt>
      <trkpt lat="43.39068" lon="2.60276">
        <ele>644.22</ele>
        <time>2015-07-13T09:10:33Z</time>
      </trkpt>
      <trkpt lat="43.39064" lon="2.60294">
        <ele>644.22</ele>
        <time>2015-07-13T09:10:45Z</time>
      </trkpt>
      <trkpt lat="43.39062" lon="2.60303">
        <ele>644.22</ele>
        <time>2015-07-13T09:10:51Z</time>
      </trkpt>
      <trkpt lat="43.39057" lon="2.60323">
        <ele>643.26</ele>
        <time>2015-07-13T09:11:04Z</time>
      </trkpt>
      <trkpt lat="43.39057" lon="2.60347">
        <ele>640.86</ele>
        <time>2015-07-13T09:11:20Z</time>
      </trkpt>
      <trkpt lat="43.39058" lon="2.60354">
        <ele>642.78</ele>
        <time>2015-07-13T09:11:25Z</time>
      </trkpt>
      <trkpt lat="43.39058" lon="2.60362">
        <ele>640.38</ele>
        <time>2015-07-13T09:11:32Z</time>
      </trkpt>
      <trkpt lat="43.39057" lon="2.60386">
        <ele>639.89</ele>
        <time>2015-07-13T09:11:47Z</time>
      </trkpt>
      <trkpt lat="43.39058" lon="2.60391">
        <ele>639.41</ele>
        <time>2015-07-13T09:11:50Z</time>
      </trkpt>
      <trkpt lat="43.39057" lon="2.60396">
        <ele>639.41</ele>
        <time>2015-07-13T09:11:54Z</time>
      </trkpt>
      <trkpt lat="43.39063" lon="2.60418">
        <ele>637.97</ele>
        <time>2015-07-13T09:12:10Z</time>
      </trkpt>
      <trkpt lat="43.39071" lon="2.60436">
        <ele>636.53</ele>
        <time>2015-07-13T09:12:24Z</time>
      </trkpt>
      <trkpt lat="43.39075" lon="2.60458">
        <ele>638.45</ele>
        <time>2015-07-13T09:12:39Z</time>
      </trkpt>
      <trkpt lat="43.39076" lon="2.60462">
        <ele>637.01</ele>
        <time>2015-07-13T09:12:43Z</time>
      </trkpt>
      <trkpt lat="43.3908" lon="2.60474">
        <ele>637.01</ele>
        <time>2015-07-13T09:12:56Z</time>
      </trkpt>
      <trkpt lat="43.3908" lon="2.6049">
        <ele>637.01</ele>
        <time>2015-07-13T09:13:08Z</time>
      </trkpt>
      <trkpt lat="43.3908" lon="2.60494">
        <ele>637.97</ele>
        <time>2015-07-13T09:13:11Z</time>
      </trkpt>
      <trkpt lat="43.39084" lon="2.60511">
        <ele>637.49</ele>
        <time>2015-07-13T09:13:27Z</time>
      </trkpt>
      <trkpt lat="43.39089" lon="2.60533">
        <ele>639.41</ele>
        <time>2015-07-13T09:13:42Z</time>
      </trkpt>
      <trkpt lat="43.39088" lon="2.60555">
        <ele>639.41</ele>
        <time>2015-07-13T09:13:58Z</time>
      </trkpt>
      <trkpt lat="43.39088" lon="2.60558">
        <ele>639.89</ele>
        <time>2015-07-13T09:14:00Z</time>
      </trkpt>
      <trkpt lat="43.39082" lon="2.60574">
        <ele>638.45</ele>
        <time>2015-07-13T09:14:14Z</time>
      </trkpt>
      <trkpt lat="43.39082" lon="2.60575">
        <ele>637.49</ele>
        <time>2015-07-13T09:14:15Z</time>
      </trkpt>
      <trkpt lat="43.39072" lon="2.6059">
        <ele>635.57</ele>
        <time>2015-07-13T09:14:30Z</time>
      </trkpt>
      <trkpt lat="43.3907" lon="2.60597">
        <ele>636.05</ele>
        <time>2015-07-13T09:14:36Z</time>
      </trkpt>
      <trkpt lat="43.39064" lon="2.60606">
        <ele>636.53</ele>
        <time>2015-07-13T09:14:43Z</time>
      </trkpt>
      <trkpt lat="43.3906" lon="2.60611">
        <ele>637.01</ele>
        <time>2015-07-13T09:14:47Z</time>
      </trkpt>
      <trkpt lat="43.39058" lon="2.60617">
        <ele>637.49</ele>
        <time>2015-07-13T09:14:50Z</time>
      </trkpt>
      <trkpt lat="43.39058" lon="2.6062">
        <ele>636.53</ele>
        <time>2015-07-13T09:14:52Z</time>
      </trkpt>
      <trkpt lat="43.39056" lon="2.60626">
        <ele>637.49</ele>
        <time>2015-07-13T09:14:56Z</time>
      </trkpt>
      <trkpt lat="43.39055" lon="2.60633">
        <ele>636.05</ele>
        <time>2015-07-13T09:15:00Z</time>
      </trkpt>
      <trkpt lat="43.39051" lon="2.60643">
        <ele>635.57</ele>
        <time>2015-07-13T09:15:08Z</time>
      </trkpt>
      <trkpt lat="43.39045" lon="2.60659">
        <ele>635.09</ele>
        <time>2015-07-13T09:15:18Z</time>
      </trkpt>
      <trkpt lat="43.39043" lon="2.60662">
        <ele>635.57</ele>
        <time>2015-07-13T09:15:21Z</time>
      </trkpt>
      <trkpt lat="43.39042" lon="2.60666">
        <ele>635.09</ele>
        <time>2015-07-13T09:15:24Z</time>
      </trkpt>
      <trkpt lat="43.39041" lon="2.6067">
        <ele>636.05</ele>
        <time>2015-07-13T09:15:26Z</time>
      </trkpt>
      <trkpt lat="43.3904" lon="2.60676">
        <ele>634.61</ele>
        <time>2015-07-13T09:15:30Z</time>
      </trkpt>
      <trkpt lat="43.39038" lon="2.60696">
        <ele>632.2</ele>
        <time>2015-07-13T09:15:43Z</time>
      </trkpt>
      <trkpt lat="43.39038" lon="2.60701">
        <ele>634.13</ele>
        <time>2015-07-13T09:15:46Z</time>
      </trkpt>
      <trkpt lat="43.39039" lon="2.60705">
        <ele>633.17</ele>
        <time>2015-07-13T09:15:49Z</time>
      </trkpt>
      <trkpt lat="43.39039" lon="2.60707">
        <ele>633.17</ele>
        <time>2015-07-13T09:15:51Z</time>
      </trkpt>
      <trkpt lat="43.39042" lon="2.6072">
        <ele>632.68</ele>
        <time>2015-07-13T09:16:00Z</time>
      </trkpt>
      <trkpt lat="43.39043" lon="2.60728">
        <ele>632.2</ele>
        <time>2015-07-13T09:16:05Z</time>
      </trkpt>
      <trkpt lat="43.39044" lon="2.60731">
        <ele>632.2</ele>
        <time>2015-07-13T09:16:08Z</time>
      </trkpt>
      <trkpt lat="43.39052" lon="2.60749">
        <ele>631.24</ele>
        <time>2015-07-13T09:16:23Z</time>
      </trkpt>
      <trkpt lat="43.39053" lon="2.60754">
        <ele>631.24</ele>
        <time>2015-07-13T09:16:27Z</time>
      </trkpt>
      <trkpt lat="43.39055" lon="2.60767">
        <ele>630.76</ele>
        <time>2015-07-13T09:16:35Z</time>
      </trkpt>
      <trkpt lat="43.39056" lon="2.60772">
        <ele>632.2</ele>
        <time>2015-07-13T09:16:39Z</time>
      </trkpt>
      <trkpt lat="43.39058" lon="2.60793">
        <ele>631.24</ele>
        <time>2015-07-13T09:16:52Z</time>
      </trkpt>
      <trkpt lat="43.3906" lon="2.60806">
        <ele>630.76</ele>
        <time>2015-07-13T09:17:00Z</time>
      </trkpt>
      <trkpt lat="43.39061" lon="2.60811">
        <ele>630.76</ele>
        <time>2015-07-13T09:17:03Z</time>
      </trkpt>
      <trkpt lat="43.39065" lon="2.60827">
        <ele>629.8</ele>
        <time>2015-07-13T09:17:15Z</time>
      </trkpt>
      <trkpt lat="43.39065" lon="2.60829">
        <ele>629.32</ele>
        <time>2015-07-13T09:17:17Z</time>
      </trkpt>
      <trkpt lat="43.39065" lon="2.60835">
        <ele>628.36</ele>
        <time>2015-07-13T09:17:21Z</time>
      </trkpt>
      <trkpt lat="43.39062" lon="2.60848">
        <ele>627.88</ele>
        <time>2015-07-13T09:17:31Z</time>
      </trkpt>
      <trkpt lat="43.39055" lon="2.60867">
        <ele>628.36</ele>
        <time>2015-07-13T09:17:45Z</time>
      </trkpt>
      <trkpt lat="43.39055" lon="2.60869">
        <ele>627.4</ele>
        <time>2015-07-13T09:17:47Z</time>
      </trkpt>
      <trkpt lat="43.39055" lon="2.60872">
        <ele>627.88</ele>
        <time>2015-07-13T09:17:50Z</time>
      </trkpt>
      <trkpt lat="43.39055" lon="2.60876">
        <ele>628.36</ele>
        <time>2015-07-13T09:17:52Z</time>
      </trkpt>
      <trkpt lat="43.39057" lon="2.60894">
        <ele>628.36</ele>
        <time>2015-07-13T09:18:04Z</time>
      </trkpt>
      <trkpt lat="43.39058" lon="2.60897">
        <ele>628.36</ele>
        <time>2015-07-13T09:18:06Z</time>
      </trkpt>
      <trkpt lat="43.3906" lon="2.60919">
        <ele>630.28</ele>
        <time>2015-07-13T09:18:20Z</time>
      </trkpt>
      <trkpt lat="43.3906" lon="2.60928">
        <ele>630.76</ele>
        <time>2015-07-13T09:18:25Z</time>
      </trkpt>
      <trkpt lat="43.39061" lon="2.60953">
        <ele>630.76</ele>
        <time>2015-07-13T09:18:41Z</time>
      </trkpt>
      <trkpt lat="43.3906" lon="2.60956">
        <ele>631.72</ele>
        <time>2015-07-13T09:18:43Z</time>
      </trkpt>
      <trkpt lat="43.3906" lon="2.60965">
        <ele>630.28</ele>
        <time>2015-07-13T09:18:50Z</time>
      </trkpt>
      <trkpt lat="43.3906" lon="2.60971">
        <ele>629.8</ele>
        <time>2015-07-13T09:18:54Z</time>
      </trkpt>
      <trkpt lat="43.3906" lon="2.60974">
        <ele>630.28</ele>
        <time>2015-07-13T09:18:56Z</time>
      </trkpt>
      <trkpt lat="43.39058" lon="2.60992">
        <ele>628.36</ele>
        <time>2015-07-13T09:19:09Z</time>
      </trkpt>
      <trkpt lat="43.3906" lon="2.61">
        <ele>627.88</ele>
        <time>2015-07-13T09:19:25Z</time>
      </trkpt>
      <trkpt lat="43.39062" lon="2.61002">
        <ele>628.36</ele>
        <time>2015-07-13T09:19:43Z</time>
      </trkpt>
      <trkpt lat="43.39062" lon="2.61003">
        <ele>628.36</ele>
        <time>2015-07-13T09:19:58Z</time>
      </trkpt>
      <trkpt lat="43.39062" lon="2.61004">
        <ele>626.92</ele>
        <time>2015-07-13T09:20:15Z</time>
      </trkpt>
      <trkpt lat="43.39063" lon="2.61005">
        <ele>626.92</ele>
        <time>2015-07-13T09:20:30Z</time>
      </trkpt>
      <trkpt lat="43.39062" lon="2.61006">
        <ele>625.47</ele>
        <time>2015-07-13T09:20:47Z</time>
      </trkpt>
      <trkpt lat="43.39061" lon="2.61005">
        <ele>624.99</ele>
        <time>2015-07-13T09:21:05Z</time>
      </trkpt>
      <trkpt lat="43.39061" lon="2.61004">
        <ele>625.96</ele>
        <time>2015-07-13T09:21:31Z</time>
      </trkpt>
      <trkpt lat="43.39061" lon="2.61005">
        <ele>622.11</ele>
        <time>2015-07-13T09:21:49Z</time>
      </trkpt>
      <trkpt lat="43.3906" lon="2.61006">
        <ele>626.44</ele>
        <time>2015-07-13T09:21:50Z</time>
      </trkpt>
      <trkpt lat="43.3906" lon="2.61006">
        <ele>625.96</ele>
        <time>2015-07-13T09:22:06Z</time>
      </trkpt>
      <trkpt lat="43.39058" lon="2.61006">
        <ele>625.96</ele>
        <time>2015-07-13T09:22:12Z</time>
      </trkpt>
      <trkpt lat="43.39057" lon="2.61007">
        <ele>625.47</ele>
        <time>2015-07-13T09:22:15Z</time>
      </trkpt>
      <trkpt lat="43.39057" lon="2.6101">
        <ele>625.47</ele>
        <time>2015-07-13T09:22:21Z</time>
      </trkpt>
      <trkpt lat="43.39054" lon="2.61016">
        <ele>623.55</ele>
        <time>2015-07-13T09:22:30Z</time>
      </trkpt>
      <trkpt lat="43.39054" lon="2.61029">
        <ele>622.59</ele>
        <time>2015-07-13T09:22:41Z</time>
      </trkpt>
      <trkpt lat="43.39052" lon="2.61039">
        <ele>622.59</ele>
        <time>2015-07-13T09:22:51Z</time>
      </trkpt>
      <trkpt lat="43.39053" lon="2.61042">
        <ele>622.11</ele>
        <time>2015-07-13T09:22:53Z</time>
      </trkpt>
      <trkpt lat="43.39054" lon="2.61046">
        <ele>622.59</ele>
        <time>2015-07-13T09:23:05Z</time>
      </trkpt>
      <trkpt lat="43.39054" lon="2.61051">
        <ele>622.59</ele>
        <time>2015-07-13T09:23:20Z</time>
      </trkpt>
      <trkpt lat="43.39054" lon="2.61056">
        <ele>621.63</ele>
        <time>2015-07-13T09:23:34Z</time>
      </trkpt>
      <trkpt lat="43.39052" lon="2.61065">
        <ele>621.15</ele>
        <time>2015-07-13T09:23:47Z</time>
      </trkpt>
      <trkpt lat="43.39049" lon="2.61071">
        <ele>620.67</ele>
        <time>2015-07-13T09:24:01Z</time>
      </trkpt>
      <trkpt lat="43.39048" lon="2.61079">
        <ele>620.19</ele>
        <time>2015-07-13T09:24:15Z</time>
      </trkpt>
      <trkpt lat="43.39045" lon="2.61082">
        <ele>620.67</ele>
        <time>2015-07-13T09:24:37Z</time>
      </trkpt>
      <trkpt lat="43.39044" lon="2.61082">
        <ele>619.71</ele>
        <time>2015-07-13T09:25:02Z</time>
      </trkpt>
      <trkpt lat="43.39043" lon="2.61085">
        <ele>620.19</ele>
        <time>2015-07-13T09:25:22Z</time>
      </trkpt>
      <trkpt lat="43.39044" lon="2.61087">
        <ele>621.15</ele>
        <time>2015-07-13T09:25:41Z</time>
      </trkpt>
      <trkpt lat="43.39044" lon="2.61088">
        <ele>621.63</ele>
        <time>2015-07-13T09:25:55Z</time>
      </trkpt>
      <trkpt lat="43.39045" lon="2.61088">
        <ele>621.63</ele>
        <time>2015-07-13T09:26:19Z</time>
      </trkpt>
      <trkpt lat="43.39045" lon="2.61089">
        <ele>622.59</ele>
        <time>2015-07-13T09:26:37Z</time>
      </trkpt>
      <trkpt lat="43.39046" lon="2.61092">
        <ele>621.63</ele>
        <time>2015-07-13T09:26:59Z</time>
      </trkpt>
      <trkpt lat="43.39049" lon="2.61095">
        <ele>622.59</ele>
        <time>2015-07-13T09:27:17Z</time>
      </trkpt>
      <trkpt lat="43.39053" lon="2.61094">
        <ele>623.55</ele>
        <time>2015-07-13T09:27:27Z</time>
      </trkpt>
      <trkpt lat="43.39055" lon="2.61094">
        <ele>623.55</ele>
        <time>2015-07-13T09:27:42Z</time>
      </trkpt>
      <trkpt lat="43.39057" lon="2.61095">
        <ele>624.03</ele>
        <time>2015-07-13T09:28:03Z</time>
      </trkpt>
      <trkpt lat="43.39056" lon="2.61095">
        <ele>623.55</ele>
        <time>2015-07-13T09:28:37Z</time>
      </trkpt>
      <trkpt lat="43.39052" lon="2.61099">
        <ele>624.03</ele>
        <time>2015-07-13T09:28:48Z</time>
      </trkpt>
      <trkpt lat="43.39051" lon="2.61109">
        <ele>624.51</ele>
        <time>2015-07-13T09:28:56Z</time>
      </trkpt>
      <trkpt lat="43.39048" lon="2.61124">
        <ele>624.99</ele>
        <time>2015-07-13T09:29:08Z</time>
      </trkpt>
      <trkpt lat="43.39046" lon="2.61132">
        <ele>624.99</ele>
        <time>2015-07-13T09:29:13Z</time>
      </trkpt>
      <trkpt lat="43.39045" lon="2.61138">
        <ele>625.47</ele>
        <time>2015-07-13T09:29:16Z</time>
      </trkpt>
      <trkpt lat="43.39044" lon="2.61149">
        <ele>624.51</ele>
        <time>2015-07-13T09:29:26Z</time>
      </trkpt>
      <trkpt lat="43.3904" lon="2.61154">
        <ele>622.59</ele>
        <time>2015-07-13T09:29:39Z</time>
      </trkpt>
      <trkpt lat="43.39037" lon="2.61157">
        <ele>621.15</ele>
        <time>2015-07-13T09:29:54Z</time>
      </trkpt>
      <trkpt lat="43.39034" lon="2.6116">
        <ele>620.67</ele>
        <time>2015-07-13T09:30:05Z</time>
      </trkpt>
      <trkpt lat="43.3903" lon="2.61164">
        <ele>619.71</ele>
        <time>2015-07-13T09:30:15Z</time>
      </trkpt>
      <trkpt lat="43.39026" lon="2.61166">
        <ele>617.78</ele>
        <time>2015-07-13T09:30:28Z</time>
      </trkpt>
      <trkpt lat="43.39023" lon="2.61171">
        <ele>615.86</ele>
        <time>2015-07-13T09:30:41Z</time>
      </trkpt>
      <trkpt lat="43.39022" lon="2.61173">
        <ele>616.34</ele>
        <time>2015-07-13T09:30:43Z</time>
      </trkpt>
      <trkpt lat="43.39014" lon="2.61169">
        <ele>614.42</ele>
        <time>2015-07-13T09:30:54Z</time>
      </trkpt>
      <trkpt lat="43.39011" lon="2.61167">
        <ele>613.46</ele>
        <time>2015-07-13T09:31:06Z</time>
      </trkpt>
      <trkpt lat="43.39011" lon="2.61166">
        <ele>611.06</ele>
        <time>2015-07-13T09:31:16Z</time>
      </trkpt>
      <trkpt lat="43.3901" lon="2.61159">
        <ele>610.09</ele>
        <time>2015-07-13T09:31:28Z</time>
      </trkpt>
      <trkpt lat="43.39007" lon="2.61161">
        <ele>609.13</ele>
        <time>2015-07-13T09:31:41Z</time>
      </trkpt>
      <trkpt lat="43.39007" lon="2.61165">
        <ele>606.73</ele>
        <time>2015-07-13T09:31:53Z</time>
      </trkpt>
      <trkpt lat="43.39005" lon="2.61169">
        <ele>605.77</ele>
        <time>2015-07-13T09:32:05Z</time>
      </trkpt>
      <trkpt lat="43.39" lon="2.61175">
        <ele>604.81</ele>
        <time>2015-07-13T09:32:15Z</time>
      </trkpt>
      <trkpt lat="43.38997" lon="2.6118">
        <ele>603.85</ele>
        <time>2015-07-13T09:32:27Z</time>
      </trkpt>
      <trkpt lat="43.3899" lon="2.61186">
        <ele>602.88</ele>
        <time>2015-07-13T09:32:42Z</time>
      </trkpt>
      <trkpt lat="43.38984" lon="2.61196">
        <ele>600.96</ele>
        <time>2015-07-13T09:32:56Z</time>
      </trkpt>
      <trkpt lat="43.38983" lon="2.61204">
        <ele>600</ele>
        <time>2015-07-13T09:33:06Z</time>
      </trkpt>
      <trkpt lat="43.3898" lon="2.6121">
        <ele>598.56</ele>
        <time>2015-07-13T09:33:17Z</time>
      </trkpt>
      <trkpt lat="43.38973" lon="2.61218">
        <ele>597.12</ele>
        <time>2015-07-13T09:33:28Z</time>
      </trkpt>
      <trkpt lat="43.38971" lon="2.61219">
        <ele>596.15</ele>
        <time>2015-07-13T09:33:32Z</time>
      </trkpt>
      <trkpt lat="43.38965" lon="2.61233">
        <ele>595.67</ele>
        <time>2015-07-13T09:33:44Z</time>
      </trkpt>
      <trkpt lat="43.38962" lon="2.61242">
        <ele>597.6</ele>
        <time>2015-07-13T09:33:54Z</time>
      </trkpt>
      <trkpt lat="43.38962" lon="2.61244">
        <ele>595.19</ele>
        <time>2015-07-13T09:33:57Z</time>
      </trkpt>
      <trkpt lat="43.38959" lon="2.61252">
        <ele>596.64</ele>
        <time>2015-07-13T09:34:06Z</time>
      </trkpt>
      <trkpt lat="43.38958" lon="2.61258">
        <ele>595.19</ele>
        <time>2015-07-13T09:34:16Z</time>
      </trkpt>
      <trkpt lat="43.38959" lon="2.61259">
        <ele>594.71</ele>
        <time>2015-07-13T09:34:17Z</time>
      </trkpt>
      <trkpt lat="43.38958" lon="2.61268">
        <ele>592.79</ele>
        <time>2015-07-13T09:34:29Z</time>
      </trkpt>
      <trkpt lat="43.38956" lon="2.61278">
        <ele>592.31</ele>
        <time>2015-07-13T09:34:42Z</time>
      </trkpt>
      <trkpt lat="43.38954" lon="2.61285">
        <ele>590.87</ele>
        <time>2015-07-13T09:34:53Z</time>
      </trkpt>
      <trkpt lat="43.38951" lon="2.61292">
        <ele>589.43</ele>
        <time>2015-07-13T09:35:06Z</time>
      </trkpt>
      <trkpt lat="43.38946" lon="2.61302">
        <ele>587.5</ele>
        <time>2015-07-13T09:35:19Z</time>
      </trkpt>
      <trkpt lat="43.38946" lon="2.61304">
        <ele>587.02</ele>
        <time>2015-07-13T09:35:24Z</time>
      </trkpt>
      <trkpt lat="43.38941" lon="2.61314">
        <ele>586.06</ele>
        <time>2015-07-13T09:35:35Z</time>
      </trkpt>
      <trkpt lat="43.38935" lon="2.61325">
        <ele>582.7</ele>
        <time>2015-07-13T09:35:47Z</time>
      </trkpt>
      <trkpt lat="43.38935" lon="2.61326">
        <ele>582.7</ele>
        <time>2015-07-13T09:35:48Z</time>
      </trkpt>
      <trkpt lat="43.38933" lon="2.61335">
        <ele>582.22</ele>
        <time>2015-07-13T09:35:55Z</time>
      </trkpt>
      <trkpt lat="43.3893" lon="2.61343">
        <ele>581.73</ele>
        <time>2015-07-13T09:36:06Z</time>
      </trkpt>
      <trkpt lat="43.38925" lon="2.61354">
        <ele>579.33</ele>
        <time>2015-07-13T09:36:17Z</time>
      </trkpt>
      <trkpt lat="43.38922" lon="2.61362">
        <ele>577.41</ele>
        <time>2015-07-13T09:36:27Z</time>
      </trkpt>
      <trkpt lat="43.38919" lon="2.61373">
        <ele>575.97</ele>
        <time>2015-07-13T09:36:37Z</time>
      </trkpt>
      <trkpt lat="43.38912" lon="2.61383">
        <ele>575.01</ele>
        <time>2015-07-13T09:36:49Z</time>
      </trkpt>
      <trkpt lat="43.38911" lon="2.61398">
        <ele>575.49</ele>
        <time>2015-07-13T09:37:01Z</time>
      </trkpt>
      <trkpt lat="43.38913" lon="2.61409">
        <ele>575.97</ele>
        <time>2015-07-13T09:37:12Z</time>
      </trkpt>
      <trkpt lat="43.38915" lon="2.61412">
        <ele>577.41</ele>
        <time>2015-07-13T09:37:30Z</time>
      </trkpt>
      <trkpt lat="43.38915" lon="2.61413">
        <ele>577.41</ele>
        <time>2015-07-13T09:37:52Z</time>
      </trkpt>
      <trkpt lat="43.38916" lon="2.61417">
        <ele>579.33</ele>
        <time>2015-07-13T09:38:04Z</time>
      </trkpt>
      <trkpt lat="43.3892" lon="2.61429">
        <ele>580.77</ele>
        <time>2015-07-13T09:38:17Z</time>
      </trkpt>
      <trkpt lat="43.38923" lon="2.61433">
        <ele>582.22</ele>
        <time>2015-07-13T09:38:29Z</time>
      </trkpt>
      <trkpt lat="43.38925" lon="2.61435">
        <ele>582.22</ele>
        <time>2015-07-13T09:38:47Z</time>
      </trkpt>
      <trkpt lat="43.38928" lon="2.61439">
        <ele>584.62</ele>
        <time>2015-07-13T09:39:09Z</time>
      </trkpt>
      <trkpt lat="43.38929" lon="2.61443">
        <ele>586.06</ele>
        <time>2015-07-13T09:39:22Z</time>
      </trkpt>
      <trkpt lat="43.38933" lon="2.61453">
        <ele>587.5</ele>
        <time>2015-07-13T09:39:33Z</time>
      </trkpt>
      <trkpt lat="43.38934" lon="2.61462">
        <ele>585.58</ele>
        <time>2015-07-13T09:39:45Z</time>
      </trkpt>
      <trkpt lat="43.38934" lon="2.61473">
        <ele>584.14</ele>
        <time>2015-07-13T09:39:56Z</time>
      </trkpt>
      <trkpt lat="43.38934" lon="2.61485">
        <ele>583.66</ele>
        <time>2015-07-13T09:40:08Z</time>
      </trkpt>
      <trkpt lat="43.38934" lon="2.61494">
        <ele>582.22</ele>
        <time>2015-07-13T09:40:17Z</time>
      </trkpt>
      <trkpt lat="43.38934" lon="2.61506">
        <ele>582.22</ele>
        <time>2015-07-13T09:40:28Z</time>
      </trkpt>
      <trkpt lat="43.38936" lon="2.61521">
        <ele>581.73</ele>
        <time>2015-07-13T09:40:39Z</time>
      </trkpt>
      <trkpt lat="43.38939" lon="2.61536">
        <ele>580.29</ele>
        <time>2015-07-13T09:40:50Z</time>
      </trkpt>
      <trkpt lat="43.38943" lon="2.61547">
        <ele>581.25</ele>
        <time>2015-07-13T09:41:02Z</time>
      </trkpt>
      <trkpt lat="43.38944" lon="2.61551">
        <ele>581.25</ele>
        <time>2015-07-13T09:41:07Z</time>
      </trkpt>
      <trkpt lat="43.38948" lon="2.61563">
        <ele>580.29</ele>
        <time>2015-07-13T09:41:19Z</time>
      </trkpt>
      <trkpt lat="43.38949" lon="2.61567">
        <ele>578.85</ele>
        <time>2015-07-13T09:41:22Z</time>
      </trkpt>
      <trkpt lat="43.38957" lon="2.61589">
        <ele>576.45</ele>
        <time>2015-07-13T09:41:37Z</time>
      </trkpt>
      <trkpt lat="43.38962" lon="2.61603">
        <ele>574.53</ele>
        <time>2015-07-13T09:41:48Z</time>
      </trkpt>
      <trkpt lat="43.38967" lon="2.61616">
        <ele>573.56</ele>
        <time>2015-07-13T09:41:59Z</time>
      </trkpt>
      <trkpt lat="43.38973" lon="2.61622">
        <ele>574.04</ele>
        <time>2015-07-13T09:42:11Z</time>
      </trkpt>
      <trkpt lat="43.38979" lon="2.61627">
        <ele>573.56</ele>
        <time>2015-07-13T09:42:22Z</time>
      </trkpt>
      <trkpt lat="43.38986" lon="2.61635">
        <ele>573.56</ele>
        <time>2015-07-13T09:42:34Z</time>
      </trkpt>
      <trkpt lat="43.38994" lon="2.61643">
        <ele>573.56</ele>
        <time>2015-07-13T09:42:46Z</time>
      </trkpt>
      <trkpt lat="43.39" lon="2.61652">
        <ele>573.56</ele>
        <time>2015-07-13T09:42:57Z</time>
      </trkpt>
      <trkpt lat="43.39005" lon="2.61662">
        <ele>573.08</ele>
        <time>2015-07-13T09:43:09Z</time>
      </trkpt>
      <trkpt lat="43.3901" lon="2.61668">
        <ele>572.12</ele>
        <time>2015-07-13T09:43:22Z</time>
      </trkpt>
      <trkpt lat="43.3901" lon="2.61675">
        <ele>571.16</ele>
        <time>2015-07-13T09:43:32Z</time>
      </trkpt>
      <trkpt lat="43.39007" lon="2.61684">
        <ele>570.2</ele>
        <time>2015-07-13T09:43:45Z</time>
      </trkpt>
      <trkpt lat="43.39007" lon="2.61695">
        <ele>569.72</ele>
        <time>2015-07-13T09:43:57Z</time>
      </trkpt>
      <trkpt lat="43.39008" lon="2.61697">
        <ele>569.24</ele>
        <time>2015-07-13T09:43:58Z</time>
      </trkpt>
      <trkpt lat="43.3901" lon="2.61715">
        <ele>568.76</ele>
        <time>2015-07-13T09:44:11Z</time>
      </trkpt>
      <trkpt lat="43.39011" lon="2.61721">
        <ele>569.24</ele>
        <time>2015-07-13T09:44:14Z</time>
      </trkpt>
      <trkpt lat="43.39012" lon="2.6174">
        <ele>567.8</ele>
        <time>2015-07-13T09:44:26Z</time>
      </trkpt>
      <trkpt lat="43.39014" lon="2.61747">
        <ele>567.32</ele>
        <time>2015-07-13T09:44:30Z</time>
      </trkpt>
      <trkpt lat="43.39021" lon="2.6177">
        <ele>565.39</ele>
        <time>2015-07-13T09:44:44Z</time>
      </trkpt>
      <trkpt lat="43.3903" lon="2.6179">
        <ele>565.87</ele>
        <time>2015-07-13T09:44:57Z</time>
      </trkpt>
      <trkpt lat="43.39032" lon="2.61793">
        <ele>566.35</ele>
        <time>2015-07-13T09:45:02Z</time>
      </trkpt>
      <trkpt lat="43.39038" lon="2.61812">
        <ele>564.91</ele>
        <time>2015-07-13T09:45:16Z</time>
      </trkpt>
      <trkpt lat="43.39047" lon="2.61828">
        <ele>564.91</ele>
        <time>2015-07-13T09:45:28Z</time>
      </trkpt>
      <trkpt lat="43.39053" lon="2.61834">
        <ele>562.51</ele>
        <time>2015-07-13T09:45:39Z</time>
      </trkpt>
      <trkpt lat="43.39057" lon="2.61836">
        <ele>562.03</ele>
        <time>2015-07-13T09:45:51Z</time>
      </trkpt>
      <trkpt lat="43.39059" lon="2.61836">
        <ele>562.51</ele>
        <time>2015-07-13T09:46:08Z</time>
      </trkpt>
      <trkpt lat="43.39061" lon="2.61838">
        <ele>562.99</ele>
        <time>2015-07-13T09:46:20Z</time>
      </trkpt>
      <trkpt lat="43.39067" lon="2.61845">
        <ele>562.03</ele>
        <time>2015-07-13T09:46:32Z</time>
      </trkpt>
      <trkpt lat="43.39076" lon="2.61854">
        <ele>561.07</ele>
        <time>2015-07-13T09:46:45Z</time>
      </trkpt>
      <trkpt lat="43.3908" lon="2.6186">
        <ele>560.11</ele>
        <time>2015-07-13T09:46:58Z</time>
      </trkpt>
      <trkpt lat="43.39088" lon="2.61868">
        <ele>558.66</ele>
        <time>2015-07-13T09:47:11Z</time>
      </trkpt>
      <trkpt lat="43.39091" lon="2.6187">
        <ele>558.66</ele>
        <time>2015-07-13T09:47:13Z</time>
      </trkpt>
      <trkpt lat="43.39102" lon="2.61887">
        <ele>558.18</ele>
        <time>2015-07-13T09:47:25Z</time>
      </trkpt>
      <trkpt lat="43.39108" lon="2.61898">
        <ele>557.7</ele>
        <time>2015-07-13T09:47:38Z</time>
      </trkpt>
      <trkpt lat="43.39117" lon="2.61912">
        <ele>557.22</ele>
        <time>2015-07-13T09:47:52Z</time>
      </trkpt>
      <trkpt lat="43.39124" lon="2.61925">
        <ele>557.7</ele>
        <time>2015-07-13T09:48:04Z</time>
      </trkpt>
      <trkpt lat="43.39127" lon="2.61933">
        <ele>557.7</ele>
        <time>2015-07-13T09:48:19Z</time>
      </trkpt>
      <trkpt lat="43.3913" lon="2.61936">
        <ele>557.7</ele>
        <time>2015-07-13T09:48:36Z</time>
      </trkpt>
      <trkpt lat="43.39132" lon="2.61945">
        <ele>557.22</ele>
        <time>2015-07-13T09:48:46Z</time>
      </trkpt>
      <trkpt lat="43.39134" lon="2.61953">
        <ele>556.26</ele>
        <time>2015-07-13T09:48:52Z</time>
      </trkpt>
      <trkpt lat="43.39138" lon="2.61963">
        <ele>554.82</ele>
        <time>2015-07-13T09:49:00Z</time>
      </trkpt>
      <trkpt lat="43.3914" lon="2.61974">
        <ele>554.82</ele>
        <time>2015-07-13T09:49:13Z</time>
      </trkpt>
      <trkpt lat="43.39143" lon="2.61982">
        <ele>554.82</ele>
        <time>2015-07-13T09:49:26Z</time>
      </trkpt>
      <trkpt lat="43.39143" lon="2.61986">
        <ele>554.34</ele>
        <time>2015-07-13T09:49:33Z</time>
      </trkpt>
      <trkpt lat="43.39142" lon="2.61991">
        <ele>554.34</ele>
        <time>2015-07-13T09:49:37Z</time>
      </trkpt>
      <trkpt lat="43.39139" lon="2.61998">
        <ele>554.82</ele>
        <time>2015-07-13T09:49:44Z</time>
      </trkpt>
      <trkpt lat="43.39136" lon="2.61995">
        <ele>554.34</ele>
        <time>2015-07-13T09:49:50Z</time>
      </trkpt>
      <trkpt lat="43.39125" lon="2.61993">
        <ele>554.82</ele>
        <time>2015-07-13T09:50:01Z</time>
      </trkpt>
      <trkpt lat="43.39121" lon="2.61995">
        <ele>553.86</ele>
        <time>2015-07-13T09:50:12Z</time>
      </trkpt>
      <trkpt lat="43.3912" lon="2.61994">
        <ele>555.3</ele>
        <time>2015-07-13T09:50:28Z</time>
      </trkpt>
      <trkpt lat="43.39117" lon="2.61996">
        <ele>555.3</ele>
        <time>2015-07-13T09:50:41Z</time>
      </trkpt>
      <trkpt lat="43.39117" lon="2.61995">
        <ele>556.26</ele>
        <time>2015-07-13T09:50:50Z</time>
      </trkpt>
      <trkpt lat="43.39113" lon="2.61997">
        <ele>555.78</ele>
        <time>2015-07-13T09:50:54Z</time>
      </trkpt>
      <trkpt lat="43.39111" lon="2.61996">
        <ele>556.26</ele>
        <time>2015-07-13T09:50:56Z</time>
      </trkpt>
      <trkpt lat="43.39105" lon="2.61999">
        <ele>555.3</ele>
        <time>2015-07-13T09:51:02Z</time>
      </trkpt>
      <trkpt lat="43.391" lon="2.62002">
        <ele>554.34</ele>
        <time>2015-07-13T09:51:08Z</time>
      </trkpt>
      <trkpt lat="43.39097" lon="2.62002">
        <ele>553.86</ele>
        <time>2015-07-13T09:51:10Z</time>
      </trkpt>
      <trkpt lat="43.39091" lon="2.62">
        <ele>552.9</ele>
        <time>2015-07-13T09:51:17Z</time>
      </trkpt>
      <trkpt lat="43.39085" lon="2.62001">
        <ele>552.41</ele>
        <time>2015-07-13T09:51:21Z</time>
      </trkpt>
      <trkpt lat="43.39072" lon="2.62007">
        <ele>553.86</ele>
        <time>2015-07-13T09:51:29Z</time>
      </trkpt>
      <trkpt lat="43.39071" lon="2.62009">
        <ele>554.34</ele>
        <time>2015-07-13T09:51:31Z</time>
      </trkpt>
      <trkpt lat="43.39073" lon="2.6201">
        <ele>554.34</ele>
        <time>2015-07-13T09:51:32Z</time>
      </trkpt>
      <trkpt lat="43.39068" lon="2.62014">
        <ele>552.9</ele>
        <time>2015-07-13T09:51:41Z</time>
      </trkpt>
      <trkpt lat="43.39051" lon="2.62023">
        <ele>553.86</ele>
        <time>2015-07-13T09:51:52Z</time>
      </trkpt>
      <trkpt lat="43.39033" lon="2.62031">
        <ele>552.9</ele>
        <time>2015-07-13T09:52:02Z</time>
      </trkpt>
      <trkpt lat="43.39027" lon="2.62034">
        <ele>552.41</ele>
        <time>2015-07-13T09:52:05Z</time>
      </trkpt>
      <trkpt lat="43.39018" lon="2.62036">
        <ele>552.41</ele>
        <time>2015-07-13T09:52:12Z</time>
      </trkpt>
      <trkpt lat="43.39012" lon="2.62037">
        <ele>551.93</ele>
        <time>2015-07-13T09:52:16Z</time>
      </trkpt>
      <trkpt lat="43.39004" lon="2.6204">
        <ele>551.93</ele>
        <time>2015-07-13T09:52:20Z</time>
      </trkpt>
      <trkpt lat="43.39001" lon="2.62041">
        <ele>551.93</ele>
        <time>2015-07-13T09:52:22Z</time>
      </trkpt>
      <trkpt lat="43.38994" lon="2.62046">
        <ele>550.97</ele>
        <time>2015-07-13T09:52:27Z</time>
      </trkpt>
      <trkpt lat="43.38982" lon="2.62052">
        <ele>551.45</ele>
        <time>2015-07-13T09:52:38Z</time>
      </trkpt>
      <trkpt lat="43.38978" lon="2.62053">
        <ele>550.97</ele>
        <time>2015-07-13T09:52:41Z</time>
      </trkpt>
      <trkpt lat="43.38966" lon="2.62057">
        <ele>550.97</ele>
        <time>2015-07-13T09:52:51Z</time>
      </trkpt>
      <trkpt lat="43.38957" lon="2.62059">
        <ele>549.05</ele>
        <time>2015-07-13T09:52:58Z</time>
      </trkpt>
      <trkpt lat="43.38952" lon="2.6206">
        <ele>548.57</ele>
        <time>2015-07-13T09:53:02Z</time>
      </trkpt>
      <trkpt lat="43.38949" lon="2.62061">
        <ele>548.57</ele>
        <time>2015-07-13T09:53:03Z</time>
      </trkpt>
      <trkpt lat="43.38943" lon="2.62066">
        <ele>546.17</ele>
        <time>2015-07-13T09:53:09Z</time>
      </trkpt>
      <trkpt lat="43.3893" lon="2.62071">
        <ele>545.69</ele>
        <time>2015-07-13T09:53:21Z</time>
      </trkpt>
      <trkpt lat="43.38926" lon="2.62073">
        <ele>544.24</ele>
        <time>2015-07-13T09:53:25Z</time>
      </trkpt>
      <trkpt lat="43.38917" lon="2.62079">
        <ele>542.32</ele>
        <time>2015-07-13T09:53:33Z</time>
      </trkpt>
      <trkpt lat="43.38909" lon="2.62084">
        <ele>541.84</ele>
        <time>2015-07-13T09:53:42Z</time>
      </trkpt>
      <trkpt lat="43.38905" lon="2.62088">
        <ele>541.84</ele>
        <time>2015-07-13T09:53:45Z</time>
      </trkpt>
      <trkpt lat="43.389" lon="2.62092">
        <ele>542.32</ele>
        <time>2015-07-13T09:53:51Z</time>
      </trkpt>
      <trkpt lat="43.38897" lon="2.62094">
        <ele>542.32</ele>
        <time>2015-07-13T09:53:54Z</time>
      </trkpt>
      <trkpt lat="43.38892" lon="2.621">
        <ele>540.4</ele>
        <time>2015-07-13T09:54:05Z</time>
      </trkpt>
      <trkpt lat="43.3888" lon="2.62106">
        <ele>537.51</ele>
        <time>2015-07-13T09:54:15Z</time>
      </trkpt>
      <trkpt lat="43.38878" lon="2.62108">
        <ele>537.51</ele>
        <time>2015-07-13T09:54:17Z</time>
      </trkpt>
      <trkpt lat="43.38872" lon="2.62113">
        <ele>537.03</ele>
        <time>2015-07-13T09:54:23Z</time>
      </trkpt>
      <trkpt lat="43.38868" lon="2.62114">
        <ele>537.03</ele>
        <time>2015-07-13T09:54:28Z</time>
      </trkpt>
      <trkpt lat="43.38864" lon="2.62115">
        <ele>537.03</ele>
        <time>2015-07-13T09:54:33Z</time>
      </trkpt>
      <trkpt lat="43.38855" lon="2.62118">
        <ele>535.11</ele>
        <time>2015-07-13T09:54:44Z</time>
      </trkpt>
      <trkpt lat="43.38847" lon="2.62118">
        <ele>532.71</ele>
        <time>2015-07-13T09:54:55Z</time>
      </trkpt>
      <trkpt lat="43.38843" lon="2.62117">
        <ele>531.75</ele>
        <time>2015-07-13T09:54:59Z</time>
      </trkpt>
      <trkpt lat="43.38838" lon="2.62115">
        <ele>531.75</ele>
        <time>2015-07-13T09:55:12Z</time>
      </trkpt>
      <trkpt lat="43.38828" lon="2.62109">
        <ele>531.75</ele>
        <time>2015-07-13T09:55:20Z</time>
      </trkpt>
      <trkpt lat="43.3882" lon="2.62107">
        <ele>530.79</ele>
        <time>2015-07-13T09:55:27Z</time>
      </trkpt>
      <trkpt lat="43.38812" lon="2.62104">
        <ele>530.3</ele>
        <time>2015-07-13T09:55:35Z</time>
      </trkpt>
      <trkpt lat="43.38811" lon="2.62104">
        <ele>526.46</ele>
        <time>2015-07-13T09:55:38Z</time>
      </trkpt>
      <trkpt lat="43.38811" lon="2.62104">
        <ele>528.38</ele>
        <time>2015-07-13T09:55:39Z</time>
      </trkpt>
      <trkpt lat="43.38811" lon="2.62104">
        <ele>531.75</ele>
        <time>2015-07-13T09:55:43Z</time>
      </trkpt>
      <trkpt lat="43.38811" lon="2.62104">
        <ele>528.86</ele>
        <time>2015-07-13T09:55:44Z</time>
      </trkpt>
      <trkpt lat="43.38811" lon="2.62104">
        <ele>531.75</ele>
        <time>2015-07-13T09:55:46Z</time>
      </trkpt>
      <trkpt lat="43.38811" lon="2.62104">
        <ele>528.38</ele>
        <time>2015-07-13T09:55:47Z</time>
      </trkpt>
      <trkpt lat="43.38811" lon="2.62103">
        <ele>534.15</ele>
        <time>2015-07-13T09:55:49Z</time>
      </trkpt>
      <trkpt lat="43.38811" lon="2.62103">
        <ele>531.27</ele>
        <time>2015-07-13T09:55:50Z</time>
      </trkpt>
      <trkpt lat="43.3881" lon="2.62103">
        <ele>530.3</ele>
        <time>2015-07-13T09:55:52Z</time>
      </trkpt>
      <trkpt lat="43.3881" lon="2.62104">
        <ele>521.17</ele>
        <time>2015-07-13T09:56:01Z</time>
      </trkpt>
      <trkpt lat="43.3881" lon="2.62104">
        <ele>518.29</ele>
        <time>2015-07-13T09:56:02Z</time>
      </trkpt>
      <trkpt lat="43.3881" lon="2.62104">
        <ele>518.77</ele>
        <time>2015-07-13T09:56:03Z</time>
      </trkpt>
      <trkpt lat="43.38809" lon="2.62104">
        <ele>532.23</ele>
        <time>2015-07-13T09:56:04Z</time>
      </trkpt>
      <trkpt lat="43.38809" lon="2.62104">
        <ele>530.79</ele>
        <time>2015-07-13T09:56:05Z</time>
      </trkpt>
      <trkpt lat="43.38801" lon="2.62106">
        <ele>530.3</ele>
        <time>2015-07-13T09:56:14Z</time>
      </trkpt>
      <trkpt lat="43.38801" lon="2.62106">
        <ele>519.73</ele>
        <time>2015-07-13T09:56:15Z</time>
      </trkpt>
      <trkpt lat="43.388" lon="2.62106">
        <ele>531.27</ele>
        <time>2015-07-13T09:56:16Z</time>
      </trkpt>
      <trkpt lat="43.388" lon="2.62106">
        <ele>528.38</ele>
        <time>2015-07-13T09:56:22Z</time>
      </trkpt>
      <trkpt lat="43.38795" lon="2.62108">
        <ele>524.06</ele>
        <time>2015-07-13T09:56:29Z</time>
      </trkpt>
      <trkpt lat="43.38792" lon="2.6211">
        <ele>526.94</ele>
        <time>2015-07-13T09:56:32Z</time>
      </trkpt>
      <trkpt lat="43.38785" lon="2.62115">
        <ele>525.02</ele>
        <time>2015-07-13T09:56:38Z</time>
      </trkpt>
      <trkpt lat="43.38781" lon="2.62117">
        <ele>525.02</ele>
        <time>2015-07-13T09:56:41Z</time>
      </trkpt>
      <trkpt lat="43.38777" lon="2.62117">
        <ele>523.09</ele>
        <time>2015-07-13T09:56:45Z</time>
      </trkpt>
      <trkpt lat="43.38766" lon="2.6212">
        <ele>521.17</ele>
        <time>2015-07-13T09:56:53Z</time>
      </trkpt>
      <trkpt lat="43.38766" lon="2.62121">
        <ele>520.69</ele>
        <time>2015-07-13T09:56:54Z</time>
      </trkpt>
      <trkpt lat="43.38763" lon="2.62123">
        <ele>519.25</ele>
        <time>2015-07-13T09:56:57Z</time>
      </trkpt>
      <trkpt lat="43.38754" lon="2.62128">
        <ele>519.73</ele>
        <time>2015-07-13T09:57:07Z</time>
      </trkpt>
      <trkpt lat="43.38749" lon="2.62131">
        <ele>517.81</ele>
        <time>2015-07-13T09:57:12Z</time>
      </trkpt>
      <trkpt lat="43.38741" lon="2.62131">
        <ele>517.81</ele>
        <time>2015-07-13T09:57:24Z</time>
      </trkpt>
      <trkpt lat="43.38739" lon="2.62129">
        <ele>516.85</ele>
        <time>2015-07-13T09:57:35Z</time>
      </trkpt>
      <trkpt lat="43.38743" lon="2.62122">
        <ele>516.37</ele>
        <time>2015-07-13T09:57:40Z</time>
      </trkpt>
      <trkpt lat="43.3875" lon="2.62114">
        <ele>515.88</ele>
        <time>2015-07-13T09:57:47Z</time>
      </trkpt>
      <trkpt lat="43.38752" lon="2.62107">
        <ele>515.4</ele>
        <time>2015-07-13T09:57:52Z</time>
      </trkpt>
      <trkpt lat="43.38758" lon="2.62102">
        <ele>514.92</ele>
        <time>2015-07-13T09:57:57Z</time>
      </trkpt>
      <trkpt lat="43.3877" lon="2.62083">
        <ele>512.52</ele>
        <time>2015-07-13T09:58:11Z</time>
      </trkpt>
      <trkpt lat="43.38783" lon="2.62067">
        <ele>511.56</ele>
        <time>2015-07-13T09:58:25Z</time>
      </trkpt>
      <trkpt lat="43.38791" lon="2.62052">
        <ele>509.64</ele>
        <time>2015-07-13T09:58:36Z</time>
      </trkpt>
      <trkpt lat="43.38792" lon="2.62049">
        <ele>509.16</ele>
        <time>2015-07-13T09:58:38Z</time>
      </trkpt>
      <trkpt lat="43.38799" lon="2.62039">
        <ele>508.19</ele>
        <time>2015-07-13T09:58:44Z</time>
      </trkpt>
      <trkpt lat="43.38802" lon="2.62036">
        <ele>507.23</ele>
        <time>2015-07-13T09:58:47Z</time>
      </trkpt>
      <trkpt lat="43.38809" lon="2.62026">
        <ele>505.79</ele>
        <time>2015-07-13T09:58:56Z</time>
      </trkpt>
      <trkpt lat="43.38815" lon="2.62022">
        <ele>505.31</ele>
        <time>2015-07-13T09:59:00Z</time>
      </trkpt>
      <trkpt lat="43.38825" lon="2.62014">
        <ele>503.39</ele>
        <time>2015-07-13T09:59:06Z</time>
      </trkpt>
      <trkpt lat="43.38827" lon="2.62013">
        <ele>504.35</ele>
        <time>2015-07-13T09:59:07Z</time>
      </trkpt>
      <trkpt lat="43.38835" lon="2.62006">
        <ele>503.39</ele>
        <time>2015-07-13T09:59:14Z</time>
      </trkpt>
      <trkpt lat="43.38848" lon="2.61991">
        <ele>501.46</ele>
        <time>2015-07-13T09:59:27Z</time>
      </trkpt>
      <trkpt lat="43.38852" lon="2.61985">
        <ele>500.98</ele>
        <time>2015-07-13T09:59:38Z</time>
      </trkpt>
      <trkpt lat="43.3886" lon="2.61976">
        <ele>499.54</ele>
        <time>2015-07-13T09:59:47Z</time>
      </trkpt>
      <trkpt lat="43.38866" lon="2.61965">
        <ele>498.58</ele>
        <time>2015-07-13T09:59:53Z</time>
      </trkpt>
      <trkpt lat="43.38871" lon="2.61956">
        <ele>497.62</ele>
        <time>2015-07-13T09:59:58Z</time>
      </trkpt>
      <trkpt lat="43.38877" lon="2.61945">
        <ele>496.18</ele>
        <time>2015-07-13T10:00:04Z</time>
      </trkpt>
      <trkpt lat="43.38885" lon="2.61931">
        <ele>493.77</ele>
        <time>2015-07-13T10:00:17Z</time>
      </trkpt>
      <trkpt lat="43.38884" lon="2.61927">
        <ele>493.77</ele>
        <time>2015-07-13T10:00:20Z</time>
      </trkpt>
      <trkpt lat="43.38878" lon="2.61925">
        <ele>492.81</ele>
        <time>2015-07-13T10:00:28Z</time>
      </trkpt>
      <trkpt lat="43.38871" lon="2.61937">
        <ele>489.93</ele>
        <time>2015-07-13T10:00:44Z</time>
      </trkpt>
      <trkpt lat="43.38851" lon="2.6194">
        <ele>489.93</ele>
        <time>2015-07-13T10:01:00Z</time>
      </trkpt>
      <trkpt lat="43.38845" lon="2.61939">
        <ele>487.53</ele>
        <time>2015-07-13T10:01:13Z</time>
      </trkpt>
      <trkpt lat="43.38834" lon="2.61948">
        <ele>486.08</ele>
        <time>2015-07-13T10:01:24Z</time>
      </trkpt>
      <trkpt lat="43.38815" lon="2.61951">
        <ele>485.6</ele>
        <time>2015-07-13T10:01:36Z</time>
      </trkpt>
      <trkpt lat="43.38813" lon="2.61953">
        <ele>485.12</ele>
        <time>2015-07-13T10:01:39Z</time>
      </trkpt>
      <trkpt lat="43.38792" lon="2.61958">
        <ele>484.64</ele>
        <time>2015-07-13T10:01:54Z</time>
      </trkpt>
      <trkpt lat="43.3879" lon="2.61958">
        <ele>483.68</ele>
        <time>2015-07-13T10:01:56Z</time>
      </trkpt>
      <trkpt lat="43.38784" lon="2.61962">
        <ele>483.2</ele>
        <time>2015-07-13T10:02:04Z</time>
      </trkpt>
      <trkpt lat="43.3878" lon="2.61964">
        <ele>482.24</ele>
        <time>2015-07-13T10:02:07Z</time>
      </trkpt>
      <trkpt lat="43.38778" lon="2.61965">
        <ele>483.2</ele>
        <time>2015-07-13T10:02:09Z</time>
      </trkpt>
      <trkpt lat="43.38766" lon="2.61973">
        <ele>481.28</ele>
        <time>2015-07-13T10:02:22Z</time>
      </trkpt>
      <trkpt lat="43.38759" lon="2.61976">
        <ele>481.28</ele>
        <time>2015-07-13T10:02:25Z</time>
      </trkpt>
      <trkpt lat="43.38752" lon="2.6198">
        <ele>480.8</ele>
        <time>2015-07-13T10:02:29Z</time>
      </trkpt>
      <trkpt lat="43.38751" lon="2.61983">
        <ele>480.8</ele>
        <time>2015-07-13T10:02:31Z</time>
      </trkpt>
      <trkpt lat="43.38742" lon="2.61986">
        <ele>480.8</ele>
        <time>2015-07-13T10:02:44Z</time>
      </trkpt>
      <trkpt lat="43.3873" lon="2.62">
        <ele>478.87</ele>
        <time>2015-07-13T10:02:58Z</time>
      </trkpt>
      <trkpt lat="43.38718" lon="2.62005">
        <ele>477.91</ele>
        <time>2015-07-13T10:03:12Z</time>
      </trkpt>
      <trkpt lat="43.38716" lon="2.6201">
        <ele>478.87</ele>
        <time>2015-07-13T10:03:25Z</time>
      </trkpt>
      <trkpt lat="43.38707" lon="2.62021">
        <ele>477.43</ele>
        <time>2015-07-13T10:03:38Z</time>
      </trkpt>
      <trkpt lat="43.38701" lon="2.62025">
        <ele>477.43</ele>
        <time>2015-07-13T10:03:44Z</time>
      </trkpt>
      <trkpt lat="43.38696" lon="2.62028">
        <ele>475.99</ele>
        <time>2015-07-13T10:03:47Z</time>
      </trkpt>
      <trkpt lat="43.38684" lon="2.62033">
        <ele>475.99</ele>
        <time>2015-07-13T10:03:54Z</time>
      </trkpt>
      <trkpt lat="43.38664" lon="2.62042">
        <ele>474.07</ele>
        <time>2015-07-13T10:04:07Z</time>
      </trkpt>
      <trkpt lat="43.38651" lon="2.62049">
        <ele>473.59</ele>
        <time>2015-07-13T10:04:17Z</time>
      </trkpt>
      <trkpt lat="43.38638" lon="2.62054">
        <ele>472.14</ele>
        <time>2015-07-13T10:04:29Z</time>
      </trkpt>
      <trkpt lat="43.38632" lon="2.62058">
        <ele>471.66</ele>
        <time>2015-07-13T10:04:35Z</time>
      </trkpt>
      <trkpt lat="43.38624" lon="2.6206">
        <ele>469.74</ele>
        <time>2015-07-13T10:04:42Z</time>
      </trkpt>
      <trkpt lat="43.38618" lon="2.62062">
        <ele>469.74</ele>
        <time>2015-07-13T10:04:47Z</time>
      </trkpt>
      <trkpt lat="43.3861" lon="2.62066">
        <ele>468.3</ele>
        <time>2015-07-13T10:04:56Z</time>
      </trkpt>
      <trkpt lat="43.38596" lon="2.62068">
        <ele>466.86</ele>
        <time>2015-07-13T10:05:08Z</time>
      </trkpt>
      <trkpt lat="43.38595" lon="2.62068">
        <ele>466.38</ele>
        <time>2015-07-13T10:05:09Z</time>
      </trkpt>
      <trkpt lat="43.3859" lon="2.62072">
        <ele>465.9</ele>
        <time>2015-07-13T10:05:15Z</time>
      </trkpt>
      <trkpt lat="43.38588" lon="2.62073">
        <ele>466.38</ele>
        <time>2015-07-13T10:05:17Z</time>
      </trkpt>
      <trkpt lat="43.38573" lon="2.62078">
        <ele>466.38</ele>
        <time>2015-07-13T10:05:32Z</time>
      </trkpt>
      <trkpt lat="43.38571" lon="2.62077">
        <ele>466.86</ele>
        <time>2015-07-13T10:05:38Z</time>
      </trkpt>
      <trkpt lat="43.38564" lon="2.62082">
        <ele>465.9</ele>
        <time>2015-07-13T10:05:52Z</time>
      </trkpt>
      <trkpt lat="43.38561" lon="2.62081">
        <ele>463.49</ele>
        <time>2015-07-13T10:06:05Z</time>
      </trkpt>
      <trkpt lat="43.38562" lon="2.62072">
        <ele>461.57</ele>
        <time>2015-07-13T10:06:18Z</time>
      </trkpt>
      <trkpt lat="43.38563" lon="2.62067">
        <ele>460.13</ele>
        <time>2015-07-13T10:06:34Z</time>
      </trkpt>
      <trkpt lat="43.38565" lon="2.62059">
        <ele>458.21</ele>
        <time>2015-07-13T10:06:49Z</time>
      </trkpt>
      <trkpt lat="43.38568" lon="2.62052">
        <ele>456.28</ele>
        <time>2015-07-13T10:07:01Z</time>
      </trkpt>
      <trkpt lat="43.38569" lon="2.62045">
        <ele>453.4</ele>
        <time>2015-07-13T10:07:15Z</time>
      </trkpt>
      <trkpt lat="43.38572" lon="2.6204">
        <ele>451.48</ele>
        <time>2015-07-13T10:07:29Z</time>
      </trkpt>
      <trkpt lat="43.38574" lon="2.62031">
        <ele>450.52</ele>
        <time>2015-07-13T10:07:42Z</time>
      </trkpt>
      <trkpt lat="43.38581" lon="2.62024">
        <ele>448.11</ele>
        <time>2015-07-13T10:07:53Z</time>
      </trkpt>
      <trkpt lat="43.38582" lon="2.6202">
        <ele>445.23</ele>
        <time>2015-07-13T10:08:06Z</time>
      </trkpt>
      <trkpt lat="43.38578" lon="2.62005">
        <ele>444.75</ele>
        <time>2015-07-13T10:08:19Z</time>
      </trkpt>
      <trkpt lat="43.38578" lon="2.62005">
        <ele>443.79</ele>
        <time>2015-07-13T10:08:22Z</time>
      </trkpt>
      <trkpt lat="43.38566" lon="2.62006">
        <ele>443.79</ele>
        <time>2015-07-13T10:08:33Z</time>
      </trkpt>
      <trkpt lat="43.38553" lon="2.61995">
        <ele>444.75</ele>
        <time>2015-07-13T10:08:46Z</time>
      </trkpt>
      <trkpt lat="43.38551" lon="2.61996">
        <ele>444.75</ele>
        <time>2015-07-13T10:08:53Z</time>
      </trkpt>
      <trkpt lat="43.38545" lon="2.61996">
        <ele>444.75</ele>
        <time>2015-07-13T10:09:01Z</time>
      </trkpt>
      <trkpt lat="43.38529" lon="2.61988">
        <ele>447.63</ele>
        <time>2015-07-13T10:09:15Z</time>
      </trkpt>
      <trkpt lat="43.38527" lon="2.61986">
        <ele>450.03</ele>
        <time>2015-07-13T10:09:17Z</time>
      </trkpt>
      <trkpt lat="43.38525" lon="2.61979">
        <ele>444.75</ele>
        <time>2015-07-13T10:09:21Z</time>
      </trkpt>
      <trkpt lat="43.38525" lon="2.61974">
        <ele>443.31</ele>
        <time>2015-07-13T10:09:24Z</time>
      </trkpt>
      <trkpt lat="43.38524" lon="2.6197">
        <ele>443.31</ele>
        <time>2015-07-13T10:09:27Z</time>
      </trkpt>
      <trkpt lat="43.38511" lon="2.61973">
        <ele>442.34</ele>
        <time>2015-07-13T10:09:32Z</time>
      </trkpt>
      <trkpt lat="43.38501" lon="2.61969">
        <ele>441.38</ele>
        <time>2015-07-13T10:09:41Z</time>
      </trkpt>
      <trkpt lat="43.3849" lon="2.61983">
        <ele>439.46</ele>
        <time>2015-07-13T10:09:53Z</time>
      </trkpt>
      <trkpt lat="43.38484" lon="2.6199">
        <ele>436.58</ele>
        <time>2015-07-13T10:09:58Z</time>
      </trkpt>
      <trkpt lat="43.38473" lon="2.61985">
        <ele>437.06</ele>
        <time>2015-07-13T10:10:09Z</time>
      </trkpt>
      <trkpt lat="43.38456" lon="2.61978">
        <ele>436.1</ele>
        <time>2015-07-13T10:10:17Z</time>
      </trkpt>
      <trkpt lat="43.38452" lon="2.61983">
        <ele>434.17</ele>
        <time>2015-07-13T10:10:25Z</time>
      </trkpt>
      <trkpt lat="43.38448" lon="2.61985">
        <ele>433.69</ele>
        <time>2015-07-13T10:10:30Z</time>
      </trkpt>
      <trkpt lat="43.38436" lon="2.6198">
        <ele>432.25</ele>
        <time>2015-07-13T10:10:42Z</time>
      </trkpt>
      <trkpt lat="43.38432" lon="2.61981">
        <ele>431.29</ele>
        <time>2015-07-13T10:10:45Z</time>
      </trkpt>
      <trkpt lat="43.38425" lon="2.61985">
        <ele>427.44</ele>
        <time>2015-07-13T10:10:53Z</time>
      </trkpt>
      <trkpt lat="43.38424" lon="2.61985">
        <ele>428.4</ele>
        <time>2015-07-13T10:10:54Z</time>
      </trkpt>
      <trkpt lat="43.38422" lon="2.61985">
        <ele>428.89</ele>
        <time>2015-07-13T10:11:06Z</time>
      </trkpt>
      <trkpt lat="43.38422" lon="2.61985">
        <ele>429.37</ele>
        <time>2015-07-13T10:11:09Z</time>
      </trkpt>
      <trkpt lat="43.38417" lon="2.61985">
        <ele>429.37</ele>
        <time>2015-07-13T10:11:13Z</time>
      </trkpt>
      <trkpt lat="43.38412" lon="2.61985">
        <ele>427.44</ele>
        <time>2015-07-13T10:11:19Z</time>
      </trkpt>
      <trkpt lat="43.38408" lon="2.61987">
        <ele>427.92</ele>
        <time>2015-07-13T10:11:26Z</time>
      </trkpt>
      <trkpt lat="43.38404" lon="2.61989">
        <ele>426.48</ele>
        <time>2015-07-13T10:11:29Z</time>
      </trkpt>
      <trkpt lat="43.38397" lon="2.6199">
        <ele>426.96</ele>
        <time>2015-07-13T10:11:36Z</time>
      </trkpt>
      <trkpt lat="43.38383" lon="2.62">
        <ele>424.08</ele>
        <time>2015-07-13T10:11:47Z</time>
      </trkpt>
      <trkpt lat="43.38381" lon="2.62002">
        <ele>422.64</ele>
        <time>2015-07-13T10:11:50Z</time>
      </trkpt>
      <trkpt lat="43.3838" lon="2.62007">
        <ele>424.08</ele>
        <time>2015-07-13T10:12:03Z</time>
      </trkpt>
      <trkpt lat="43.38381" lon="2.62007">
        <ele>423.12</ele>
        <time>2015-07-13T10:12:21Z</time>
      </trkpt>
      <trkpt lat="43.3838" lon="2.62007">
        <ele>422.64</ele>
        <time>2015-07-13T10:12:30Z</time>
      </trkpt>
      <trkpt lat="43.38378" lon="2.62007">
        <ele>422.64</ele>
        <time>2015-07-13T10:12:32Z</time>
      </trkpt>
      <trkpt lat="43.38371" lon="2.62006">
        <ele>421.19</ele>
        <time>2015-07-13T10:12:38Z</time>
      </trkpt>
      <trkpt lat="43.38369" lon="2.62007">
        <ele>420.71</ele>
        <time>2015-07-13T10:12:52Z</time>
      </trkpt>
      <trkpt lat="43.38368" lon="2.62007">
        <ele>420.71</ele>
        <time>2015-07-13T10:13:10Z</time>
      </trkpt>
      <trkpt lat="43.38368" lon="2.62007">
        <ele>421.68</ele>
        <time>2015-07-13T10:13:22Z</time>
      </trkpt>
      <trkpt lat="43.38368" lon="2.62007">
        <ele>426.96</ele>
        <time>2015-07-13T10:13:32Z</time>
      </trkpt>
      <trkpt lat="43.38368" lon="2.62007">
        <ele>421.19</ele>
        <time>2015-07-13T10:13:33Z</time>
      </trkpt>
      <trkpt lat="43.38369" lon="2.62007">
        <ele>418.31</ele>
        <time>2015-07-13T10:13:42Z</time>
      </trkpt>
      <trkpt lat="43.38369" lon="2.62006">
        <ele>419.75</ele>
        <time>2015-07-13T10:13:48Z</time>
      </trkpt>
    </trkseg>
  </trk>
</gpx>